<?xml version="1.0" encoding="UTF-8" standalone="no" ?>
<gpx xmlns="http://www.topografix.com/GPX/1/1" xmlns:xsi="http://www.w3.org/2001/XMLSchema-instance" xsi:schemaLocation="http://www.topografix.com/GPX/1/1 http://www.topografix.com/GPX/1/1/gpx.xsd" version="1.1" creator="VisuGPX - https://www.visugpx.com">
  <metadata>
    <name>15-téton de Vénus</name>
  </metadata>
  <trk>
    <name><![CDATA[2022-07-12 17:12:15]]></name>
    <extensions>
      <line xmlns="http://www.topografix.com/GPX/gpx_style/0/2">
        <color>0000FF</color>
        <width>4</width>
      </line>
    </extensions>
    <trkseg>
      <trkpt lat="45.08369" lon="2.67123">
        <ele>1022.05</ele>
        <time>2022-07-11T15:36:27Z</time>
      </trkpt>
      <trkpt lat="45.08369" lon="2.67122">
        <ele>1021.24</ele>
        <time>2022-07-11T15:36:35Z</time>
      </trkpt>
    </trkseg>
  </trk>
  <trk>
    <name><![CDATA[15-téton de Vénus_2]]></name>
    <trkseg>
      <trkpt lat="45.09096" lon="2.75186">
        <ele>1120.14</ele>
        <time>2022-07-12T07:44:41Z</time>
      </trkpt>
      <trkpt lat="45.09093" lon="2.75191">
        <ele>1120.14</ele>
        <time>2022-07-12T07:44:47Z</time>
      </trkpt>
      <trkpt lat="45.09092" lon="2.75192">
        <ele>1120.28</ele>
        <time>2022-07-12T07:44:54Z</time>
      </trkpt>
      <trkpt lat="45.09097" lon="2.75196">
        <ele>1120</ele>
        <time>2022-07-12T07:45:24Z</time>
      </trkpt>
      <trkpt lat="45.09096" lon="2.75177">
        <ele>1120.56</ele>
        <time>2022-07-12T07:46:57Z</time>
      </trkpt>
      <trkpt lat="45.09099" lon="2.75182">
        <ele>1120.49</ele>
        <time>2022-07-12T07:46:59Z</time>
      </trkpt>
      <trkpt lat="45.091" lon="2.75185">
        <ele>1120.48</ele>
        <time>2022-07-12T07:47:00Z</time>
      </trkpt>
      <trkpt lat="45.09101" lon="2.75186">
        <ele>1120.47</ele>
        <time>2022-07-12T07:47:01Z</time>
      </trkpt>
      <trkpt lat="45.09105" lon="2.75189">
        <ele>1120.16</ele>
        <time>2022-07-12T07:47:06Z</time>
      </trkpt>
      <trkpt lat="45.091" lon="2.75175">
        <ele>1120.15</ele>
        <time>2022-07-12T07:47:30Z</time>
      </trkpt>
      <trkpt lat="45.091" lon="2.75173">
        <ele>1120.16</ele>
        <time>2022-07-12T07:47:31Z</time>
      </trkpt>
      <trkpt lat="45.09099" lon="2.75171">
        <ele>1120.17</ele>
        <time>2022-07-12T07:47:32Z</time>
      </trkpt>
      <trkpt lat="45.09098" lon="2.7517">
        <ele>1120.19</ele>
        <time>2022-07-12T07:47:33Z</time>
      </trkpt>
      <trkpt lat="45.09094" lon="2.75156">
        <ele>1120.46</ele>
        <time>2022-07-12T07:47:40Z</time>
      </trkpt>
      <trkpt lat="45.09093" lon="2.75154">
        <ele>1120.5</ele>
        <time>2022-07-12T07:47:41Z</time>
      </trkpt>
      <trkpt lat="45.09092" lon="2.75149">
        <ele>1120.61</ele>
        <time>2022-07-12T07:47:43Z</time>
      </trkpt>
      <trkpt lat="45.09091" lon="2.75147">
        <ele>1120.7</ele>
        <time>2022-07-12T07:47:44Z</time>
      </trkpt>
      <trkpt lat="45.09091" lon="2.75145">
        <ele>1120.76</ele>
        <time>2022-07-12T07:47:45Z</time>
      </trkpt>
      <trkpt lat="45.09091" lon="2.75143">
        <ele>1120.87</ele>
        <time>2022-07-12T07:47:46Z</time>
      </trkpt>
      <trkpt lat="45.0909" lon="2.75141">
        <ele>1120.97</ele>
        <time>2022-07-12T07:47:47Z</time>
      </trkpt>
      <trkpt lat="45.09089" lon="2.75139">
        <ele>1121.03</ele>
        <time>2022-07-12T07:47:48Z</time>
      </trkpt>
      <trkpt lat="45.09089" lon="2.75136">
        <ele>1121.07</ele>
        <time>2022-07-12T07:47:49Z</time>
      </trkpt>
      <trkpt lat="45.09088" lon="2.75134">
        <ele>1121.1</ele>
        <time>2022-07-12T07:47:50Z</time>
      </trkpt>
      <trkpt lat="45.09088" lon="2.75133">
        <ele>1121.15</ele>
        <time>2022-07-12T07:47:51Z</time>
      </trkpt>
      <trkpt lat="45.09088" lon="2.75131">
        <ele>1121.29</ele>
        <time>2022-07-12T07:47:52Z</time>
      </trkpt>
      <trkpt lat="45.09074" lon="2.75102">
        <ele>1122.58</ele>
        <time>2022-07-12T07:48:08Z</time>
      </trkpt>
      <trkpt lat="45.0906" lon="2.75084">
        <ele>1123.22</ele>
        <time>2022-07-12T07:48:25Z</time>
      </trkpt>
      <trkpt lat="45.09051" lon="2.7507">
        <ele>1123.57</ele>
        <time>2022-07-12T07:48:38Z</time>
      </trkpt>
      <trkpt lat="45.09037" lon="2.75046">
        <ele>1125.02</ele>
        <time>2022-07-12T07:48:55Z</time>
      </trkpt>
      <trkpt lat="45.09036" lon="2.75044">
        <ele>1125.07</ele>
        <time>2022-07-12T07:48:56Z</time>
      </trkpt>
      <trkpt lat="45.09027" lon="2.75031">
        <ele>1125.47</ele>
        <time>2022-07-12T07:49:08Z</time>
      </trkpt>
      <trkpt lat="45.09025" lon="2.75026">
        <ele>1125.52</ele>
        <time>2022-07-12T07:49:12Z</time>
      </trkpt>
      <trkpt lat="45.09015" lon="2.75003">
        <ele>1126.35</ele>
        <time>2022-07-12T07:49:30Z</time>
      </trkpt>
      <trkpt lat="45.09002" lon="2.74979">
        <ele>1127.04</ele>
        <time>2022-07-12T07:49:44Z</time>
      </trkpt>
      <trkpt lat="45.08992" lon="2.74962">
        <ele>1127.59</ele>
        <time>2022-07-12T07:49:56Z</time>
      </trkpt>
      <trkpt lat="45.08982" lon="2.74952">
        <ele>1128.13</ele>
        <time>2022-07-12T07:50:09Z</time>
      </trkpt>
      <trkpt lat="45.0898" lon="2.74946">
        <ele>1128.35</ele>
        <time>2022-07-12T07:50:15Z</time>
      </trkpt>
      <trkpt lat="45.08979" lon="2.74945">
        <ele>1128.37</ele>
        <time>2022-07-12T07:50:16Z</time>
      </trkpt>
      <trkpt lat="45.08975" lon="2.74933">
        <ele>1128.96</ele>
        <time>2022-07-12T07:50:25Z</time>
      </trkpt>
      <trkpt lat="45.08975" lon="2.74932">
        <ele>1129.03</ele>
        <time>2022-07-12T07:50:26Z</time>
      </trkpt>
      <trkpt lat="45.08976" lon="2.74931">
        <ele>1129.06</ele>
        <time>2022-07-12T07:50:27Z</time>
      </trkpt>
      <trkpt lat="45.08983" lon="2.74906">
        <ele>1129.98</ele>
        <time>2022-07-12T07:50:42Z</time>
      </trkpt>
      <trkpt lat="45.08979" lon="2.74894">
        <ele>1130.72</ele>
        <time>2022-07-12T07:50:52Z</time>
      </trkpt>
      <trkpt lat="45.08961" lon="2.74872">
        <ele>1132.13</ele>
        <time>2022-07-12T07:51:09Z</time>
      </trkpt>
      <trkpt lat="45.08953" lon="2.74864">
        <ele>1133</ele>
        <time>2022-07-12T07:51:17Z</time>
      </trkpt>
      <trkpt lat="45.08939" lon="2.74845">
        <ele>1134.38</ele>
        <time>2022-07-12T07:51:35Z</time>
      </trkpt>
      <trkpt lat="45.08926" lon="2.74829">
        <ele>1135.59</ele>
        <time>2022-07-12T07:51:48Z</time>
      </trkpt>
      <trkpt lat="45.08917" lon="2.74803">
        <ele>1137.01</ele>
        <time>2022-07-12T07:52:05Z</time>
      </trkpt>
      <trkpt lat="45.08909" lon="2.74778">
        <ele>1138.65</ele>
        <time>2022-07-12T07:52:21Z</time>
      </trkpt>
      <trkpt lat="45.08899" lon="2.74759">
        <ele>1140.14</ele>
        <time>2022-07-12T07:52:38Z</time>
      </trkpt>
      <trkpt lat="45.08889" lon="2.74743">
        <ele>1141.87</ele>
        <time>2022-07-12T07:52:56Z</time>
      </trkpt>
      <trkpt lat="45.08881" lon="2.74725">
        <ele>1142.72</ele>
        <time>2022-07-12T07:53:09Z</time>
      </trkpt>
      <trkpt lat="45.08872" lon="2.74698">
        <ele>1144.31</ele>
        <time>2022-07-12T07:53:28Z</time>
      </trkpt>
      <trkpt lat="45.08864" lon="2.74672">
        <ele>1145.81</ele>
        <time>2022-07-12T07:53:45Z</time>
      </trkpt>
      <trkpt lat="45.08848" lon="2.74644">
        <ele>1147.46</ele>
        <time>2022-07-12T07:54:05Z</time>
      </trkpt>
      <trkpt lat="45.08836" lon="2.74611">
        <ele>1148.64</ele>
        <time>2022-07-12T07:54:23Z</time>
      </trkpt>
      <trkpt lat="45.08821" lon="2.74586">
        <ele>1149.94</ele>
        <time>2022-07-12T07:54:40Z</time>
      </trkpt>
      <trkpt lat="45.08811" lon="2.74559">
        <ele>1151.49</ele>
        <time>2022-07-12T07:54:57Z</time>
      </trkpt>
      <trkpt lat="45.088" lon="2.7453">
        <ele>1152.57</ele>
        <time>2022-07-12T07:55:14Z</time>
      </trkpt>
      <trkpt lat="45.08793" lon="2.74512">
        <ele>1153.28</ele>
        <time>2022-07-12T07:55:27Z</time>
      </trkpt>
      <trkpt lat="45.08776" lon="2.74396">
        <ele>1157.56</ele>
        <time>2022-07-12T07:56:57Z</time>
      </trkpt>
      <trkpt lat="45.08753" lon="2.74377">
        <ele>1157.62</ele>
        <time>2022-07-12T07:57:22Z</time>
      </trkpt>
      <trkpt lat="45.08753" lon="2.74373">
        <ele>1157.63</ele>
        <time>2022-07-12T07:57:26Z</time>
      </trkpt>
      <trkpt lat="45.08753" lon="2.7437">
        <ele>1157.64</ele>
        <time>2022-07-12T07:57:37Z</time>
      </trkpt>
      <trkpt lat="45.08753" lon="2.74369">
        <ele>1157.64</ele>
        <time>2022-07-12T07:57:39Z</time>
      </trkpt>
      <trkpt lat="45.08755" lon="2.74389">
        <ele>1157.64</ele>
        <time>2022-07-12T07:58:20Z</time>
      </trkpt>
      <trkpt lat="45.0877" lon="2.74385">
        <ele>1157.64</ele>
        <time>2022-07-12T07:58:32Z</time>
      </trkpt>
      <trkpt lat="45.08783" lon="2.74356">
        <ele>1158.26</ele>
        <time>2022-07-12T07:58:52Z</time>
      </trkpt>
      <trkpt lat="45.08785" lon="2.74351">
        <ele>1158.39</ele>
        <time>2022-07-12T07:58:55Z</time>
      </trkpt>
      <trkpt lat="45.08797" lon="2.74326">
        <ele>1159.17</ele>
        <time>2022-07-12T07:59:11Z</time>
      </trkpt>
      <trkpt lat="45.08804" lon="2.74292">
        <ele>1159.92</ele>
        <time>2022-07-12T07:59:29Z</time>
      </trkpt>
      <trkpt lat="45.08815" lon="2.74264">
        <ele>1160.32</ele>
        <time>2022-07-12T07:59:46Z</time>
      </trkpt>
      <trkpt lat="45.08824" lon="2.74237">
        <ele>1160.66</ele>
        <time>2022-07-12T08:00:00Z</time>
      </trkpt>
      <trkpt lat="45.0883" lon="2.74231">
        <ele>1160.99</ele>
        <time>2022-07-12T08:00:12Z</time>
      </trkpt>
      <trkpt lat="45.08835" lon="2.74244">
        <ele>1162.13</ele>
        <time>2022-07-12T08:00:27Z</time>
      </trkpt>
      <trkpt lat="45.08854" lon="2.74255">
        <ele>1163.7</ele>
        <time>2022-07-12T08:00:42Z</time>
        <extensions>
          <visugpx:TrkExtension xmlns:visugpx="https://www.visugpx.com/editgpx/">
            <visugpx:node>5</visugpx:node>
            </visugpx:TrkExtension>
        </extensions>
      </trkpt>
      <trkpt lat="45.0885" lon="2.74245">
        <ele>1205.8</ele>
      </trkpt>
      <trkpt lat="45.08861" lon="2.74229">
        <ele>1209</ele>
      </trkpt>
      <trkpt lat="45.0887" lon="2.74216">
        <ele>1212.4</ele>
      </trkpt>
      <trkpt lat="45.08881" lon="2.742">
        <ele>1216.3</ele>
      </trkpt>
      <trkpt lat="45.08891" lon="2.7418">
        <ele>1219.5</ele>
      </trkpt>
      <trkpt lat="45.08897" lon="2.74167">
        <ele>1221.8</ele>
      </trkpt>
      <trkpt lat="45.089" lon="2.74159">
        <ele>1223.4</ele>
      </trkpt>
      <trkpt lat="45.08904" lon="2.74136">
        <ele>1225.4</ele>
      </trkpt>
      <trkpt lat="45.08909" lon="2.74115">
        <ele>1226.8</ele>
      </trkpt>
      <trkpt lat="45.08916" lon="2.74099">
        <ele>1228.8</ele>
      </trkpt>
      <trkpt lat="45.08923" lon="2.74084">
        <ele>1231.3</ele>
      </trkpt>
      <trkpt lat="45.08932" lon="2.74063">
        <ele>1232.7</ele>
      </trkpt>
      <trkpt lat="45.08943" lon="2.7404">
        <ele>1234.2</ele>
      </trkpt>
      <trkpt lat="45.08951" lon="2.74025">
        <ele>1236.2</ele>
      </trkpt>
      <trkpt lat="45.08961" lon="2.74007">
        <ele>1238.4</ele>
      </trkpt>
      <trkpt lat="45.0897" lon="2.73993">
        <ele>1239.5</ele>
      </trkpt>
      <trkpt lat="45.0898" lon="2.73977">
        <ele>1241</ele>
      </trkpt>
      <trkpt lat="45.08989" lon="2.73967">
        <ele>1243.7</ele>
      </trkpt>
      <trkpt lat="45.08997" lon="2.73961">
        <ele>1246.9</ele>
      </trkpt>
      <trkpt lat="45.08999" lon="2.7396">
        <ele>1247.7</ele>
      </trkpt>
      <trkpt lat="45.09" lon="2.7396">
        <ele>1248.2</ele>
        <extensions>
          <visugpx:TrkExtension xmlns:visugpx="https://www.visugpx.com/editgpx/">
            <visugpx:node>6</visugpx:node>
            </visugpx:TrkExtension>
        </extensions>
      </trkpt>
      <trkpt lat="45.09002" lon="2.73959">
        <ele>1249.2</ele>
      </trkpt>
      <trkpt lat="45.08992" lon="2.73987">
        <ele>1249.5</ele>
      </trkpt>
      <trkpt lat="45.0898" lon="2.74023">
        <ele>1251.2</ele>
      </trkpt>
      <trkpt lat="45.08967" lon="2.74065">
        <ele>1250.6</ele>
      </trkpt>
      <trkpt lat="45.08959" lon="2.7409">
        <ele>1250.3</ele>
      </trkpt>
      <trkpt lat="45.08954" lon="2.74109">
        <ele>1250.5</ele>
      </trkpt>
      <trkpt lat="45.08953" lon="2.74124">
        <ele>1250.5</ele>
      </trkpt>
      <trkpt lat="45.08952" lon="2.74144">
        <ele>1250.2</ele>
      </trkpt>
      <trkpt lat="45.0895" lon="2.74167">
        <ele>1249.8</ele>
      </trkpt>
      <trkpt lat="45.08949" lon="2.74171">
        <ele>1249.5</ele>
        <extensions>
          <visugpx:TrkExtension xmlns:visugpx="https://www.visugpx.com/editgpx/">
            <visugpx:node>7</visugpx:node>
            </visugpx:TrkExtension>
        </extensions>
      </trkpt>
      <trkpt lat="45.08954" lon="2.74168">
        <ele>1251.9</ele>
      </trkpt>
      <trkpt lat="45.08958" lon="2.74163">
        <ele>1253.8</ele>
      </trkpt>
      <trkpt lat="45.08963" lon="2.74146">
        <ele>1256.1</ele>
      </trkpt>
      <trkpt lat="45.08971" lon="2.74115">
        <ele>1259.5</ele>
      </trkpt>
      <trkpt lat="45.08978" lon="2.74101">
        <ele>1261.7</ele>
      </trkpt>
      <trkpt lat="45.08983" lon="2.74089">
        <ele>1262.9</ele>
      </trkpt>
      <trkpt lat="45.08987" lon="2.74083">
        <ele>1264.5</ele>
      </trkpt>
      <trkpt lat="45.08991" lon="2.74082">
        <ele>1266.6</ele>
      </trkpt>
      <trkpt lat="45.08993" lon="2.74083">
        <ele>1267.9</ele>
      </trkpt>
      <trkpt lat="45.08995" lon="2.74088">
        <ele>1269.7</ele>
      </trkpt>
      <trkpt lat="45.08996" lon="2.74101">
        <ele>1271.7</ele>
      </trkpt>
      <trkpt lat="45.08997" lon="2.74116">
        <ele>1273.6</ele>
      </trkpt>
      <trkpt lat="45.09001" lon="2.74138">
        <ele>1276.6</ele>
      </trkpt>
      <trkpt lat="45.09003" lon="2.74148">
        <ele>1277.8</ele>
      </trkpt>
      <trkpt lat="45.09005" lon="2.74157">
        <ele>1279.1</ele>
      </trkpt>
      <trkpt lat="45.09007" lon="2.74168">
        <ele>1280.4</ele>
        <extensions>
          <visugpx:TrkExtension xmlns:visugpx="https://www.visugpx.com/editgpx/">
            <visugpx:node>8</visugpx:node>
            </visugpx:TrkExtension>
        </extensions>
      </trkpt>
      <trkpt lat="45.09004" lon="2.7417">
        <ele>1236.9</ele>
        <time>2022-07-12T08:10:48Z</time>
        <extensions>
          <visugpx:TrkExtension xmlns:visugpx="https://www.visugpx.com/editgpx/">
            <visugpx:node>4</visugpx:node>
            </visugpx:TrkExtension>
        </extensions>
      </trkpt>
      <trkpt lat="45.09008" lon="2.74189">
        <ele>1239</ele>
        <time>2022-07-12T08:11:04Z</time>
      </trkpt>
      <trkpt lat="45.09012" lon="2.74203">
        <ele>1241.71</ele>
        <time>2022-07-12T08:11:22Z</time>
      </trkpt>
      <trkpt lat="45.09019" lon="2.74212">
        <ele>1244.86</ele>
        <time>2022-07-12T08:11:34Z</time>
      </trkpt>
      <trkpt lat="45.09024" lon="2.74218">
        <ele>1246.86</ele>
        <time>2022-07-12T08:11:45Z</time>
      </trkpt>
      <trkpt lat="45.09032" lon="2.74229">
        <ele>1249.95</ele>
        <time>2022-07-12T08:12:03Z</time>
      </trkpt>
      <trkpt lat="45.09042" lon="2.74236">
        <ele>1253</ele>
        <time>2022-07-12T08:12:18Z</time>
      </trkpt>
      <trkpt lat="45.0905" lon="2.74243">
        <ele>1254.97</ele>
        <time>2022-07-12T08:12:30Z</time>
      </trkpt>
      <trkpt lat="45.09057" lon="2.7425">
        <ele>1256.93</ele>
        <time>2022-07-12T08:12:41Z</time>
      </trkpt>
      <trkpt lat="45.09066" lon="2.74259">
        <ele>1259.18</ele>
        <time>2022-07-12T08:12:55Z</time>
      </trkpt>
      <trkpt lat="45.09082" lon="2.74254">
        <ele>1261.66</ele>
        <time>2022-07-12T08:13:14Z</time>
      </trkpt>
      <trkpt lat="45.0909" lon="2.74249">
        <ele>1263.1</ele>
        <time>2022-07-12T08:13:23Z</time>
      </trkpt>
      <trkpt lat="45.09097" lon="2.74239">
        <ele>1265.45</ele>
        <time>2022-07-12T08:13:36Z</time>
      </trkpt>
      <trkpt lat="45.09102" lon="2.7423">
        <ele>1267.03</ele>
        <time>2022-07-12T08:13:47Z</time>
      </trkpt>
      <trkpt lat="45.09102" lon="2.74229">
        <ele>1267.18</ele>
        <time>2022-07-12T08:13:48Z</time>
      </trkpt>
      <trkpt lat="45.09108" lon="2.74215">
        <ele>1268.93</ele>
        <time>2022-07-12T08:14:03Z</time>
      </trkpt>
      <trkpt lat="45.09129" lon="2.74202">
        <ele>1271.02</ele>
        <time>2022-07-12T08:14:23Z</time>
      </trkpt>
      <trkpt lat="45.0914" lon="2.74189">
        <ele>1274.11</ele>
        <time>2022-07-12T08:14:42Z</time>
      </trkpt>
      <trkpt lat="45.09144" lon="2.7417">
        <ele>1276.85</ele>
        <time>2022-07-12T08:15:05Z</time>
      </trkpt>
      <trkpt lat="45.09145" lon="2.74165">
        <ele>1278.03</ele>
        <time>2022-07-12T08:15:10Z</time>
      </trkpt>
      <trkpt lat="45.09155" lon="2.74164">
        <ele>1280.3</ele>
        <time>2022-07-12T08:15:23Z</time>
      </trkpt>
      <trkpt lat="45.0917" lon="2.74165">
        <ele>1282.49</ele>
        <time>2022-07-12T08:15:34Z</time>
      </trkpt>
      <trkpt lat="45.09186" lon="2.74172">
        <ele>1285.87</ele>
        <time>2022-07-12T08:15:56Z</time>
      </trkpt>
      <trkpt lat="45.09206" lon="2.74173">
        <ele>1288.9</ele>
        <time>2022-07-12T08:16:14Z</time>
      </trkpt>
      <trkpt lat="45.09215" lon="2.74173">
        <ele>1292.04</ele>
        <time>2022-07-12T08:16:29Z</time>
      </trkpt>
      <trkpt lat="45.09223" lon="2.74166">
        <ele>1295.12</ele>
        <time>2022-07-12T08:16:45Z</time>
      </trkpt>
      <trkpt lat="45.09224" lon="2.74164">
        <ele>1295.62</ele>
        <time>2022-07-12T08:16:47Z</time>
      </trkpt>
      <trkpt lat="45.0923" lon="2.74161">
        <ele>1296.46</ele>
        <time>2022-07-12T08:16:54Z</time>
      </trkpt>
      <trkpt lat="45.09247" lon="2.74166">
        <ele>1299.85</ele>
        <time>2022-07-12T08:17:17Z</time>
      </trkpt>
      <trkpt lat="45.09262" lon="2.74152">
        <ele>1302.13</ele>
        <time>2022-07-12T08:17:30Z</time>
      </trkpt>
      <trkpt lat="45.09274" lon="2.7416">
        <ele>1303.96</ele>
        <time>2022-07-12T08:17:43Z</time>
      </trkpt>
      <trkpt lat="45.09277" lon="2.74167">
        <ele>1304.48</ele>
        <time>2022-07-12T08:17:48Z</time>
      </trkpt>
      <trkpt lat="45.09278" lon="2.74172">
        <ele>1304.66</ele>
        <time>2022-07-12T08:17:52Z</time>
      </trkpt>
      <trkpt lat="45.09278" lon="2.74175">
        <ele>1304.77</ele>
        <time>2022-07-12T08:17:55Z</time>
      </trkpt>
      <trkpt lat="45.09275" lon="2.74192">
        <ele>1305.94</ele>
        <time>2022-07-12T08:18:05Z</time>
      </trkpt>
      <trkpt lat="45.09273" lon="2.74196">
        <ele>1306.01</ele>
        <time>2022-07-12T08:18:07Z</time>
      </trkpt>
      <trkpt lat="45.09265" lon="2.74212">
        <ele>1307.74</ele>
        <time>2022-07-12T08:18:24Z</time>
      </trkpt>
      <trkpt lat="45.09264" lon="2.74222">
        <ele>1309.58</ele>
        <time>2022-07-12T08:18:36Z</time>
      </trkpt>
      <trkpt lat="45.09267" lon="2.74232">
        <ele>1310.39</ele>
        <time>2022-07-12T08:18:41Z</time>
      </trkpt>
      <trkpt lat="45.09268" lon="2.74246">
        <ele>1311.81</ele>
        <time>2022-07-12T08:18:50Z</time>
      </trkpt>
      <trkpt lat="45.09268" lon="2.74259">
        <ele>1313.54</ele>
        <time>2022-07-12T08:19:01Z</time>
      </trkpt>
      <trkpt lat="45.09269" lon="2.74276">
        <ele>1316.58</ele>
        <time>2022-07-12T08:19:16Z</time>
      </trkpt>
      <trkpt lat="45.09264" lon="2.74294">
        <ele>1318.42</ele>
        <time>2022-07-12T08:19:29Z</time>
      </trkpt>
      <trkpt lat="45.09261" lon="2.74306">
        <ele>1319.87</ele>
        <time>2022-07-12T08:19:40Z</time>
      </trkpt>
      <trkpt lat="45.09258" lon="2.74312">
        <ele>1320.49</ele>
        <time>2022-07-12T08:19:45Z</time>
      </trkpt>
      <trkpt lat="45.09248" lon="2.7433">
        <ele>1322.67</ele>
        <time>2022-07-12T08:20:03Z</time>
      </trkpt>
      <trkpt lat="45.09248" lon="2.74331">
        <ele>1322.9</ele>
        <time>2022-07-12T08:20:04Z</time>
      </trkpt>
      <trkpt lat="45.09243" lon="2.74349">
        <ele>1325.82</ele>
        <time>2022-07-12T08:20:23Z</time>
      </trkpt>
      <trkpt lat="45.09243" lon="2.74357">
        <ele>1326.88</ele>
        <time>2022-07-12T08:20:29Z</time>
      </trkpt>
      <trkpt lat="45.0924" lon="2.74369">
        <ele>1328.14</ele>
        <time>2022-07-12T08:20:37Z</time>
      </trkpt>
      <trkpt lat="45.09235" lon="2.7438">
        <ele>1329.67</ele>
        <time>2022-07-12T08:20:47Z</time>
      </trkpt>
      <trkpt lat="45.09239" lon="2.74397">
        <ele>1330.86</ele>
        <time>2022-07-12T08:20:56Z</time>
      </trkpt>
      <trkpt lat="45.0924" lon="2.744">
        <ele>1331.02</ele>
        <time>2022-07-12T08:20:57Z</time>
      </trkpt>
      <trkpt lat="45.09241" lon="2.74403">
        <ele>1331.25</ele>
        <time>2022-07-12T08:20:59Z</time>
      </trkpt>
      <trkpt lat="45.09242" lon="2.74414">
        <ele>1332.2</ele>
        <time>2022-07-12T08:21:07Z</time>
      </trkpt>
      <trkpt lat="45.09245" lon="2.74422">
        <ele>1333.7</ele>
        <time>2022-07-12T08:21:16Z</time>
      </trkpt>
      <trkpt lat="45.09247" lon="2.74425">
        <ele>1334</ele>
        <time>2022-07-12T08:21:19Z</time>
      </trkpt>
      <trkpt lat="45.0925" lon="2.74429">
        <ele>1335.05</ele>
        <time>2022-07-12T08:21:25Z</time>
      </trkpt>
      <trkpt lat="45.09256" lon="2.74429">
        <ele>1335.54</ele>
        <time>2022-07-12T08:21:29Z</time>
      </trkpt>
      <trkpt lat="45.09259" lon="2.74428">
        <ele>1336.51</ele>
        <time>2022-07-12T08:21:33Z</time>
      </trkpt>
      <trkpt lat="45.09266" lon="2.74424">
        <ele>1339.8</ele>
        <time>2022-07-12T08:21:43Z</time>
      </trkpt>
      <trkpt lat="45.0927" lon="2.74422">
        <ele>1341.11</ele>
        <time>2022-07-12T08:21:49Z</time>
      </trkpt>
      <trkpt lat="45.09275" lon="2.74422">
        <ele>1342.73</ele>
        <time>2022-07-12T08:21:56Z</time>
      </trkpt>
      <trkpt lat="45.09286" lon="2.74423">
        <ele>1344.48</ele>
        <time>2022-07-12T08:22:04Z</time>
      </trkpt>
      <trkpt lat="45.09296" lon="2.74421">
        <ele>1347.76</ele>
        <time>2022-07-12T08:22:19Z</time>
      </trkpt>
      <trkpt lat="45.09307" lon="2.74416">
        <ele>1350.87</ele>
        <time>2022-07-12T08:22:33Z</time>
      </trkpt>
      <trkpt lat="45.0932" lon="2.74412">
        <ele>1353.58</ele>
        <time>2022-07-12T08:22:48Z</time>
      </trkpt>
      <trkpt lat="45.0933" lon="2.74411">
        <ele>1356.7</ele>
        <time>2022-07-12T08:23:03Z</time>
      </trkpt>
      <trkpt lat="45.09341" lon="2.74407">
        <ele>1359.39</ele>
        <time>2022-07-12T08:23:18Z</time>
      </trkpt>
      <trkpt lat="45.09351" lon="2.74406">
        <ele>1361.32</ele>
        <time>2022-07-12T08:23:30Z</time>
      </trkpt>
      <trkpt lat="45.09363" lon="2.74403">
        <ele>1364.62</ele>
        <time>2022-07-12T08:23:46Z</time>
      </trkpt>
      <trkpt lat="45.09366" lon="2.74399">
        <ele>1366.24</ele>
        <time>2022-07-12T08:23:55Z</time>
      </trkpt>
      <trkpt lat="45.09374" lon="2.74393">
        <ele>1369.14</ele>
        <time>2022-07-12T08:24:16Z</time>
      </trkpt>
      <trkpt lat="45.09381" lon="2.7439">
        <ele>1371.23</ele>
        <time>2022-07-12T08:24:26Z</time>
      </trkpt>
      <trkpt lat="45.0939" lon="2.74388">
        <ele>1374.29</ele>
        <time>2022-07-12T08:24:42Z</time>
      </trkpt>
      <trkpt lat="45.09397" lon="2.74382">
        <ele>1377.3</ele>
        <time>2022-07-12T08:24:58Z</time>
      </trkpt>
      <trkpt lat="45.09405" lon="2.74379">
        <ele>1379.06</ele>
        <time>2022-07-12T08:25:08Z</time>
      </trkpt>
      <trkpt lat="45.09407" lon="2.74379">
        <ele>1379.42</ele>
        <time>2022-07-12T08:25:10Z</time>
      </trkpt>
      <trkpt lat="45.09415" lon="2.7438">
        <ele>1381.36</ele>
        <time>2022-07-12T08:25:20Z</time>
      </trkpt>
      <trkpt lat="45.09421" lon="2.74377">
        <ele>1383.02</ele>
        <time>2022-07-12T08:25:28Z</time>
      </trkpt>
      <trkpt lat="45.09432" lon="2.74374">
        <ele>1386.42</ele>
        <time>2022-07-12T08:25:43Z</time>
      </trkpt>
      <trkpt lat="45.09438" lon="2.74382">
        <ele>1388.42</ele>
        <time>2022-07-12T08:26:01Z</time>
      </trkpt>
      <trkpt lat="45.0945" lon="2.74386">
        <ele>1390.45</ele>
        <time>2022-07-12T08:26:17Z</time>
      </trkpt>
      <trkpt lat="45.09463" lon="2.74387">
        <ele>1393.46</ele>
        <time>2022-07-12T08:26:32Z</time>
      </trkpt>
      <trkpt lat="45.09466" lon="2.74384">
        <ele>1395.61</ele>
        <time>2022-07-12T08:26:51Z</time>
      </trkpt>
      <trkpt lat="45.0947" lon="2.74378">
        <ele>1397.14</ele>
        <time>2022-07-12T08:27:05Z</time>
      </trkpt>
      <trkpt lat="45.09477" lon="2.74375">
        <ele>1400.25</ele>
        <time>2022-07-12T08:27:20Z</time>
      </trkpt>
      <trkpt lat="45.0948" lon="2.74374">
        <ele>1401.07</ele>
        <time>2022-07-12T08:27:24Z</time>
      </trkpt>
      <trkpt lat="45.0949" lon="2.7437">
        <ele>1404.4</ele>
        <time>2022-07-12T08:27:39Z</time>
      </trkpt>
      <trkpt lat="45.09499" lon="2.74364">
        <ele>1407.59</ele>
        <time>2022-07-12T08:27:55Z</time>
      </trkpt>
      <trkpt lat="45.0951" lon="2.7436">
        <ele>1410.73</ele>
        <time>2022-07-12T08:28:09Z</time>
      </trkpt>
      <trkpt lat="45.0952" lon="2.74354">
        <ele>1413.83</ele>
        <time>2022-07-12T08:28:25Z</time>
      </trkpt>
      <trkpt lat="45.09527" lon="2.74353">
        <ele>1416.89</ele>
        <time>2022-07-12T08:28:39Z</time>
      </trkpt>
      <trkpt lat="45.09531" lon="2.74344">
        <ele>1420.11</ele>
        <time>2022-07-12T08:28:54Z</time>
      </trkpt>
      <trkpt lat="45.09537" lon="2.74336">
        <ele>1422.94</ele>
        <time>2022-07-12T08:29:06Z</time>
      </trkpt>
      <trkpt lat="45.09543" lon="2.74331">
        <ele>1426</ele>
        <time>2022-07-12T08:29:19Z</time>
      </trkpt>
      <trkpt lat="45.09549" lon="2.74329">
        <ele>1428.45</ele>
        <time>2022-07-12T08:29:34Z</time>
      </trkpt>
      <trkpt lat="45.09553" lon="2.74327">
        <ele>1428.92</ele>
        <time>2022-07-12T08:30:06Z</time>
      </trkpt>
      <trkpt lat="45.09559" lon="2.74326">
        <ele>1430.11</ele>
        <time>2022-07-12T08:30:22Z</time>
      </trkpt>
      <trkpt lat="45.09565" lon="2.74325">
        <ele>1431.77</ele>
        <time>2022-07-12T08:30:30Z</time>
      </trkpt>
      <trkpt lat="45.09571" lon="2.74316">
        <ele>1434.73</ele>
        <time>2022-07-12T08:30:46Z</time>
      </trkpt>
      <trkpt lat="45.09577" lon="2.74304">
        <ele>1436.3</ele>
        <time>2022-07-12T08:31:00Z</time>
      </trkpt>
      <trkpt lat="45.09579" lon="2.74289">
        <ele>1438.08</ele>
        <time>2022-07-12T08:31:13Z</time>
      </trkpt>
      <trkpt lat="45.09581" lon="2.74285">
        <ele>1438.86</ele>
        <time>2022-07-12T08:31:18Z</time>
      </trkpt>
      <trkpt lat="45.09586" lon="2.7427">
        <ele>1441.06</ele>
        <time>2022-07-12T08:31:34Z</time>
      </trkpt>
      <trkpt lat="45.09593" lon="2.74273">
        <ele>1444.2</ele>
        <time>2022-07-12T08:31:52Z</time>
      </trkpt>
      <trkpt lat="45.09599" lon="2.74279">
        <ele>1446.69</ele>
        <time>2022-07-12T08:32:06Z</time>
      </trkpt>
      <trkpt lat="45.09601" lon="2.74278">
        <ele>1447.28</ele>
        <time>2022-07-12T08:32:34Z</time>
      </trkpt>
      <trkpt lat="45.09698" lon="2.74304">
        <ele>1489.75</ele>
        <time>2022-07-12T08:41:09Z</time>
      </trkpt>
      <trkpt lat="45.09701" lon="2.74307">
        <ele>1492.49</ele>
        <time>2022-07-12T08:41:20Z</time>
      </trkpt>
      <trkpt lat="45.09705" lon="2.74293">
        <ele>1495.5</ele>
        <time>2022-07-12T08:41:42Z</time>
      </trkpt>
      <trkpt lat="45.09706" lon="2.74285">
        <ele>1496.87</ele>
        <time>2022-07-12T08:41:50Z</time>
      </trkpt>
      <trkpt lat="45.09707" lon="2.74269">
        <ele>1500.4</ele>
        <time>2022-07-12T08:42:13Z</time>
      </trkpt>
      <trkpt lat="45.09711" lon="2.74256">
        <ele>1503.63</ele>
        <time>2022-07-12T08:42:29Z</time>
      </trkpt>
      <trkpt lat="45.0971" lon="2.74238">
        <ele>1506.48</ele>
        <time>2022-07-12T08:42:46Z</time>
      </trkpt>
      <trkpt lat="45.09719" lon="2.74234">
        <ele>1509.22</ele>
        <time>2022-07-12T08:43:02Z</time>
      </trkpt>
      <trkpt lat="45.09722" lon="2.74233">
        <ele>1510.54</ele>
        <time>2022-07-12T08:43:07Z</time>
      </trkpt>
      <trkpt lat="45.09725" lon="2.74229">
        <ele>1513.61</ele>
        <time>2022-07-12T08:43:26Z</time>
      </trkpt>
      <trkpt lat="45.09726" lon="2.74227">
        <ele>1515.1</ele>
        <time>2022-07-12T08:43:53Z</time>
      </trkpt>
      <trkpt lat="45.09733" lon="2.74215">
        <ele>1518.13</ele>
        <time>2022-07-12T08:44:13Z</time>
      </trkpt>
      <trkpt lat="45.09725" lon="2.74206">
        <ele>1521.21</ele>
        <time>2022-07-12T08:44:27Z</time>
      </trkpt>
      <trkpt lat="45.09721" lon="2.74196">
        <ele>1524.24</ele>
        <time>2022-07-12T08:44:42Z</time>
      </trkpt>
      <trkpt lat="45.09719" lon="2.74188">
        <ele>1527.49</ele>
        <time>2022-07-12T08:44:58Z</time>
      </trkpt>
      <trkpt lat="45.09723" lon="2.74187">
        <ele>1529.38</ele>
        <time>2022-07-12T08:45:18Z</time>
      </trkpt>
      <trkpt lat="45.09725" lon="2.74187">
        <ele>1530.65</ele>
        <time>2022-07-12T08:45:39Z</time>
      </trkpt>
      <trkpt lat="45.09725" lon="2.74178">
        <ele>1533.21</ele>
        <time>2022-07-12T08:46:05Z</time>
      </trkpt>
      <trkpt lat="45.09723" lon="2.74167">
        <ele>1534.45</ele>
        <time>2022-07-12T08:46:27Z</time>
      </trkpt>
      <trkpt lat="45.0972" lon="2.74158">
        <ele>1537.38</ele>
        <time>2022-07-12T08:46:49Z</time>
      </trkpt>
      <trkpt lat="45.0972" lon="2.74154">
        <ele>1538.01</ele>
        <time>2022-07-12T08:47:08Z</time>
      </trkpt>
      <trkpt lat="45.09721" lon="2.74148">
        <ele>1539.26</ele>
        <time>2022-07-12T08:47:24Z</time>
      </trkpt>
      <trkpt lat="45.09937" lon="2.73957">
        <ele>1637.4</ele>
        <time>2022-07-12T09:29:39Z</time>
      </trkpt>
      <trkpt lat="45.0994" lon="2.73944">
        <ele>1635.89</ele>
        <time>2022-07-12T09:29:54Z</time>
      </trkpt>
      <trkpt lat="45.09942" lon="2.73931">
        <ele>1634.56</ele>
        <time>2022-07-12T09:30:04Z</time>
      </trkpt>
      <trkpt lat="45.09941" lon="2.73922">
        <ele>1633.58</ele>
        <time>2022-07-12T09:30:29Z</time>
      </trkpt>
      <trkpt lat="45.0994" lon="2.73917">
        <ele>1633.51</ele>
        <time>2022-07-12T09:30:35Z</time>
      </trkpt>
      <trkpt lat="45.09936" lon="2.73879">
        <ele>1634.03</ele>
        <time>2022-07-12T09:31:00Z</time>
      </trkpt>
      <trkpt lat="45.09936" lon="2.7386">
        <ele>1632.35</ele>
        <time>2022-07-12T09:31:15Z</time>
      </trkpt>
      <trkpt lat="45.09936" lon="2.73859">
        <ele>1632.27</ele>
        <time>2022-07-12T09:31:16Z</time>
      </trkpt>
      <trkpt lat="45.09937" lon="2.73837">
        <ele>1631.27</ele>
        <time>2022-07-12T09:31:33Z</time>
      </trkpt>
      <trkpt lat="45.09935" lon="2.7382">
        <ele>1630.73</ele>
        <time>2022-07-12T09:31:52Z</time>
      </trkpt>
      <trkpt lat="45.09933" lon="2.73811">
        <ele>1630.76</ele>
        <time>2022-07-12T09:31:59Z</time>
      </trkpt>
      <trkpt lat="45.09931" lon="2.73804">
        <ele>1630.93</ele>
        <time>2022-07-12T09:32:04Z</time>
      </trkpt>
      <trkpt lat="45.09932" lon="2.73802">
        <ele>1631.03</ele>
        <time>2022-07-12T09:32:23Z</time>
      </trkpt>
      <trkpt lat="45.09933" lon="2.73796">
        <ele>1630.9</ele>
        <time>2022-07-12T09:32:48Z</time>
      </trkpt>
      <trkpt lat="45.09932" lon="2.73793">
        <ele>1630.81</ele>
        <time>2022-07-12T09:33:10Z</time>
      </trkpt>
      <trkpt lat="45.09942" lon="2.73782">
        <ele>1629.65</ele>
        <time>2022-07-12T09:33:30Z</time>
      </trkpt>
      <trkpt lat="45.09941" lon="2.73781">
        <ele>1628.56</ele>
        <time>2022-07-12T09:34:01Z</time>
      </trkpt>
      <trkpt lat="45.09988" lon="2.73691">
        <ele>1612.39</ele>
        <time>2022-07-12T09:38:56Z</time>
      </trkpt>
      <trkpt lat="45.09995" lon="2.73675">
        <ele>1609.36</ele>
        <time>2022-07-12T09:39:12Z</time>
      </trkpt>
      <trkpt lat="45.09999" lon="2.73657">
        <ele>1606.26</ele>
        <time>2022-07-12T09:39:32Z</time>
      </trkpt>
      <trkpt lat="45.10003" lon="2.7363">
        <ele>1603.05</ele>
        <time>2022-07-12T09:39:51Z</time>
      </trkpt>
      <trkpt lat="45.10008" lon="2.7361">
        <ele>1600.37</ele>
        <time>2022-07-12T09:40:06Z</time>
      </trkpt>
      <trkpt lat="45.10016" lon="2.73592">
        <ele>1598.07</ele>
        <time>2022-07-12T09:40:20Z</time>
      </trkpt>
      <trkpt lat="45.10023" lon="2.73575">
        <ele>1595.71</ele>
        <time>2022-07-12T09:40:38Z</time>
      </trkpt>
      <trkpt lat="45.10018" lon="2.73557">
        <ele>1595.82</ele>
        <time>2022-07-12T09:40:52Z</time>
      </trkpt>
      <trkpt lat="45.10022" lon="2.73544">
        <ele>1595.94</ele>
        <time>2022-07-12T09:41:06Z</time>
      </trkpt>
      <trkpt lat="45.10024" lon="2.73538">
        <ele>1595.65</ele>
        <time>2022-07-12T09:41:13Z</time>
      </trkpt>
      <trkpt lat="45.10019" lon="2.73525">
        <ele>1594.51</ele>
        <time>2022-07-12T09:41:25Z</time>
      </trkpt>
      <trkpt lat="45.10019" lon="2.73523">
        <ele>1594.3</ele>
        <time>2022-07-12T09:41:27Z</time>
      </trkpt>
      <trkpt lat="45.10023" lon="2.73493">
        <ele>1591.72</ele>
        <time>2022-07-12T09:41:47Z</time>
      </trkpt>
      <trkpt lat="45.10037" lon="2.73475">
        <ele>1589.91</ele>
        <time>2022-07-12T09:42:07Z</time>
      </trkpt>
      <trkpt lat="45.10047" lon="2.73463">
        <ele>1587.89</ele>
        <time>2022-07-12T09:42:24Z</time>
      </trkpt>
      <trkpt lat="45.10055" lon="2.73449">
        <ele>1585.73</ele>
        <time>2022-07-12T09:42:39Z</time>
      </trkpt>
      <trkpt lat="45.10063" lon="2.73432">
        <ele>1582.73</ele>
        <time>2022-07-12T09:42:57Z</time>
      </trkpt>
      <trkpt lat="45.10064" lon="2.73431">
        <ele>1582.67</ele>
        <time>2022-07-12T09:42:58Z</time>
      </trkpt>
      <trkpt lat="45.10065" lon="2.73408">
        <ele>1581.6</ele>
        <time>2022-07-12T09:43:19Z</time>
      </trkpt>
      <trkpt lat="45.10066" lon="2.73389">
        <ele>1581.75</ele>
        <time>2022-07-12T09:43:34Z</time>
      </trkpt>
      <trkpt lat="45.10069" lon="2.73384">
        <ele>1581.27</ele>
        <time>2022-07-12T09:43:41Z</time>
      </trkpt>
      <trkpt lat="45.10069" lon="2.73371">
        <ele>1580.47</ele>
        <time>2022-07-12T09:44:11Z</time>
      </trkpt>
      <trkpt lat="45.10068" lon="2.7337">
        <ele>1580.47</ele>
        <time>2022-07-12T09:44:12Z</time>
      </trkpt>
      <trkpt lat="45.1006" lon="2.73347">
        <ele>1580.4</ele>
        <time>2022-07-12T09:44:29Z</time>
      </trkpt>
      <trkpt lat="45.10057" lon="2.73339">
        <ele>1580.76</ele>
        <time>2022-07-12T09:44:34Z</time>
      </trkpt>
      <trkpt lat="45.10055" lon="2.73328">
        <ele>1581.19</ele>
        <time>2022-07-12T09:44:50Z</time>
      </trkpt>
      <trkpt lat="45.10057" lon="2.73303">
        <ele>1578.88</ele>
        <time>2022-07-12T09:45:19Z</time>
      </trkpt>
      <trkpt lat="45.10058" lon="2.73301">
        <ele>1578.55</ele>
        <time>2022-07-12T09:45:21Z</time>
      </trkpt>
      <trkpt lat="45.10063" lon="2.73285">
        <ele>1575.64</ele>
        <time>2022-07-12T09:45:41Z</time>
      </trkpt>
      <trkpt lat="45.10069" lon="2.73264">
        <ele>1574.71</ele>
        <time>2022-07-12T09:46:09Z</time>
      </trkpt>
      <trkpt lat="45.10077" lon="2.7324">
        <ele>1572.67</ele>
        <time>2022-07-12T09:46:25Z</time>
      </trkpt>
      <trkpt lat="45.10084" lon="2.73216">
        <ele>1570.83</ele>
        <time>2022-07-12T09:46:40Z</time>
      </trkpt>
      <trkpt lat="45.10088" lon="2.73192">
        <ele>1568.47</ele>
        <time>2022-07-12T09:46:54Z</time>
      </trkpt>
      <trkpt lat="45.10088" lon="2.73165">
        <ele>1567.33</ele>
        <time>2022-07-12T09:47:08Z</time>
      </trkpt>
      <trkpt lat="45.10087" lon="2.73161">
        <ele>1567.29</ele>
        <time>2022-07-12T09:47:11Z</time>
      </trkpt>
      <trkpt lat="45.10087" lon="2.73158">
        <ele>1567.28</ele>
        <time>2022-07-12T09:47:13Z</time>
      </trkpt>
      <trkpt lat="45.10086" lon="2.73152">
        <ele>1567.08</ele>
        <time>2022-07-12T09:47:26Z</time>
      </trkpt>
      <trkpt lat="45.10087" lon="2.7315">
        <ele>1567.14</ele>
        <time>2022-07-12T09:47:46Z</time>
      </trkpt>
      <trkpt lat="45.10085" lon="2.73086">
        <ele>1562.34</ele>
        <time>2022-07-12T09:48:59Z</time>
      </trkpt>
      <trkpt lat="45.10085" lon="2.73079">
        <ele>1561.72</ele>
        <time>2022-07-12T09:49:04Z</time>
      </trkpt>
      <trkpt lat="45.10085" lon="2.73048">
        <ele>1558.54</ele>
        <time>2022-07-12T09:49:24Z</time>
      </trkpt>
      <trkpt lat="45.10084" lon="2.73047">
        <ele>1558.44</ele>
        <time>2022-07-12T09:49:25Z</time>
      </trkpt>
      <trkpt lat="45.10083" lon="2.73042">
        <ele>1558.28</ele>
        <time>2022-07-12T09:49:28Z</time>
      </trkpt>
      <trkpt lat="45.10084" lon="2.73041">
        <ele>1558.19</ele>
        <time>2022-07-12T09:49:31Z</time>
      </trkpt>
      <trkpt lat="45.10091" lon="2.73033">
        <ele>1559.42</ele>
        <time>2022-07-12T09:49:47Z</time>
      </trkpt>
      <trkpt lat="45.10085" lon="2.73014">
        <ele>1562.55</ele>
        <time>2022-07-12T09:50:07Z</time>
      </trkpt>
      <trkpt lat="45.10085" lon="2.72994">
        <ele>1565.56</ele>
        <time>2022-07-12T09:50:25Z</time>
      </trkpt>
      <trkpt lat="45.10085" lon="2.72987">
        <ele>1566.18</ele>
        <time>2022-07-12T09:50:29Z</time>
      </trkpt>
      <trkpt lat="45.10086" lon="2.72961">
        <ele>1566.15</ele>
        <time>2022-07-12T09:50:50Z</time>
      </trkpt>
      <trkpt lat="45.10085" lon="2.72952">
        <ele>1566.96</ele>
        <time>2022-07-12T09:51:18Z</time>
      </trkpt>
      <trkpt lat="45.10082" lon="2.72948">
        <ele>1566.96</ele>
        <time>2022-07-12T09:51:36Z</time>
      </trkpt>
      <trkpt lat="45.10081" lon="2.72939">
        <ele>1568.13</ele>
        <time>2022-07-12T09:51:49Z</time>
      </trkpt>
      <trkpt lat="45.1008" lon="2.72919">
        <ele>1571.3</ele>
        <time>2022-07-12T09:52:08Z</time>
      </trkpt>
      <trkpt lat="45.10074" lon="2.72914">
        <ele>1574.36</ele>
        <time>2022-07-12T09:52:19Z</time>
      </trkpt>
      <trkpt lat="45.10066" lon="2.72909">
        <ele>1577.54</ele>
        <time>2022-07-12T09:52:33Z</time>
      </trkpt>
      <trkpt lat="45.10062" lon="2.72904">
        <ele>1580.6</ele>
        <time>2022-07-12T09:52:52Z</time>
      </trkpt>
      <trkpt lat="45.10053" lon="2.72899">
        <ele>1583.65</ele>
        <time>2022-07-12T09:53:05Z</time>
      </trkpt>
      <trkpt lat="45.10048" lon="2.7289">
        <ele>1586.84</ele>
        <time>2022-07-12T09:53:22Z</time>
      </trkpt>
      <trkpt lat="45.10042" lon="2.72873">
        <ele>1588.66</ele>
        <time>2022-07-12T09:53:37Z</time>
      </trkpt>
      <trkpt lat="45.10038" lon="2.72863">
        <ele>1590.52</ele>
        <time>2022-07-12T09:53:50Z</time>
      </trkpt>
      <trkpt lat="45.10037" lon="2.7286">
        <ele>1590.84</ele>
        <time>2022-07-12T09:53:52Z</time>
      </trkpt>
      <trkpt lat="45.10035" lon="2.72848">
        <ele>1593.43</ele>
        <time>2022-07-12T09:54:05Z</time>
      </trkpt>
      <trkpt lat="45.10033" lon="2.72837">
        <ele>1596.56</ele>
        <time>2022-07-12T09:54:23Z</time>
      </trkpt>
      <trkpt lat="45.10043" lon="2.72828">
        <ele>1599.45</ele>
        <time>2022-07-12T09:54:40Z</time>
      </trkpt>
      <trkpt lat="45.10037" lon="2.72816">
        <ele>1602.49</ele>
        <time>2022-07-12T09:55:00Z</time>
      </trkpt>
      <trkpt lat="45.10032" lon="2.72813">
        <ele>1604.08</ele>
        <time>2022-07-12T09:55:33Z</time>
      </trkpt>
      <trkpt lat="45.10031" lon="2.72818">
        <ele>1604.99</ele>
        <time>2022-07-12T09:55:55Z</time>
      </trkpt>
      <trkpt lat="45.10033" lon="2.72824">
        <ele>1607.99</ele>
        <time>2022-07-12T09:56:11Z</time>
      </trkpt>
      <trkpt lat="45.10038" lon="2.72821">
        <ele>1607.4</ele>
        <time>2022-07-12T09:56:42Z</time>
      </trkpt>
      <trkpt lat="45.10042" lon="2.72805">
        <ele>1604.07</ele>
        <time>2022-07-12T09:57:01Z</time>
      </trkpt>
      <trkpt lat="45.10039" lon="2.72805">
        <ele>1601.98</ele>
        <time>2022-07-12T09:57:23Z</time>
      </trkpt>
      <trkpt lat="45.1002" lon="2.72809">
        <ele>1596.8</ele>
        <time>2022-07-12T09:58:00Z</time>
      </trkpt>
      <trkpt lat="45.10017" lon="2.72809">
        <ele>1596.53</ele>
        <time>2022-07-12T09:58:02Z</time>
      </trkpt>
      <trkpt lat="45.10009" lon="2.72808">
        <ele>1593.34</ele>
        <time>2022-07-12T09:58:17Z</time>
      </trkpt>
      <trkpt lat="45.09997" lon="2.72805">
        <ele>1590.17</ele>
        <time>2022-07-12T09:58:30Z</time>
      </trkpt>
      <trkpt lat="45.09986" lon="2.72798">
        <ele>1587.07</ele>
        <time>2022-07-12T09:58:46Z</time>
      </trkpt>
      <trkpt lat="45.0998" lon="2.72795">
        <ele>1584.07</ele>
        <time>2022-07-12T09:58:55Z</time>
      </trkpt>
      <trkpt lat="45.09972" lon="2.72795">
        <ele>1580.91</ele>
        <time>2022-07-12T09:59:07Z</time>
      </trkpt>
      <trkpt lat="45.09965" lon="2.72796">
        <ele>1577.78</ele>
        <time>2022-07-12T09:59:19Z</time>
      </trkpt>
      <trkpt lat="45.09955" lon="2.72797">
        <ele>1574.73</ele>
        <time>2022-07-12T09:59:35Z</time>
      </trkpt>
      <trkpt lat="45.09944" lon="2.72795">
        <ele>1571.89</ele>
        <time>2022-07-12T09:59:57Z</time>
      </trkpt>
      <trkpt lat="45.09943" lon="2.72794">
        <ele>1570.12</ele>
        <time>2022-07-12T10:00:02Z</time>
      </trkpt>
      <trkpt lat="45.09937" lon="2.72774">
        <ele>1568.46</ele>
        <time>2022-07-12T10:00:25Z</time>
      </trkpt>
      <trkpt lat="45.09948" lon="2.72759">
        <ele>1565.22</ele>
        <time>2022-07-12T10:00:44Z</time>
      </trkpt>
      <trkpt lat="45.09955" lon="2.72744">
        <ele>1563.21</ele>
        <time>2022-07-12T10:01:02Z</time>
      </trkpt>
      <trkpt lat="45.09956" lon="2.7274">
        <ele>1562.85</ele>
        <time>2022-07-12T10:01:05Z</time>
      </trkpt>
      <trkpt lat="45.0996" lon="2.72728">
        <ele>1560.12</ele>
        <time>2022-07-12T10:01:25Z</time>
      </trkpt>
      <trkpt lat="45.09968" lon="2.72713">
        <ele>1557.04</ele>
        <time>2022-07-12T10:01:45Z</time>
      </trkpt>
      <trkpt lat="45.09974" lon="2.72702">
        <ele>1555.52</ele>
        <time>2022-07-12T10:01:57Z</time>
      </trkpt>
      <trkpt lat="45.09981" lon="2.72689">
        <ele>1552.48</ele>
        <time>2022-07-12T10:02:10Z</time>
      </trkpt>
      <trkpt lat="45.09986" lon="2.72681">
        <ele>1550.94</ele>
        <time>2022-07-12T10:02:18Z</time>
      </trkpt>
      <trkpt lat="45.09989" lon="2.72674">
        <ele>1550.36</ele>
        <time>2022-07-12T10:02:25Z</time>
      </trkpt>
      <trkpt lat="45.09991" lon="2.7266">
        <ele>1547.44</ele>
        <time>2022-07-12T10:02:38Z</time>
      </trkpt>
      <trkpt lat="45.09991" lon="2.72658">
        <ele>1546.36</ele>
        <time>2022-07-12T10:02:44Z</time>
      </trkpt>
      <trkpt lat="45.09992" lon="2.72651">
        <ele>1545.67</ele>
        <time>2022-07-12T10:02:48Z</time>
      </trkpt>
      <trkpt lat="45.09995" lon="2.72632">
        <ele>1542.99</ele>
        <time>2022-07-12T10:03:02Z</time>
      </trkpt>
      <trkpt lat="45.09995" lon="2.72628">
        <ele>1541.11</ele>
        <time>2022-07-12T10:03:11Z</time>
      </trkpt>
      <trkpt lat="45.09997" lon="2.72602">
        <ele>1537.9</ele>
        <time>2022-07-12T10:03:29Z</time>
      </trkpt>
      <trkpt lat="45.09996" lon="2.72581">
        <ele>1534.71</ele>
        <time>2022-07-12T10:03:43Z</time>
      </trkpt>
      <trkpt lat="45.09995" lon="2.72573">
        <ele>1534.01</ele>
        <time>2022-07-12T10:03:47Z</time>
      </trkpt>
      <trkpt lat="45.09994" lon="2.72561">
        <ele>1532.75</ele>
        <time>2022-07-12T10:03:56Z</time>
      </trkpt>
      <trkpt lat="45.09991" lon="2.72556">
        <ele>1532.06</ele>
        <time>2022-07-12T10:04:00Z</time>
      </trkpt>
      <trkpt lat="45.09991" lon="2.72542">
        <ele>1530.98</ele>
        <time>2022-07-12T10:04:07Z</time>
      </trkpt>
      <trkpt lat="45.09987" lon="2.72528">
        <ele>1530.03</ele>
        <time>2022-07-12T10:04:15Z</time>
      </trkpt>
      <trkpt lat="45.09982" lon="2.72525">
        <ele>1528.36</ele>
        <time>2022-07-12T10:04:28Z</time>
      </trkpt>
      <trkpt lat="45.09981" lon="2.7252">
        <ele>1527.73</ele>
        <time>2022-07-12T10:04:32Z</time>
      </trkpt>
      <trkpt lat="45.09978" lon="2.72508">
        <ele>1527.31</ele>
        <time>2022-07-12T10:04:40Z</time>
      </trkpt>
      <trkpt lat="45.09982" lon="2.72512">
        <ele>1525.91</ele>
        <time>2022-07-12T10:04:48Z</time>
      </trkpt>
      <trkpt lat="45.0998" lon="2.72509">
        <ele>1524.74</ele>
        <time>2022-07-12T10:05:05Z</time>
      </trkpt>
      <trkpt lat="45.09969" lon="2.72485">
        <ele>1522.04</ele>
        <time>2022-07-12T10:05:25Z</time>
      </trkpt>
      <trkpt lat="45.09961" lon="2.72471">
        <ele>1518.93</ele>
        <time>2022-07-12T10:05:40Z</time>
      </trkpt>
      <trkpt lat="45.09955" lon="2.72457">
        <ele>1516.18</ele>
        <time>2022-07-12T10:05:53Z</time>
      </trkpt>
      <trkpt lat="45.09948" lon="2.72442">
        <ele>1514.81</ele>
        <time>2022-07-12T10:06:02Z</time>
      </trkpt>
      <trkpt lat="45.09948" lon="2.72439">
        <ele>1514.07</ele>
        <time>2022-07-12T10:06:13Z</time>
      </trkpt>
      <trkpt lat="45.09936" lon="2.72405">
        <ele>1511.04</ele>
        <time>2022-07-12T10:06:39Z</time>
      </trkpt>
      <trkpt lat="45.09933" lon="2.72389">
        <ele>1507.89</ele>
        <time>2022-07-12T10:06:55Z</time>
      </trkpt>
      <trkpt lat="45.09931" lon="2.72375">
        <ele>1504.87</ele>
        <time>2022-07-12T10:07:09Z</time>
      </trkpt>
      <trkpt lat="45.09927" lon="2.72363">
        <ele>1501.63</ele>
        <time>2022-07-12T10:07:24Z</time>
      </trkpt>
      <trkpt lat="45.0992" lon="2.72346">
        <ele>1498.6</ele>
        <time>2022-07-12T10:07:48Z</time>
      </trkpt>
      <trkpt lat="45.09914" lon="2.72327">
        <ele>1495.58</ele>
        <time>2022-07-12T10:08:10Z</time>
      </trkpt>
      <trkpt lat="45.09909" lon="2.72308">
        <ele>1492.92</ele>
        <time>2022-07-12T10:08:30Z</time>
      </trkpt>
      <trkpt lat="45.09904" lon="2.7229">
        <ele>1490.94</ele>
        <time>2022-07-12T10:08:43Z</time>
      </trkpt>
      <trkpt lat="45.09893" lon="2.72278">
        <ele>1490.54</ele>
        <time>2022-07-12T10:08:59Z</time>
      </trkpt>
      <trkpt lat="45.0988" lon="2.72267">
        <ele>1488.88</ele>
        <time>2022-07-12T10:09:20Z</time>
      </trkpt>
      <trkpt lat="45.0988" lon="2.72266">
        <ele>1488.83</ele>
        <time>2022-07-12T10:09:21Z</time>
      </trkpt>
      <trkpt lat="45.09873" lon="2.72254">
        <ele>1488.31</ele>
        <time>2022-07-12T10:09:31Z</time>
      </trkpt>
      <trkpt lat="45.09868" lon="2.72251">
        <ele>1488.15</ele>
        <time>2022-07-12T10:09:36Z</time>
      </trkpt>
      <trkpt lat="45.09854" lon="2.72231">
        <ele>1487.41</ele>
        <time>2022-07-12T10:09:54Z</time>
      </trkpt>
      <trkpt lat="45.09849" lon="2.72213">
        <ele>1487.34</ele>
        <time>2022-07-12T10:10:07Z</time>
      </trkpt>
      <trkpt lat="45.09844" lon="2.72187">
        <ele>1485.72</ele>
        <time>2022-07-12T10:10:25Z</time>
      </trkpt>
      <trkpt lat="45.09845" lon="2.72169">
        <ele>1483.6</ele>
        <time>2022-07-12T10:10:41Z</time>
      </trkpt>
      <trkpt lat="45.09841" lon="2.72146">
        <ele>1481.73</ele>
        <time>2022-07-12T10:10:56Z</time>
      </trkpt>
      <trkpt lat="45.09833" lon="2.72128">
        <ele>1479.49</ele>
        <time>2022-07-12T10:11:08Z</time>
      </trkpt>
      <trkpt lat="45.09831" lon="2.72123">
        <ele>1479.06</ele>
        <time>2022-07-12T10:11:12Z</time>
      </trkpt>
      <trkpt lat="45.09816" lon="2.72106">
        <ele>1478.93</ele>
        <time>2022-07-12T10:11:29Z</time>
      </trkpt>
      <trkpt lat="45.09815" lon="2.72103">
        <ele>1479.22</ele>
        <time>2022-07-12T10:11:31Z</time>
      </trkpt>
      <trkpt lat="45.09809" lon="2.72076">
        <ele>1481.21</ele>
        <time>2022-07-12T10:11:51Z</time>
      </trkpt>
      <trkpt lat="45.09812" lon="2.72055">
        <ele>1480.09</ele>
        <time>2022-07-12T10:12:11Z</time>
      </trkpt>
      <trkpt lat="45.09809" lon="2.72023">
        <ele>1477.05</ele>
        <time>2022-07-12T10:12:31Z</time>
      </trkpt>
      <trkpt lat="45.09801" lon="2.72003">
        <ele>1475.15</ele>
        <time>2022-07-12T10:12:48Z</time>
      </trkpt>
      <trkpt lat="45.09783" lon="2.71991">
        <ele>1473.51</ele>
        <time>2022-07-12T10:13:08Z</time>
      </trkpt>
      <trkpt lat="45.09779" lon="2.7199">
        <ele>1473.43</ele>
        <time>2022-07-12T10:13:12Z</time>
      </trkpt>
      <trkpt lat="45.09774" lon="2.71989">
        <ele>1473.38</ele>
        <time>2022-07-12T10:13:16Z</time>
      </trkpt>
      <trkpt lat="45.09755" lon="2.71979">
        <ele>1472.83</ele>
        <time>2022-07-12T10:13:34Z</time>
      </trkpt>
      <trkpt lat="45.09745" lon="2.71969">
        <ele>1473.73</ele>
        <time>2022-07-12T10:13:54Z</time>
      </trkpt>
      <trkpt lat="45.0973" lon="2.71955">
        <ele>1474.86</ele>
        <time>2022-07-12T10:14:15Z</time>
      </trkpt>
      <trkpt lat="45.0971" lon="2.71935">
        <ele>1476.19</ele>
        <time>2022-07-12T10:14:39Z</time>
      </trkpt>
      <trkpt lat="45.09695" lon="2.71918">
        <ele>1479.26</ele>
        <time>2022-07-12T10:14:58Z</time>
      </trkpt>
      <trkpt lat="45.09679" lon="2.71896">
        <ele>1481.19</ele>
        <time>2022-07-12T10:15:21Z</time>
      </trkpt>
      <trkpt lat="45.09661" lon="2.71881">
        <ele>1484.41</ele>
        <time>2022-07-12T10:15:44Z</time>
      </trkpt>
      <trkpt lat="45.09645" lon="2.71871">
        <ele>1487.01</ele>
        <time>2022-07-12T10:16:06Z</time>
      </trkpt>
      <trkpt lat="45.09644" lon="2.71873">
        <ele>1487.47</ele>
        <time>2022-07-12T10:16:09Z</time>
      </trkpt>
      <trkpt lat="45.09649" lon="2.71873">
        <ele>1487.52</ele>
        <time>2022-07-12T10:16:33Z</time>
      </trkpt>
      <trkpt lat="45.09648" lon="2.71875">
        <ele>1487.5</ele>
        <time>2022-07-12T10:16:53Z</time>
      </trkpt>
      <trkpt lat="45.09623" lon="2.71856">
        <ele>1489.41</ele>
        <time>2022-07-12T10:17:25Z</time>
      </trkpt>
      <trkpt lat="45.0961" lon="2.71841">
        <ele>1490.58</ele>
        <time>2022-07-12T10:17:41Z</time>
      </trkpt>
      <trkpt lat="45.09609" lon="2.71838">
        <ele>1490.97</ele>
        <time>2022-07-12T10:17:43Z</time>
      </trkpt>
      <trkpt lat="45.09593" lon="2.71821">
        <ele>1493.56</ele>
        <time>2022-07-12T10:18:01Z</time>
      </trkpt>
      <trkpt lat="45.09588" lon="2.71814">
        <ele>1495.43</ele>
        <time>2022-07-12T10:18:15Z</time>
      </trkpt>
      <trkpt lat="45.09589" lon="2.71811">
        <ele>1495.91</ele>
        <time>2022-07-12T10:18:44Z</time>
      </trkpt>
      <trkpt lat="45.09589" lon="2.7181">
        <ele>1495.71</ele>
        <time>2022-07-12T10:19:09Z</time>
      </trkpt>
      <trkpt lat="45.09589" lon="2.71811">
        <ele>1495.66</ele>
        <time>2022-07-12T10:19:19Z</time>
      </trkpt>
      <trkpt lat="45.09561" lon="2.71815">
        <ele>1499.44</ele>
        <time>2022-07-12T10:19:57Z</time>
      </trkpt>
      <trkpt lat="45.09544" lon="2.71818">
        <ele>1500.2</ele>
        <time>2022-07-12T10:20:14Z</time>
      </trkpt>
      <trkpt lat="45.0953" lon="2.7182">
        <ele>1501.98</ele>
        <time>2022-07-12T10:20:31Z</time>
      </trkpt>
      <trkpt lat="45.09528" lon="2.71821">
        <ele>1502.97</ele>
        <time>2022-07-12T10:20:42Z</time>
      </trkpt>
      <trkpt lat="45.09523" lon="2.71823">
        <ele>1503.11</ele>
        <time>2022-07-12T10:20:59Z</time>
      </trkpt>
      <trkpt lat="45.09518" lon="2.71824">
        <ele>1503.23</ele>
        <time>2022-07-12T10:21:05Z</time>
      </trkpt>
      <trkpt lat="45.09504" lon="2.71834">
        <ele>1505.2</ele>
        <time>2022-07-12T10:21:22Z</time>
      </trkpt>
      <trkpt lat="45.09494" lon="2.71842">
        <ele>1508.27</ele>
        <time>2022-07-12T10:21:40Z</time>
      </trkpt>
      <trkpt lat="45.09482" lon="2.71843">
        <ele>1511.29</ele>
        <time>2022-07-12T10:21:59Z</time>
      </trkpt>
      <trkpt lat="45.09472" lon="2.71845">
        <ele>1514.29</ele>
        <time>2022-07-12T10:22:17Z</time>
      </trkpt>
      <trkpt lat="45.09458" lon="2.71851">
        <ele>1517.31</ele>
        <time>2022-07-12T10:22:36Z</time>
      </trkpt>
      <trkpt lat="45.09445" lon="2.71856">
        <ele>1520.37</ele>
        <time>2022-07-12T10:22:52Z</time>
      </trkpt>
      <trkpt lat="45.09433" lon="2.71863">
        <ele>1522.21</ele>
        <time>2022-07-12T10:23:14Z</time>
      </trkpt>
      <trkpt lat="45.0943" lon="2.71865">
        <ele>1522.51</ele>
        <time>2022-07-12T10:23:43Z</time>
      </trkpt>
      <trkpt lat="45.09432" lon="2.7186">
        <ele>1522.01</ele>
        <time>2022-07-12T10:24:00Z</time>
      </trkpt>
      <trkpt lat="45.0942" lon="2.71864">
        <ele>1518.92</ele>
        <time>2022-07-12T10:24:19Z</time>
      </trkpt>
      <trkpt lat="45.09417" lon="2.71871">
        <ele>1516.78</ele>
        <time>2022-07-12T10:24:45Z</time>
      </trkpt>
      <trkpt lat="45.09417" lon="2.7187">
        <ele>1516.65</ele>
        <time>2022-07-12T10:24:50Z</time>
      </trkpt>
      <trkpt lat="45.0941" lon="2.71849">
        <ele>1514.09</ele>
        <time>2022-07-12T10:48:51Z</time>
      </trkpt>
      <trkpt lat="45.09405" lon="2.71843">
        <ele>1511.04</ele>
        <time>2022-07-12T10:49:05Z</time>
      </trkpt>
      <trkpt lat="45.09401" lon="2.71838">
        <ele>1509.91</ele>
        <time>2022-07-12T10:49:21Z</time>
      </trkpt>
      <trkpt lat="45.09395" lon="2.71834">
        <ele>1507.83</ele>
        <time>2022-07-12T10:49:36Z</time>
      </trkpt>
      <trkpt lat="45.0939" lon="2.71823">
        <ele>1505.6</ele>
        <time>2022-07-12T10:49:51Z</time>
      </trkpt>
      <trkpt lat="45.09388" lon="2.7182">
        <ele>1504.65</ele>
        <time>2022-07-12T10:49:54Z</time>
      </trkpt>
      <trkpt lat="45.09388" lon="2.71806">
        <ele>1502.82</ele>
        <time>2022-07-12T10:50:04Z</time>
      </trkpt>
      <trkpt lat="45.09384" lon="2.71803">
        <ele>1501.95</ele>
        <time>2022-07-12T10:50:09Z</time>
      </trkpt>
      <trkpt lat="45.09382" lon="2.71802">
        <ele>1501.21</ele>
        <time>2022-07-12T10:50:13Z</time>
      </trkpt>
      <trkpt lat="45.09379" lon="2.71793">
        <ele>1500.58</ele>
        <time>2022-07-12T10:50:19Z</time>
      </trkpt>
      <trkpt lat="45.09372" lon="2.71785">
        <ele>1499.57</ele>
        <time>2022-07-12T10:50:26Z</time>
      </trkpt>
      <trkpt lat="45.09367" lon="2.71774">
        <ele>1496.28</ele>
        <time>2022-07-12T10:50:39Z</time>
      </trkpt>
      <trkpt lat="45.09369" lon="2.71776">
        <ele>1495.48</ele>
        <time>2022-07-12T10:50:44Z</time>
      </trkpt>
      <trkpt lat="45.0936" lon="2.71765">
        <ele>1494.84</ele>
        <time>2022-07-12T10:50:54Z</time>
      </trkpt>
      <trkpt lat="45.09349" lon="2.71748">
        <ele>1491.81</ele>
        <time>2022-07-12T10:51:08Z</time>
      </trkpt>
      <trkpt lat="45.09339" lon="2.71741">
        <ele>1490.54</ele>
        <time>2022-07-12T10:51:18Z</time>
      </trkpt>
      <trkpt lat="45.09327" lon="2.71729">
        <ele>1489.1</ele>
        <time>2022-07-12T10:51:33Z</time>
      </trkpt>
      <trkpt lat="45.09319" lon="2.71723">
        <ele>1488.37</ele>
        <time>2022-07-12T10:51:42Z</time>
      </trkpt>
      <trkpt lat="45.09315" lon="2.71695">
        <ele>1487.19</ele>
        <time>2022-07-12T10:51:57Z</time>
      </trkpt>
      <trkpt lat="45.09316" lon="2.71693">
        <ele>1487.04</ele>
        <time>2022-07-12T10:52:00Z</time>
      </trkpt>
      <trkpt lat="45.09307" lon="2.7169">
        <ele>1486.06</ele>
        <time>2022-07-12T10:52:07Z</time>
      </trkpt>
      <trkpt lat="45.09298" lon="2.71684">
        <ele>1484.87</ele>
        <time>2022-07-12T10:52:18Z</time>
      </trkpt>
      <trkpt lat="45.09294" lon="2.71678">
        <ele>1483.9</ele>
        <time>2022-07-12T10:52:34Z</time>
      </trkpt>
      <trkpt lat="45.09294" lon="2.71679">
        <ele>1483.74</ele>
        <time>2022-07-12T10:52:35Z</time>
      </trkpt>
      <trkpt lat="45.09275" lon="2.71658">
        <ele>1480.43</ele>
        <time>2022-07-12T10:53:33Z</time>
      </trkpt>
      <trkpt lat="45.0926" lon="2.7165">
        <ele>1477.39</ele>
        <time>2022-07-12T10:53:48Z</time>
      </trkpt>
      <trkpt lat="45.09244" lon="2.71638">
        <ele>1474.34</ele>
        <time>2022-07-12T10:54:05Z</time>
      </trkpt>
      <trkpt lat="45.09232" lon="2.71624">
        <ele>1474.81</ele>
        <time>2022-07-12T10:54:23Z</time>
      </trkpt>
      <trkpt lat="45.09221" lon="2.71618">
        <ele>1477.93</ele>
        <time>2022-07-12T10:54:38Z</time>
      </trkpt>
      <trkpt lat="45.09209" lon="2.71613">
        <ele>1480.99</ele>
        <time>2022-07-12T10:54:59Z</time>
      </trkpt>
      <trkpt lat="45.09205" lon="2.71611">
        <ele>1482.46</ele>
        <time>2022-07-12T10:55:06Z</time>
      </trkpt>
      <trkpt lat="45.09171" lon="2.71609">
        <ele>1490.07</ele>
        <time>2022-07-12T10:55:50Z</time>
      </trkpt>
      <trkpt lat="45.09155" lon="2.71614">
        <ele>1489.87</ele>
        <time>2022-07-12T10:56:07Z</time>
      </trkpt>
      <trkpt lat="45.09156" lon="2.71615">
        <ele>1489.52</ele>
        <time>2022-07-12T10:56:11Z</time>
      </trkpt>
      <trkpt lat="45.09148" lon="2.71616">
        <ele>1488.8</ele>
        <time>2022-07-12T10:56:20Z</time>
      </trkpt>
      <trkpt lat="45.09138" lon="2.71617">
        <ele>1487.92</ele>
        <time>2022-07-12T10:56:29Z</time>
      </trkpt>
      <trkpt lat="45.09126" lon="2.71625">
        <ele>1484.87</ele>
        <time>2022-07-12T10:56:42Z</time>
      </trkpt>
      <trkpt lat="45.09114" lon="2.71635">
        <ele>1481.49</ele>
        <time>2022-07-12T10:56:56Z</time>
      </trkpt>
      <trkpt lat="45.09099" lon="2.71647">
        <ele>1478.43</ele>
        <time>2022-07-12T10:57:10Z</time>
      </trkpt>
      <trkpt lat="45.09077" lon="2.71661">
        <ele>1475.31</ele>
        <time>2022-07-12T10:57:29Z</time>
      </trkpt>
      <trkpt lat="45.09061" lon="2.71671">
        <ele>1472.26</ele>
        <time>2022-07-12T10:57:46Z</time>
      </trkpt>
      <trkpt lat="45.09057" lon="2.71673">
        <ele>1471.42</ele>
        <time>2022-07-12T10:57:51Z</time>
      </trkpt>
      <trkpt lat="45.09058" lon="2.71676">
        <ele>1470.63</ele>
        <time>2022-07-12T10:57:55Z</time>
      </trkpt>
      <trkpt lat="45.09056" lon="2.71676">
        <ele>1470.42</ele>
        <time>2022-07-12T10:57:58Z</time>
      </trkpt>
      <trkpt lat="45.09054" lon="2.71675">
        <ele>1470.25</ele>
        <time>2022-07-12T10:58:02Z</time>
      </trkpt>
      <trkpt lat="45.09038" lon="2.71668">
        <ele>1469.82</ele>
        <time>2022-07-12T10:58:16Z</time>
      </trkpt>
      <trkpt lat="45.09034" lon="2.71664">
        <ele>1469.61</ele>
        <time>2022-07-12T10:58:19Z</time>
      </trkpt>
      <trkpt lat="45.09011" lon="2.71632">
        <ele>1467.23</ele>
        <time>2022-07-12T10:58:39Z</time>
      </trkpt>
      <trkpt lat="45.08999" lon="2.71611">
        <ele>1467.29</ele>
        <time>2022-07-12T10:58:57Z</time>
      </trkpt>
      <trkpt lat="45.08982" lon="2.71589">
        <ele>1468.17</ele>
        <time>2022-07-12T10:59:13Z</time>
      </trkpt>
      <trkpt lat="45.08964" lon="2.71565">
        <ele>1469.23</ele>
        <time>2022-07-12T10:59:30Z</time>
      </trkpt>
      <trkpt lat="45.08951" lon="2.7155">
        <ele>1469.93</ele>
        <time>2022-07-12T10:59:43Z</time>
      </trkpt>
      <trkpt lat="45.08939" lon="2.71535">
        <ele>1469.68</ele>
        <time>2022-07-12T10:59:55Z</time>
      </trkpt>
      <trkpt lat="45.08935" lon="2.71532">
        <ele>1469.43</ele>
        <time>2022-07-12T11:00:00Z</time>
      </trkpt>
      <trkpt lat="45.08928" lon="2.71522">
        <ele>1469.4</ele>
        <time>2022-07-12T11:00:09Z</time>
      </trkpt>
      <trkpt lat="45.08914" lon="2.71506">
        <ele>1469.47</ele>
        <time>2022-07-12T11:00:24Z</time>
      </trkpt>
      <trkpt lat="45.08907" lon="2.71494">
        <ele>1470.05</ele>
        <time>2022-07-12T11:00:40Z</time>
      </trkpt>
      <trkpt lat="45.08907" lon="2.71493">
        <ele>1470.06</ele>
        <time>2022-07-12T11:00:41Z</time>
      </trkpt>
      <trkpt lat="45.08905" lon="2.71489">
        <ele>1470.09</ele>
        <time>2022-07-12T11:00:45Z</time>
      </trkpt>
      <trkpt lat="45.089" lon="2.71474">
        <ele>1470.87</ele>
        <time>2022-07-12T11:00:58Z</time>
      </trkpt>
      <trkpt lat="45.08884" lon="2.71461">
        <ele>1472.37</ele>
        <time>2022-07-12T11:01:11Z</time>
      </trkpt>
      <trkpt lat="45.08879" lon="2.71451">
        <ele>1473.68</ele>
        <time>2022-07-12T11:01:25Z</time>
      </trkpt>
      <trkpt lat="45.0887" lon="2.71445">
        <ele>1474.1</ele>
        <time>2022-07-12T11:01:32Z</time>
      </trkpt>
      <trkpt lat="45.08871" lon="2.71419">
        <ele>1476.98</ele>
        <time>2022-07-12T11:03:27Z</time>
      </trkpt>
      <trkpt lat="45.08845" lon="2.71391">
        <ele>1476.95</ele>
        <time>2022-07-12T11:03:50Z</time>
      </trkpt>
      <trkpt lat="45.08839" lon="2.71378">
        <ele>1477.33</ele>
        <time>2022-07-12T11:04:00Z</time>
      </trkpt>
      <trkpt lat="45.08839" lon="2.71369">
        <ele>1478</ele>
        <time>2022-07-12T11:04:07Z</time>
      </trkpt>
      <trkpt lat="45.08842" lon="2.71361">
        <ele>1478.68</ele>
        <time>2022-07-12T11:04:14Z</time>
      </trkpt>
      <trkpt lat="45.08831" lon="2.71353">
        <ele>1479.22</ele>
        <time>2022-07-12T11:04:20Z</time>
      </trkpt>
      <trkpt lat="45.08825" lon="2.71333">
        <ele>1480.8</ele>
        <time>2022-07-12T11:04:36Z</time>
      </trkpt>
      <trkpt lat="45.08806" lon="2.71311">
        <ele>1482.13</ele>
        <time>2022-07-12T11:04:54Z</time>
      </trkpt>
      <trkpt lat="45.08793" lon="2.71292">
        <ele>1483.25</ele>
        <time>2022-07-12T11:05:09Z</time>
      </trkpt>
      <trkpt lat="45.08805" lon="2.71296">
        <ele>1483.46</ele>
        <time>2022-07-12T11:05:13Z</time>
      </trkpt>
      <trkpt lat="45.08803" lon="2.71292">
        <ele>1483.58</ele>
        <time>2022-07-12T11:05:15Z</time>
      </trkpt>
      <trkpt lat="45.08803" lon="2.71288">
        <ele>1484.03</ele>
        <time>2022-07-12T11:05:19Z</time>
      </trkpt>
      <trkpt lat="45.08799" lon="2.71274">
        <ele>1485.6</ele>
        <time>2022-07-12T11:05:33Z</time>
      </trkpt>
      <trkpt lat="45.08797" lon="2.7127">
        <ele>1486.23</ele>
        <time>2022-07-12T11:05:38Z</time>
      </trkpt>
      <trkpt lat="45.08787" lon="2.71264">
        <ele>1486.78</ele>
        <time>2022-07-12T11:05:43Z</time>
      </trkpt>
      <trkpt lat="45.08782" lon="2.7125">
        <ele>1488.88</ele>
        <time>2022-07-12T11:05:58Z</time>
      </trkpt>
      <trkpt lat="45.08781" lon="2.71248">
        <ele>1489.07</ele>
        <time>2022-07-12T11:06:00Z</time>
      </trkpt>
      <trkpt lat="45.08777" lon="2.71241">
        <ele>1489.68</ele>
        <time>2022-07-12T11:06:06Z</time>
      </trkpt>
      <trkpt lat="45.08768" lon="2.71223">
        <ele>1491.15</ele>
        <time>2022-07-12T11:06:21Z</time>
      </trkpt>
      <trkpt lat="45.08766" lon="2.71222">
        <ele>1491.25</ele>
        <time>2022-07-12T11:06:23Z</time>
      </trkpt>
      <trkpt lat="45.08743" lon="2.71213">
        <ele>1493.7</ele>
        <time>2022-07-12T11:06:43Z</time>
      </trkpt>
      <trkpt lat="45.08741" lon="2.71213">
        <ele>1494.1</ele>
        <time>2022-07-12T11:06:45Z</time>
      </trkpt>
      <trkpt lat="45.08737" lon="2.71212">
        <ele>1494.59</ele>
        <time>2022-07-12T11:06:50Z</time>
      </trkpt>
      <trkpt lat="45.0873" lon="2.71217">
        <ele>1494.72</ele>
        <time>2022-07-12T11:10:09Z</time>
      </trkpt>
      <trkpt lat="45.0872" lon="2.71222">
        <ele>1493.99</ele>
        <time>2022-07-12T11:10:19Z</time>
      </trkpt>
      <trkpt lat="45.08715" lon="2.71234">
        <ele>1493.58</ele>
        <time>2022-07-12T11:10:27Z</time>
      </trkpt>
      <trkpt lat="45.087" lon="2.71254">
        <ele>1492.56</ele>
        <time>2022-07-12T11:10:43Z</time>
      </trkpt>
      <trkpt lat="45.08685" lon="2.71264">
        <ele>1492.84</ele>
        <time>2022-07-12T11:11:00Z</time>
      </trkpt>
      <trkpt lat="45.08684" lon="2.71264">
        <ele>1493.39</ele>
        <time>2022-07-12T11:11:07Z</time>
      </trkpt>
      <trkpt lat="45.08676" lon="2.7127">
        <ele>1493.36</ele>
        <time>2022-07-12T11:11:16Z</time>
      </trkpt>
      <trkpt lat="45.08656" lon="2.71263">
        <ele>1493.18</ele>
        <time>2022-07-12T11:11:34Z</time>
      </trkpt>
      <trkpt lat="45.08649" lon="2.71247">
        <ele>1493.75</ele>
        <time>2022-07-12T11:11:50Z</time>
      </trkpt>
      <trkpt lat="45.08637" lon="2.71233">
        <ele>1494.67</ele>
        <time>2022-07-12T11:12:07Z</time>
      </trkpt>
      <trkpt lat="45.08605" lon="2.71206">
        <ele>1496.25</ele>
        <time>2022-07-12T11:12:31Z</time>
      </trkpt>
      <trkpt lat="45.08585" lon="2.71202">
        <ele>1497.78</ele>
        <time>2022-07-12T11:12:47Z</time>
      </trkpt>
      <trkpt lat="45.08563" lon="2.71203">
        <ele>1498.92</ele>
        <time>2022-07-12T11:13:04Z</time>
      </trkpt>
      <trkpt lat="45.08545" lon="2.71201">
        <ele>1498.68</ele>
        <time>2022-07-12T11:13:21Z</time>
      </trkpt>
      <trkpt lat="45.08542" lon="2.71197">
        <ele>1498.16</ele>
        <time>2022-07-12T11:13:29Z</time>
      </trkpt>
      <trkpt lat="45.0851" lon="2.7117">
        <ele>1497.31</ele>
        <time>2022-07-12T11:14:12Z</time>
      </trkpt>
      <trkpt lat="45.08486" lon="2.71144">
        <ele>1497.94</ele>
        <time>2022-07-12T11:14:37Z</time>
      </trkpt>
      <trkpt lat="45.08478" lon="2.7113">
        <ele>1498.11</ele>
        <time>2022-07-12T11:14:47Z</time>
      </trkpt>
      <trkpt lat="45.08463" lon="2.71109">
        <ele>1498.99</ele>
        <time>2022-07-12T11:15:07Z</time>
      </trkpt>
      <trkpt lat="45.08464" lon="2.71109">
        <ele>1498.99</ele>
        <time>2022-07-12T11:15:08Z</time>
      </trkpt>
      <trkpt lat="45.08454" lon="2.71102">
        <ele>1498.7</ele>
        <time>2022-07-12T11:15:19Z</time>
      </trkpt>
      <trkpt lat="45.08438" lon="2.71091">
        <ele>1499.04</ele>
        <time>2022-07-12T11:15:35Z</time>
      </trkpt>
      <trkpt lat="45.0842" lon="2.71079">
        <ele>1499.32</ele>
        <time>2022-07-12T11:15:53Z</time>
      </trkpt>
      <trkpt lat="45.08412" lon="2.71078">
        <ele>1499.28</ele>
        <time>2022-07-12T11:15:59Z</time>
      </trkpt>
      <trkpt lat="45.08408" lon="2.71073">
        <ele>1499.03</ele>
        <time>2022-07-12T11:16:03Z</time>
      </trkpt>
      <trkpt lat="45.08393" lon="2.71068">
        <ele>1497.48</ele>
        <time>2022-07-12T11:16:17Z</time>
      </trkpt>
      <trkpt lat="45.08388" lon="2.71066">
        <ele>1496.52</ele>
        <time>2022-07-12T11:16:22Z</time>
      </trkpt>
      <trkpt lat="45.08383" lon="2.71061">
        <ele>1496.38</ele>
        <time>2022-07-12T11:16:29Z</time>
      </trkpt>
      <trkpt lat="45.08378" lon="2.71054">
        <ele>1496.38</ele>
        <time>2022-07-12T11:16:34Z</time>
      </trkpt>
      <trkpt lat="45.08366" lon="2.71035">
        <ele>1497.06</ele>
        <time>2022-07-12T11:16:49Z</time>
      </trkpt>
      <trkpt lat="45.08359" lon="2.71025">
        <ele>1497.88</ele>
        <time>2022-07-12T11:16:58Z</time>
      </trkpt>
      <trkpt lat="45.08356" lon="2.7102">
        <ele>1498.39</ele>
        <time>2022-07-12T11:17:02Z</time>
      </trkpt>
      <trkpt lat="45.08343" lon="2.71002">
        <ele>1500.53</ele>
        <time>2022-07-12T11:17:17Z</time>
      </trkpt>
      <trkpt lat="45.08322" lon="2.7099">
        <ele>1502.26</ele>
        <time>2022-07-12T11:17:34Z</time>
      </trkpt>
      <trkpt lat="45.08305" lon="2.70981">
        <ele>1502.93</ele>
        <time>2022-07-12T11:17:50Z</time>
      </trkpt>
      <trkpt lat="45.0829" lon="2.70974">
        <ele>1502.82</ele>
        <time>2022-07-12T11:18:05Z</time>
      </trkpt>
      <trkpt lat="45.08276" lon="2.70962">
        <ele>1502.15</ele>
        <time>2022-07-12T11:18:21Z</time>
      </trkpt>
      <trkpt lat="45.08265" lon="2.70945">
        <ele>1502.46</ele>
        <time>2022-07-12T11:18:37Z</time>
      </trkpt>
      <trkpt lat="45.08265" lon="2.70944">
        <ele>1502.54</ele>
        <time>2022-07-12T11:18:40Z</time>
      </trkpt>
      <trkpt lat="45.0824" lon="2.70913">
        <ele>1506.43</ele>
        <time>2022-07-12T11:19:47Z</time>
      </trkpt>
      <trkpt lat="45.08225" lon="2.70887">
        <ele>1509.37</ele>
        <time>2022-07-12T11:20:11Z</time>
      </trkpt>
      <trkpt lat="45.08213" lon="2.70876">
        <ele>1511.76</ele>
        <time>2022-07-12T11:20:29Z</time>
      </trkpt>
      <trkpt lat="45.08193" lon="2.70879">
        <ele>1577.4</ele>
      </trkpt>
      <trkpt lat="45.08187" lon="2.70859">
        <ele>1577.6</ele>
      </trkpt>
      <trkpt lat="45.08182" lon="2.70821">
        <ele>1579.7</ele>
      </trkpt>
      <trkpt lat="45.0817" lon="2.70822">
        <ele>1584.1</ele>
      </trkpt>
      <trkpt lat="45.08149" lon="2.70823">
        <ele>1588.6</ele>
      </trkpt>
      <trkpt lat="45.08132" lon="2.70823">
        <ele>1591.5</ele>
      </trkpt>
      <trkpt lat="45.0812" lon="2.70788">
        <ele>1609.6</ele>
      </trkpt>
      <trkpt lat="45.08118" lon="2.70754">
        <ele>1623.3</ele>
      </trkpt>
      <trkpt lat="45.08114" lon="2.70729">
        <ele>1631.1</ele>
      </trkpt>
      <trkpt lat="45.08095" lon="2.70711">
        <ele>1647.9</ele>
      </trkpt>
      <trkpt lat="45.08076" lon="2.70707">
        <ele>1655.6</ele>
      </trkpt>
      <trkpt lat="45.08063" lon="2.70699">
        <ele>1658</ele>
      </trkpt>
      <trkpt lat="45.08054" lon="2.70682">
        <ele>1668.2</ele>
      </trkpt>
      <trkpt lat="45.08057" lon="2.70661">
        <ele>1677.6</ele>
      </trkpt>
      <trkpt lat="45.08053" lon="2.70646">
        <ele>1679.1</ele>
      </trkpt>
      <trkpt lat="45.08043" lon="2.70637">
        <ele>1680.9</ele>
      </trkpt>
      <trkpt lat="45.08035" lon="2.70636">
        <ele>1682</ele>
      </trkpt>
      <trkpt lat="45.08026" lon="2.70628">
        <ele>1677.5</ele>
      </trkpt>
      <trkpt lat="45.08018" lon="2.70619">
        <ele>1671.5</ele>
      </trkpt>
      <trkpt lat="45.08013" lon="2.70624">
        <ele>1674.2</ele>
      </trkpt>
      <trkpt lat="45.0802" lon="2.70633">
        <ele>1680.4</ele>
      </trkpt>
      <trkpt lat="45.08031" lon="2.70638">
        <ele>1684.7</ele>
      </trkpt>
      <trkpt lat="45.08032" lon="2.70662">
        <ele>1676.3</ele>
      </trkpt>
      <trkpt lat="45.08046" lon="2.70655">
        <ele>1678.6</ele>
      </trkpt>
      <trkpt lat="45.0805" lon="2.70688">
        <ele>1663.2</ele>
      </trkpt>
      <trkpt lat="45.08068" lon="2.70685">
        <ele>1663.8</ele>
      </trkpt>
      <trkpt lat="45.08076" lon="2.70731">
        <ele>1644.7</ele>
      </trkpt>
      <trkpt lat="45.08103" lon="2.7071">
        <ele>1642.5</ele>
      </trkpt>
      <trkpt lat="45.08109" lon="2.70736">
        <ele>1633.2</ele>
      </trkpt>
      <trkpt lat="45.08126" lon="2.70774">
        <ele>1612.6</ele>
      </trkpt>
      <trkpt lat="45.08118" lon="2.70802">
        <ele>1603.4</ele>
      </trkpt>
      <trkpt lat="45.08136" lon="2.7081">
        <ele>1596</ele>
      </trkpt>
      <trkpt lat="45.08156" lon="2.70814">
        <ele>1589.1</ele>
      </trkpt>
      <trkpt lat="45.08166" lon="2.7083">
        <ele>1584.5</ele>
      </trkpt>
      <trkpt lat="45.08178" lon="2.70831">
        <ele>1580.5</ele>
      </trkpt>
      <trkpt lat="45.08191" lon="2.7083">
        <ele>1576.2</ele>
      </trkpt>
      <trkpt lat="45.08196" lon="2.70869">
        <ele>1576</ele>
      </trkpt>
      <trkpt lat="45.0821" lon="2.70873">
        <ele>1572.3</ele>
      </trkpt>
      <trkpt lat="45.08227" lon="2.7088">
        <ele>1567.6</ele>
      </trkpt>
      <trkpt lat="45.08226" lon="2.70881">
        <ele>1512.96</ele>
        <time>2022-07-12T11:53:14Z</time>
      </trkpt>
      <trkpt lat="45.08229" lon="2.70886">
        <ele>1511.72</ele>
        <time>2022-07-12T11:53:22Z</time>
      </trkpt>
      <trkpt lat="45.08234" lon="2.70891">
        <ele>1510.92</ele>
        <time>2022-07-12T11:53:28Z</time>
      </trkpt>
      <trkpt lat="45.08242" lon="2.70909">
        <ele>1508.7</ele>
        <time>2022-07-12T11:53:46Z</time>
      </trkpt>
      <trkpt lat="45.08258" lon="2.70927">
        <ele>1506.4</ele>
        <time>2022-07-12T11:54:03Z</time>
      </trkpt>
      <trkpt lat="45.08271" lon="2.70939">
        <ele>1504.74</ele>
        <time>2022-07-12T11:54:17Z</time>
      </trkpt>
      <trkpt lat="45.08277" lon="2.70943">
        <ele>1503.56</ele>
        <time>2022-07-12T11:54:26Z</time>
      </trkpt>
      <trkpt lat="45.08274" lon="2.70944">
        <ele>1503.28</ele>
        <time>2022-07-12T11:54:29Z</time>
      </trkpt>
      <trkpt lat="45.08268" lon="2.70932">
        <ele>1502.36</ele>
        <time>2022-07-12T11:54:42Z</time>
      </trkpt>
      <trkpt lat="45.0826" lon="2.7091">
        <ele>1501.49</ele>
        <time>2022-07-12T11:54:59Z</time>
      </trkpt>
      <trkpt lat="45.08261" lon="2.70891">
        <ele>1500.83</ele>
        <time>2022-07-12T11:55:13Z</time>
      </trkpt>
      <trkpt lat="45.08264" lon="2.70849">
        <ele>1497.73</ele>
        <time>2022-07-12T11:55:42Z</time>
      </trkpt>
      <trkpt lat="45.08271" lon="2.7083">
        <ele>1495.12</ele>
        <time>2022-07-12T11:55:58Z</time>
      </trkpt>
      <trkpt lat="45.08271" lon="2.70828">
        <ele>1494.9</ele>
        <time>2022-07-12T11:55:59Z</time>
      </trkpt>
      <trkpt lat="45.08269" lon="2.70816">
        <ele>1492.06</ele>
        <time>2022-07-12T11:56:14Z</time>
      </trkpt>
      <trkpt lat="45.08278" lon="2.70797">
        <ele>1488.98</ele>
        <time>2022-07-12T11:56:32Z</time>
      </trkpt>
      <trkpt lat="45.08281" lon="2.7078">
        <ele>1485.8</ele>
        <time>2022-07-12T11:56:47Z</time>
      </trkpt>
      <trkpt lat="45.08292" lon="2.70759">
        <ele>1482.81</ele>
        <time>2022-07-12T11:57:05Z</time>
      </trkpt>
      <trkpt lat="45.08303" lon="2.70742">
        <ele>1479.67</ele>
        <time>2022-07-12T11:57:28Z</time>
      </trkpt>
      <trkpt lat="45.083" lon="2.7074">
        <ele>1478.28</ele>
        <time>2022-07-12T11:57:33Z</time>
      </trkpt>
      <trkpt lat="45.08304" lon="2.70717">
        <ele>1476.1</ele>
        <time>2022-07-12T11:57:53Z</time>
      </trkpt>
      <trkpt lat="45.08305" lon="2.7071">
        <ele>1474.31</ele>
        <time>2022-07-12T11:58:03Z</time>
      </trkpt>
      <trkpt lat="45.08297" lon="2.70583">
        <ele>1455.44</ele>
        <time>2022-07-12T12:03:21Z</time>
      </trkpt>
      <trkpt lat="45.08297" lon="2.70575">
        <ele>1454.68</ele>
        <time>2022-07-12T12:03:27Z</time>
      </trkpt>
      <trkpt lat="45.08297" lon="2.70567">
        <ele>1453.81</ele>
        <time>2022-07-12T12:03:34Z</time>
      </trkpt>
      <trkpt lat="45.08295" lon="2.70563">
        <ele>1453.26</ele>
        <time>2022-07-12T12:03:38Z</time>
      </trkpt>
      <trkpt lat="45.08299" lon="2.70543">
        <ele>1450.55</ele>
        <time>2022-07-12T12:03:53Z</time>
      </trkpt>
      <trkpt lat="45.08301" lon="2.70534">
        <ele>1449.46</ele>
        <time>2022-07-12T12:03:59Z</time>
      </trkpt>
      <trkpt lat="45.083" lon="2.70518">
        <ele>1445.92</ele>
        <time>2022-07-12T12:04:13Z</time>
      </trkpt>
      <trkpt lat="45.083" lon="2.70517">
        <ele>1444.99</ele>
        <time>2022-07-12T12:04:14Z</time>
      </trkpt>
      <trkpt lat="45.08304" lon="2.70491">
        <ele>1439.69</ele>
        <time>2022-07-12T12:04:47Z</time>
      </trkpt>
      <trkpt lat="45.08302" lon="2.70481">
        <ele>1438.14</ele>
        <time>2022-07-12T12:04:56Z</time>
      </trkpt>
      <trkpt lat="45.08302" lon="2.70484">
        <ele>1436.85</ele>
        <time>2022-07-12T12:05:01Z</time>
      </trkpt>
      <trkpt lat="45.08207" lon="2.70248">
        <ele>1395.05</ele>
        <time>2022-07-12T12:09:58Z</time>
      </trkpt>
      <trkpt lat="45.08197" lon="2.7024">
        <ele>1391.96</ele>
        <time>2022-07-12T12:10:11Z</time>
      </trkpt>
      <trkpt lat="45.0812" lon="2.70223">
        <ele>1381.15</ele>
        <time>2022-07-12T12:12:32Z</time>
      </trkpt>
      <trkpt lat="45.08119" lon="2.70223">
        <ele>1381.15</ele>
        <time>2022-07-12T12:12:33Z</time>
      </trkpt>
      <trkpt lat="45.08103" lon="2.70222">
        <ele>1381.68</ele>
        <time>2022-07-12T12:12:40Z</time>
      </trkpt>
      <trkpt lat="45.08086" lon="2.70215">
        <ele>1380.97</ele>
        <time>2022-07-12T12:12:54Z</time>
      </trkpt>
      <trkpt lat="45.08046" lon="2.70196">
        <ele>1379.92</ele>
        <time>2022-07-12T12:13:31Z</time>
      </trkpt>
      <trkpt lat="45.08043" lon="2.70194">
        <ele>1379.83</ele>
        <time>2022-07-12T12:13:34Z</time>
      </trkpt>
      <trkpt lat="45.08041" lon="2.70193">
        <ele>1379.55</ele>
        <time>2022-07-12T12:13:37Z</time>
      </trkpt>
      <trkpt lat="45.0804" lon="2.70192">
        <ele>1379.48</ele>
        <time>2022-07-12T12:13:39Z</time>
      </trkpt>
      <trkpt lat="45.08038" lon="2.70189">
        <ele>1379.44</ele>
        <time>2022-07-12T12:13:43Z</time>
      </trkpt>
      <trkpt lat="45.08036" lon="2.70194">
        <ele>1379.38</ele>
        <time>2022-07-12T12:13:48Z</time>
      </trkpt>
      <trkpt lat="45.08021" lon="2.70195">
        <ele>1379.42</ele>
        <time>2022-07-12T12:14:00Z</time>
      </trkpt>
      <trkpt lat="45.08018" lon="2.70193">
        <ele>1379.5</ele>
        <time>2022-07-12T12:14:03Z</time>
      </trkpt>
      <trkpt lat="45.08014" lon="2.70192">
        <ele>1379.76</ele>
        <time>2022-07-12T12:14:07Z</time>
      </trkpt>
      <trkpt lat="45.08006" lon="2.70192">
        <ele>1380.21</ele>
        <time>2022-07-12T12:14:13Z</time>
      </trkpt>
      <trkpt lat="45.08001" lon="2.70194">
        <ele>1380.27</ele>
        <time>2022-07-12T12:14:16Z</time>
      </trkpt>
      <trkpt lat="45.07994" lon="2.70193">
        <ele>1380.27</ele>
        <time>2022-07-12T12:14:22Z</time>
      </trkpt>
      <trkpt lat="45.0798" lon="2.70187">
        <ele>1379.61</ele>
        <time>2022-07-12T12:14:34Z</time>
      </trkpt>
      <trkpt lat="45.0797" lon="2.70187">
        <ele>1378.89</ele>
        <time>2022-07-12T12:14:43Z</time>
      </trkpt>
      <trkpt lat="45.07969" lon="2.70187">
        <ele>1378.84</ele>
        <time>2022-07-12T12:14:44Z</time>
      </trkpt>
      <trkpt lat="45.07964" lon="2.70187">
        <ele>1378.61</ele>
        <time>2022-07-12T12:14:47Z</time>
      </trkpt>
      <trkpt lat="45.07957" lon="2.70186">
        <ele>1378.32</ele>
        <time>2022-07-12T12:14:50Z</time>
      </trkpt>
      <trkpt lat="45.07946" lon="2.70191">
        <ele>1377.9</ele>
        <time>2022-07-12T12:14:55Z</time>
      </trkpt>
      <trkpt lat="45.07937" lon="2.70193">
        <ele>1377.63</ele>
        <time>2022-07-12T12:15:01Z</time>
      </trkpt>
      <trkpt lat="45.07935" lon="2.70192">
        <ele>1377.58</ele>
        <time>2022-07-12T12:15:03Z</time>
      </trkpt>
      <trkpt lat="45.07931" lon="2.70192">
        <ele>1377.52</ele>
        <time>2022-07-12T12:15:06Z</time>
      </trkpt>
      <trkpt lat="45.07922" lon="2.70192">
        <ele>1377.16</ele>
        <time>2022-07-12T12:15:11Z</time>
      </trkpt>
      <trkpt lat="45.07913" lon="2.70189">
        <ele>1376.62</ele>
        <time>2022-07-12T12:15:16Z</time>
      </trkpt>
      <trkpt lat="45.07902" lon="2.70189">
        <ele>1376.51</ele>
        <time>2022-07-12T12:15:27Z</time>
      </trkpt>
      <trkpt lat="45.07895" lon="2.70189">
        <ele>1376.74</ele>
        <time>2022-07-12T12:15:34Z</time>
      </trkpt>
      <trkpt lat="45.07881" lon="2.70193">
        <ele>1377.36</ele>
        <time>2022-07-12T12:15:49Z</time>
      </trkpt>
      <trkpt lat="45.0787" lon="2.70201">
        <ele>1376.99</ele>
        <time>2022-07-12T12:16:00Z</time>
      </trkpt>
      <trkpt lat="45.07857" lon="2.70191">
        <ele>1376.56</ele>
        <time>2022-07-12T12:16:12Z</time>
      </trkpt>
      <trkpt lat="45.07837" lon="2.7022">
        <ele>1376.6</ele>
        <time>2022-07-12T12:16:25Z</time>
      </trkpt>
      <trkpt lat="45.07836" lon="2.70217">
        <ele>1376.94</ele>
        <time>2022-07-12T12:16:31Z</time>
      </trkpt>
      <trkpt lat="45.07828" lon="2.70222">
        <ele>1379.67</ele>
        <time>2022-07-12T12:16:45Z</time>
      </trkpt>
      <trkpt lat="45.07827" lon="2.70227">
        <ele>1380.84</ele>
        <time>2022-07-12T12:16:50Z</time>
      </trkpt>
      <trkpt lat="45.07792" lon="2.70239">
        <ele>1383.45</ele>
        <time>2022-07-12T12:17:24Z</time>
      </trkpt>
      <trkpt lat="45.07773" lon="2.70242">
        <ele>1383.04</ele>
        <time>2022-07-12T12:17:39Z</time>
      </trkpt>
      <trkpt lat="45.07751" lon="2.70258">
        <ele>1382.68</ele>
        <time>2022-07-12T12:17:57Z</time>
      </trkpt>
      <trkpt lat="45.07731" lon="2.70263">
        <ele>1381.98</ele>
        <time>2022-07-12T12:18:19Z</time>
      </trkpt>
      <trkpt lat="45.07703" lon="2.70255">
        <ele>1380.48</ele>
        <time>2022-07-12T12:18:39Z</time>
      </trkpt>
      <trkpt lat="45.07684" lon="2.70246">
        <ele>1378.35</ele>
        <time>2022-07-12T12:18:59Z</time>
      </trkpt>
      <trkpt lat="45.07682" lon="2.7025">
        <ele>1377.89</ele>
        <time>2022-07-12T12:19:06Z</time>
      </trkpt>
      <trkpt lat="45.07684" lon="2.70254">
        <ele>1378.06</ele>
        <time>2022-07-12T12:23:57Z</time>
      </trkpt>
      <trkpt lat="45.07684" lon="2.70251">
        <ele>1378.06</ele>
        <time>2022-07-12T12:24:03Z</time>
      </trkpt>
      <trkpt lat="45.0764" lon="2.70221">
        <ele>1378.94</ele>
        <time>2022-07-12T12:24:59Z</time>
      </trkpt>
      <trkpt lat="45.07629" lon="2.70216">
        <ele>1378.56</ele>
        <time>2022-07-12T12:25:11Z</time>
      </trkpt>
      <trkpt lat="45.07613" lon="2.7021">
        <ele>1376.24</ele>
        <time>2022-07-12T12:25:26Z</time>
      </trkpt>
      <trkpt lat="45.07603" lon="2.70213">
        <ele>1374.3</ele>
        <time>2022-07-12T12:25:38Z</time>
        <extensions>
          <visugpx:TrkExtension xmlns:visugpx="https://www.visugpx.com/editgpx/">
            <visugpx:node>1</visugpx:node>
            </visugpx:TrkExtension>
        </extensions>
      </trkpt>
      <trkpt lat="45.07596" lon="2.70205">
        <ele>1418.2</ele>
      </trkpt>
      <trkpt lat="45.07591" lon="2.70201">
        <ele>1416.2</ele>
      </trkpt>
      <trkpt lat="45.07587" lon="2.70194">
        <ele>1415.5</ele>
      </trkpt>
      <trkpt lat="45.07585" lon="2.70182">
        <ele>1417.5</ele>
      </trkpt>
      <trkpt lat="45.07577" lon="2.70175">
        <ele>1418.3</ele>
      </trkpt>
      <trkpt lat="45.07572" lon="2.70164">
        <ele>1420.6</ele>
      </trkpt>
      <trkpt lat="45.07569" lon="2.70148">
        <ele>1420.8</ele>
      </trkpt>
      <trkpt lat="45.07564" lon="2.70128">
        <ele>1419.1</ele>
      </trkpt>
      <trkpt lat="45.0756" lon="2.70118">
        <ele>1417</ele>
      </trkpt>
      <trkpt lat="45.07558" lon="2.70101">
        <ele>1414.2</ele>
      </trkpt>
      <trkpt lat="45.07557" lon="2.70088">
        <ele>1412.7</ele>
      </trkpt>
      <trkpt lat="45.07556" lon="2.70079">
        <ele>1411.3</ele>
      </trkpt>
      <trkpt lat="45.07552" lon="2.70067">
        <ele>1408.8</ele>
      </trkpt>
      <trkpt lat="45.07544" lon="2.70064">
        <ele>1407.9</ele>
      </trkpt>
      <trkpt lat="45.07535" lon="2.70055">
        <ele>1406.9</ele>
      </trkpt>
      <trkpt lat="45.0753" lon="2.70043">
        <ele>1405.1</ele>
      </trkpt>
      <trkpt lat="45.07511" lon="2.70017">
        <ele>1399.2</ele>
      </trkpt>
      <trkpt lat="45.07501" lon="2.70005">
        <ele>1397.4</ele>
      </trkpt>
      <trkpt lat="45.07489" lon="2.69994">
        <ele>1394.2</ele>
      </trkpt>
      <trkpt lat="45.07489" lon="2.69998">
        <ele>1394.7</ele>
        <extensions>
          <visugpx:TrkExtension xmlns:visugpx="https://www.visugpx.com/editgpx/">
            <visugpx:node>2</visugpx:node>
            </visugpx:TrkExtension>
        </extensions>
      </trkpt>
      <trkpt lat="45.07489" lon="2.69994">
        <ele>1394.2</ele>
      </trkpt>
      <trkpt lat="45.07472" lon="2.70014">
        <ele>1390.4</ele>
      </trkpt>
      <trkpt lat="45.07444" lon="2.70039">
        <ele>1378.6</ele>
      </trkpt>
      <trkpt lat="45.07438" lon="2.70042">
        <ele>1375.8</ele>
      </trkpt>
      <trkpt lat="45.07421" lon="2.70058">
        <ele>1365.8</ele>
      </trkpt>
      <trkpt lat="45.0741" lon="2.70072">
        <ele>1359.2</ele>
      </trkpt>
      <trkpt lat="45.074" lon="2.70138">
        <ele>1346.1</ele>
      </trkpt>
      <trkpt lat="45.07394" lon="2.70164">
        <ele>1344.4</ele>
      </trkpt>
      <trkpt lat="45.0739" lon="2.70181">
        <ele>1343.5</ele>
        <extensions>
          <visugpx:TrkExtension xmlns:visugpx="https://www.visugpx.com/editgpx/">
            <visugpx:node>3</visugpx:node>
            </visugpx:TrkExtension>
        </extensions>
      </trkpt>
      <trkpt lat="45.07391" lon="2.70184">
        <ele>1297.23</ele>
        <time>2022-07-12T12:37:01Z</time>
      </trkpt>
      <trkpt lat="45.07398" lon="2.70208">
        <ele>1295.51</ele>
        <time>2022-07-12T12:37:49Z</time>
      </trkpt>
      <trkpt lat="45.074" lon="2.70211">
        <ele>1295.38</ele>
        <time>2022-07-12T12:37:53Z</time>
      </trkpt>
      <trkpt lat="45.07411" lon="2.70224">
        <ele>1295.08</ele>
        <time>2022-07-12T12:38:07Z</time>
      </trkpt>
      <trkpt lat="45.07434" lon="2.70242">
        <ele>1296.26</ele>
        <time>2022-07-12T12:38:30Z</time>
      </trkpt>
      <trkpt lat="45.07443" lon="2.70244">
        <ele>1296.8</ele>
        <time>2022-07-12T12:38:37Z</time>
      </trkpt>
      <trkpt lat="45.07452" lon="2.70283">
        <ele>1298.92</ele>
        <time>2022-07-12T12:39:05Z</time>
      </trkpt>
      <trkpt lat="45.07449" lon="2.70296">
        <ele>1299.24</ele>
        <time>2022-07-12T12:39:12Z</time>
      </trkpt>
      <trkpt lat="45.0746" lon="2.70331">
        <ele>1298.84</ele>
        <time>2022-07-12T12:39:34Z</time>
      </trkpt>
      <trkpt lat="45.07465" lon="2.70353">
        <ele>1298.32</ele>
        <time>2022-07-12T12:39:47Z</time>
      </trkpt>
      <trkpt lat="45.07465" lon="2.70387">
        <ele>1298.09</ele>
        <time>2022-07-12T12:40:06Z</time>
      </trkpt>
      <trkpt lat="45.07464" lon="2.70417">
        <ele>1298.01</ele>
        <time>2022-07-12T12:40:23Z</time>
      </trkpt>
      <trkpt lat="45.07462" lon="2.70424">
        <ele>1298.29</ele>
        <time>2022-07-12T12:40:27Z</time>
      </trkpt>
      <trkpt lat="45.07461" lon="2.70429">
        <ele>1298.4</ele>
        <time>2022-07-12T12:40:30Z</time>
      </trkpt>
      <trkpt lat="45.07446" lon="2.70452">
        <ele>1298.77</ele>
        <time>2022-07-12T12:40:47Z</time>
      </trkpt>
      <trkpt lat="45.07436" lon="2.70461">
        <ele>1298.62</ele>
        <time>2022-07-12T12:40:56Z</time>
      </trkpt>
      <trkpt lat="45.07432" lon="2.70464">
        <ele>1298.61</ele>
        <time>2022-07-12T12:40:59Z</time>
      </trkpt>
      <trkpt lat="45.07425" lon="2.7047">
        <ele>1298.67</ele>
        <time>2022-07-12T12:41:05Z</time>
      </trkpt>
      <trkpt lat="45.0742" lon="2.70476">
        <ele>1298.71</ele>
        <time>2022-07-12T12:41:12Z</time>
      </trkpt>
      <trkpt lat="45.07421" lon="2.70478">
        <ele>1298.58</ele>
        <time>2022-07-12T12:41:17Z</time>
      </trkpt>
      <trkpt lat="45.07368" lon="2.70481">
        <ele>1291.82</ele>
        <time>2022-07-12T12:42:29Z</time>
      </trkpt>
      <trkpt lat="45.07345" lon="2.70492">
        <ele>1289.69</ele>
        <time>2022-07-12T12:42:45Z</time>
      </trkpt>
      <trkpt lat="45.07341" lon="2.70495">
        <ele>1289.21</ele>
        <time>2022-07-12T12:42:48Z</time>
      </trkpt>
      <trkpt lat="45.07329" lon="2.70501">
        <ele>1288.38</ele>
        <time>2022-07-12T12:42:55Z</time>
      </trkpt>
      <trkpt lat="45.0731" lon="2.70521">
        <ele>1286.36</ele>
        <time>2022-07-12T12:43:13Z</time>
      </trkpt>
      <trkpt lat="45.07296" lon="2.70534">
        <ele>1285.02</ele>
        <time>2022-07-12T12:43:30Z</time>
      </trkpt>
      <trkpt lat="45.0728" lon="2.70553">
        <ele>1282.79</ele>
        <time>2022-07-12T12:43:48Z</time>
      </trkpt>
      <trkpt lat="45.07271" lon="2.70565">
        <ele>1280.54</ele>
        <time>2022-07-12T12:44:02Z</time>
      </trkpt>
      <trkpt lat="45.0727" lon="2.70574">
        <ele>1279.24</ele>
        <time>2022-07-12T12:44:09Z</time>
      </trkpt>
      <trkpt lat="45.07253" lon="2.706">
        <ele>1276.15</ele>
        <time>2022-07-12T12:44:29Z</time>
      </trkpt>
      <trkpt lat="45.07249" lon="2.70623">
        <ele>1274.36</ele>
        <time>2022-07-12T12:44:43Z</time>
      </trkpt>
      <trkpt lat="45.0725" lon="2.70628">
        <ele>1272.63</ele>
        <time>2022-07-12T12:44:55Z</time>
      </trkpt>
      <trkpt lat="45.0725" lon="2.70633">
        <ele>1272.14</ele>
        <time>2022-07-12T12:45:00Z</time>
      </trkpt>
      <trkpt lat="45.07253" lon="2.70646">
        <ele>1271.73</ele>
        <time>2022-07-12T12:45:08Z</time>
      </trkpt>
      <trkpt lat="45.07255" lon="2.7065">
        <ele>1271.03</ele>
        <time>2022-07-12T12:45:12Z</time>
      </trkpt>
      <trkpt lat="45.07258" lon="2.70664">
        <ele>1269.6</ele>
        <time>2022-07-12T12:45:23Z</time>
      </trkpt>
      <trkpt lat="45.07263" lon="2.70673">
        <ele>1267.66</ele>
        <time>2022-07-12T12:45:37Z</time>
      </trkpt>
      <trkpt lat="45.07265" lon="2.7069">
        <ele>1266.09</ele>
        <time>2022-07-12T12:45:47Z</time>
      </trkpt>
      <trkpt lat="45.07266" lon="2.707">
        <ele>1265.05</ele>
        <time>2022-07-12T12:45:53Z</time>
      </trkpt>
      <trkpt lat="45.07263" lon="2.70728">
        <ele>1261.77</ele>
        <time>2022-07-12T12:46:11Z</time>
      </trkpt>
      <trkpt lat="45.0726" lon="2.70753">
        <ele>1259.88</ele>
        <time>2022-07-12T12:46:28Z</time>
      </trkpt>
      <trkpt lat="45.07259" lon="2.70768">
        <ele>1258.2</ele>
        <time>2022-07-12T12:46:43Z</time>
      </trkpt>
      <trkpt lat="45.07265" lon="2.70786">
        <ele>1256.44</ele>
        <time>2022-07-12T12:47:00Z</time>
      </trkpt>
      <trkpt lat="45.07272" lon="2.70809">
        <ele>1254.28</ele>
        <time>2022-07-12T12:47:18Z</time>
        <extensions>
          <visugpx:TrkExtension xmlns:visugpx="https://www.visugpx.com/editgpx/">
            <visugpx:node>2</visugpx:node>
            </visugpx:TrkExtension>
        </extensions>
      </trkpt>
      <trkpt lat="45.07276" lon="2.70811">
        <ele>1297.3</ele>
      </trkpt>
      <trkpt lat="45.07279" lon="2.70814">
        <ele>1296.9</ele>
      </trkpt>
      <trkpt lat="45.07284" lon="2.70818">
        <ele>1296.2</ele>
      </trkpt>
      <trkpt lat="45.0729" lon="2.70821">
        <ele>1296</ele>
      </trkpt>
      <trkpt lat="45.07301" lon="2.70825">
        <ele>1295.8</ele>
      </trkpt>
      <trkpt lat="45.0731" lon="2.70829">
        <ele>1295.9</ele>
      </trkpt>
      <trkpt lat="45.07316" lon="2.70832">
        <ele>1296.4</ele>
      </trkpt>
      <trkpt lat="45.07318" lon="2.70833">
        <ele>1296.6</ele>
      </trkpt>
      <trkpt lat="45.07322" lon="2.70838">
        <ele>1296.6</ele>
      </trkpt>
      <trkpt lat="45.07325" lon="2.70843">
        <ele>1296.5</ele>
      </trkpt>
      <trkpt lat="45.07327" lon="2.70851">
        <ele>1295.5</ele>
      </trkpt>
      <trkpt lat="45.07327" lon="2.70856">
        <ele>1294.3</ele>
      </trkpt>
      <trkpt lat="45.07327" lon="2.7086">
        <ele>1293.4</ele>
      </trkpt>
      <trkpt lat="45.07327" lon="2.70865">
        <ele>1293</ele>
      </trkpt>
      <trkpt lat="45.07325" lon="2.70872">
        <ele>1291.6</ele>
      </trkpt>
      <trkpt lat="45.07323" lon="2.70876">
        <ele>1290.3</ele>
      </trkpt>
      <trkpt lat="45.07322" lon="2.70879">
        <ele>1289.7</ele>
      </trkpt>
      <trkpt lat="45.07322" lon="2.70884">
        <ele>1289.6</ele>
      </trkpt>
      <trkpt lat="45.07322" lon="2.70885">
        <ele>1289.6</ele>
        <extensions>
          <visugpx:TrkExtension xmlns:visugpx="https://www.visugpx.com/editgpx/">
            <visugpx:node>3</visugpx:node>
            </visugpx:TrkExtension>
        </extensions>
      </trkpt>
      <trkpt lat="45.07323" lon="2.70885">
        <ele>1246.98</ele>
        <time>2022-07-12T12:48:43Z</time>
        <extensions>
          <visugpx:TrkExtension xmlns:visugpx="https://www.visugpx.com/editgpx/">
            <visugpx:node>2</visugpx:node>
            </visugpx:TrkExtension>
        </extensions>
      </trkpt>
      <trkpt lat="45.07322" lon="2.70888">
        <ele>1246.82</ele>
        <time>2022-07-12T12:48:45Z</time>
      </trkpt>
      <trkpt lat="45.07323" lon="2.7092">
        <ele>1243.56</ele>
        <time>2022-07-12T12:49:06Z</time>
      </trkpt>
      <trkpt lat="45.07328" lon="2.70935">
        <ele>1241.37</ele>
        <time>2022-07-12T12:49:21Z</time>
      </trkpt>
      <trkpt lat="45.07329" lon="2.70968">
        <ele>1239.06</ele>
        <time>2022-07-12T12:49:41Z</time>
      </trkpt>
      <trkpt lat="45.07325" lon="2.70993">
        <ele>1236.99</ele>
        <time>2022-07-12T12:49:57Z</time>
      </trkpt>
      <trkpt lat="45.07324" lon="2.70993">
        <ele>1236.4</ele>
        <time>2022-07-12T12:50:00Z</time>
      </trkpt>
      <trkpt lat="45.07331" lon="2.7124">
        <ele>1209.64</ele>
        <time>2022-07-12T12:55:37Z</time>
      </trkpt>
      <trkpt lat="45.07345" lon="2.71227">
        <ele>1209.08</ele>
        <time>2022-07-12T12:56:50Z</time>
      </trkpt>
      <trkpt lat="45.07343" lon="2.71226">
        <ele>1209.28</ele>
        <time>2022-07-12T12:57:20Z</time>
      </trkpt>
      <trkpt lat="45.07346" lon="2.71221">
        <ele>1209.34</ele>
        <time>2022-07-12T12:57:35Z</time>
      </trkpt>
      <trkpt lat="45.07345" lon="2.71223">
        <ele>1209.23</ele>
        <time>2022-07-12T12:58:05Z</time>
      </trkpt>
      <trkpt lat="45.07351" lon="2.71229">
        <ele>1209.16</ele>
        <time>2022-07-12T12:58:28Z</time>
      </trkpt>
      <trkpt lat="45.07368" lon="2.71226">
        <ele>1208.43</ele>
        <time>2022-07-12T12:58:46Z</time>
      </trkpt>
      <trkpt lat="45.0738" lon="2.71222">
        <ele>1207.12</ele>
        <time>2022-07-12T12:58:59Z</time>
      </trkpt>
      <trkpt lat="45.07398" lon="2.71216">
        <ele>1205.86</ele>
        <time>2022-07-12T12:59:15Z</time>
      </trkpt>
      <trkpt lat="45.07407" lon="2.71218">
        <ele>1205.11</ele>
        <time>2022-07-12T12:59:27Z</time>
      </trkpt>
      <trkpt lat="45.07423" lon="2.71218">
        <ele>1205.17</ele>
        <time>2022-07-12T12:59:41Z</time>
      </trkpt>
      <trkpt lat="45.07443" lon="2.71223">
        <ele>1206.08</ele>
        <time>2022-07-12T12:59:56Z</time>
      </trkpt>
      <trkpt lat="45.07457" lon="2.7122">
        <ele>1206.5</ele>
        <time>2022-07-12T13:00:06Z</time>
      </trkpt>
      <trkpt lat="45.07473" lon="2.71206">
        <ele>1206.68</ele>
        <time>2022-07-12T13:00:15Z</time>
      </trkpt>
      <trkpt lat="45.07483" lon="2.71203">
        <ele>1206.43</ele>
        <time>2022-07-12T13:00:25Z</time>
      </trkpt>
      <trkpt lat="45.07493" lon="2.71212">
        <ele>1205.75</ele>
        <time>2022-07-12T13:00:37Z</time>
      </trkpt>
      <trkpt lat="45.07506" lon="2.71217">
        <ele>1205.78</ele>
        <time>2022-07-12T13:00:47Z</time>
      </trkpt>
      <trkpt lat="45.07524" lon="2.7121">
        <ele>1205.39</ele>
        <time>2022-07-12T13:01:01Z</time>
      </trkpt>
      <trkpt lat="45.07535" lon="2.7121">
        <ele>1204.66</ele>
        <time>2022-07-12T13:01:06Z</time>
      </trkpt>
      <trkpt lat="45.07547" lon="2.71223">
        <ele>1202.53</ele>
        <time>2022-07-12T13:01:18Z</time>
      </trkpt>
      <trkpt lat="45.0755" lon="2.7123">
        <ele>1202.11</ele>
        <time>2022-07-12T13:01:22Z</time>
      </trkpt>
      <trkpt lat="45.07551" lon="2.71238">
        <ele>1202.02</ele>
        <time>2022-07-12T13:01:26Z</time>
      </trkpt>
      <trkpt lat="45.07549" lon="2.71256">
        <ele>1201.65</ele>
        <time>2022-07-12T13:01:36Z</time>
      </trkpt>
      <trkpt lat="45.0755" lon="2.71262">
        <ele>1201.53</ele>
        <time>2022-07-12T13:01:39Z</time>
      </trkpt>
      <trkpt lat="45.07541" lon="2.71288">
        <ele>1201.64</ele>
        <time>2022-07-12T13:01:54Z</time>
      </trkpt>
      <trkpt lat="45.07549" lon="2.71301">
        <ele>1201.14</ele>
        <time>2022-07-12T13:02:04Z</time>
      </trkpt>
      <trkpt lat="45.07553" lon="2.71303">
        <ele>1200.65</ele>
        <time>2022-07-12T13:02:07Z</time>
      </trkpt>
      <trkpt lat="45.07553" lon="2.71325">
        <ele>1199.83</ele>
        <time>2022-07-12T13:02:20Z</time>
      </trkpt>
      <trkpt lat="45.07548" lon="2.71351">
        <ele>1199.66</ele>
        <time>2022-07-12T13:02:37Z</time>
      </trkpt>
      <trkpt lat="45.07547" lon="2.71354">
        <ele>1199.61</ele>
        <time>2022-07-12T13:02:38Z</time>
      </trkpt>
      <trkpt lat="45.07546" lon="2.71365">
        <ele>1199.28</ele>
        <time>2022-07-12T13:02:46Z</time>
      </trkpt>
      <trkpt lat="45.0754" lon="2.71386">
        <ele>1198.03</ele>
        <time>2022-07-12T13:02:58Z</time>
      </trkpt>
      <trkpt lat="45.07539" lon="2.71392">
        <ele>1197.79</ele>
        <time>2022-07-12T13:03:01Z</time>
      </trkpt>
      <trkpt lat="45.07538" lon="2.71421">
        <ele>1197.1</ele>
        <time>2022-07-12T13:03:16Z</time>
      </trkpt>
      <trkpt lat="45.07538" lon="2.71437">
        <ele>1196.46</ele>
        <time>2022-07-12T13:03:25Z</time>
      </trkpt>
      <trkpt lat="45.07537" lon="2.71449">
        <ele>1195.85</ele>
        <time>2022-07-12T13:03:31Z</time>
      </trkpt>
      <trkpt lat="45.07544" lon="2.71482">
        <ele>1194.99</ele>
        <time>2022-07-12T13:03:49Z</time>
      </trkpt>
      <trkpt lat="45.07549" lon="2.71506">
        <ele>1194.36</ele>
        <time>2022-07-12T13:04:05Z</time>
      </trkpt>
      <trkpt lat="45.07557" lon="2.71533">
        <ele>1194.71</ele>
        <time>2022-07-12T13:04:23Z</time>
      </trkpt>
      <trkpt lat="45.07559" lon="2.71537">
        <ele>1194.73</ele>
        <time>2022-07-12T13:04:26Z</time>
      </trkpt>
      <trkpt lat="45.07561" lon="2.71543">
        <ele>1194.74</ele>
        <time>2022-07-12T13:04:30Z</time>
      </trkpt>
      <trkpt lat="45.07567" lon="2.71575">
        <ele>1194.14</ele>
        <time>2022-07-12T13:04:51Z</time>
      </trkpt>
      <trkpt lat="45.07569" lon="2.71608">
        <ele>1192.46</ele>
        <time>2022-07-12T13:05:11Z</time>
      </trkpt>
      <trkpt lat="45.07567" lon="2.71615">
        <ele>1192.2</ele>
        <time>2022-07-12T13:05:15Z</time>
      </trkpt>
      <trkpt lat="45.07577" lon="2.71642">
        <ele>1191.5</ele>
        <time>2022-07-12T13:05:34Z</time>
      </trkpt>
      <trkpt lat="45.07587" lon="2.71664">
        <ele>1190.82</ele>
        <time>2022-07-12T13:05:50Z</time>
      </trkpt>
      <trkpt lat="45.07605" lon="2.71695">
        <ele>1188.41</ele>
        <time>2022-07-12T13:06:12Z</time>
      </trkpt>
      <trkpt lat="45.07616" lon="2.71714">
        <ele>1186.11</ele>
        <time>2022-07-12T13:06:27Z</time>
      </trkpt>
      <trkpt lat="45.07625" lon="2.71726">
        <ele>1184.09</ele>
        <time>2022-07-12T13:06:38Z</time>
      </trkpt>
      <trkpt lat="45.07647" lon="2.71736">
        <ele>1181.14</ele>
        <time>2022-07-12T13:07:02Z</time>
      </trkpt>
      <trkpt lat="45.0766" lon="2.71754">
        <ele>1180.76</ele>
        <time>2022-07-12T13:07:16Z</time>
      </trkpt>
      <trkpt lat="45.07669" lon="2.71769">
        <ele>1180.5</ele>
        <time>2022-07-12T13:07:26Z</time>
      </trkpt>
      <trkpt lat="45.07669" lon="2.71787">
        <ele>1179.74</ele>
        <time>2022-07-12T13:07:38Z</time>
      </trkpt>
      <trkpt lat="45.07673" lon="2.71814">
        <ele>1177.62</ele>
        <time>2022-07-12T13:07:57Z</time>
      </trkpt>
      <trkpt lat="45.07676" lon="2.71834">
        <ele>1174.51</ele>
        <time>2022-07-12T13:08:15Z</time>
      </trkpt>
      <trkpt lat="45.07676" lon="2.71841">
        <ele>1173.7</ele>
        <time>2022-07-12T13:08:20Z</time>
      </trkpt>
      <trkpt lat="45.07676" lon="2.71859">
        <ele>1172.43</ele>
        <time>2022-07-12T13:08:29Z</time>
      </trkpt>
      <trkpt lat="45.07676" lon="2.71863">
        <ele>1172.06</ele>
        <time>2022-07-12T13:08:32Z</time>
      </trkpt>
      <trkpt lat="45.07677" lon="2.71868">
        <ele>1171.64</ele>
        <time>2022-07-12T13:08:35Z</time>
      </trkpt>
      <trkpt lat="45.07677" lon="2.71872">
        <ele>1171.53</ele>
        <time>2022-07-12T13:08:38Z</time>
      </trkpt>
      <trkpt lat="45.07686" lon="2.71887">
        <ele>1171.58</ele>
        <time>2022-07-12T13:08:53Z</time>
      </trkpt>
      <trkpt lat="45.07691" lon="2.71891">
        <ele>1171.86</ele>
        <time>2022-07-12T13:08:57Z</time>
      </trkpt>
      <trkpt lat="45.07698" lon="2.71895">
        <ele>1172.34</ele>
        <time>2022-07-12T13:09:02Z</time>
      </trkpt>
      <trkpt lat="45.07706" lon="2.71909">
        <ele>1173.2</ele>
        <time>2022-07-12T13:09:15Z</time>
      </trkpt>
      <trkpt lat="45.07715" lon="2.71921">
        <ele>1173.84</ele>
        <time>2022-07-12T13:09:26Z</time>
      </trkpt>
      <trkpt lat="45.07716" lon="2.71921">
        <ele>1173.88</ele>
        <time>2022-07-12T13:09:27Z</time>
      </trkpt>
      <trkpt lat="45.07727" lon="2.71925">
        <ele>1174.29</ele>
        <time>2022-07-12T13:09:35Z</time>
      </trkpt>
      <trkpt lat="45.07741" lon="2.71924">
        <ele>1176.34</ele>
        <time>2022-07-12T13:09:47Z</time>
      </trkpt>
      <trkpt lat="45.07743" lon="2.71925">
        <ele>1177.46</ele>
        <time>2022-07-12T13:09:54Z</time>
      </trkpt>
      <trkpt lat="45.07752" lon="2.71924">
        <ele>1178.67</ele>
        <time>2022-07-12T13:10:05Z</time>
      </trkpt>
      <trkpt lat="45.07759" lon="2.71922">
        <ele>1179.04</ele>
        <time>2022-07-12T13:10:10Z</time>
      </trkpt>
      <trkpt lat="45.0778" lon="2.71932">
        <ele>1179.67</ele>
        <time>2022-07-12T13:10:29Z</time>
      </trkpt>
      <trkpt lat="45.07791" lon="2.71945">
        <ele>1180.78</ele>
        <time>2022-07-12T13:10:43Z</time>
      </trkpt>
      <trkpt lat="45.07798" lon="2.7196">
        <ele>1181.82</ele>
        <time>2022-07-12T13:10:54Z</time>
      </trkpt>
      <trkpt lat="45.07808" lon="2.71979">
        <ele>1182.48</ele>
        <time>2022-07-12T13:11:05Z</time>
      </trkpt>
      <trkpt lat="45.07814" lon="2.71995">
        <ele>1183.12</ele>
        <time>2022-07-12T13:11:14Z</time>
      </trkpt>
      <trkpt lat="45.07816" lon="2.72001">
        <ele>1183.33</ele>
        <time>2022-07-12T13:11:18Z</time>
      </trkpt>
      <trkpt lat="45.07821" lon="2.72009">
        <ele>1183.76</ele>
        <time>2022-07-12T13:11:24Z</time>
      </trkpt>
      <trkpt lat="45.07828" lon="2.72021">
        <ele>1184.61</ele>
        <time>2022-07-12T13:11:31Z</time>
      </trkpt>
      <trkpt lat="45.07837" lon="2.72035">
        <ele>1185.9</ele>
        <time>2022-07-12T13:11:44Z</time>
      </trkpt>
      <trkpt lat="45.07844" lon="2.72042">
        <ele>1187.04</ele>
        <time>2022-07-12T13:11:55Z</time>
      </trkpt>
      <trkpt lat="45.07848" lon="2.72046">
        <ele>1188.47</ele>
        <time>2022-07-12T13:12:07Z</time>
      </trkpt>
      <trkpt lat="45.07855" lon="2.72049">
        <ele>1189.8</ele>
        <time>2022-07-12T13:12:18Z</time>
      </trkpt>
      <trkpt lat="45.07859" lon="2.72049">
        <ele>1190.1</ele>
        <time>2022-07-12T13:12:21Z</time>
      </trkpt>
      <trkpt lat="45.07862" lon="2.72049">
        <ele>1190.41</ele>
        <time>2022-07-12T13:12:23Z</time>
      </trkpt>
      <trkpt lat="45.07875" lon="2.72054">
        <ele>1191.69</ele>
        <time>2022-07-12T13:12:34Z</time>
      </trkpt>
      <trkpt lat="45.07891" lon="2.72057">
        <ele>1192.03</ele>
        <time>2022-07-12T13:12:48Z</time>
      </trkpt>
      <trkpt lat="45.07905" lon="2.72053">
        <ele>1189.97</ele>
        <time>2022-07-12T13:13:04Z</time>
      </trkpt>
      <trkpt lat="45.07907" lon="2.72053">
        <ele>1189.66</ele>
        <time>2022-07-12T13:13:06Z</time>
      </trkpt>
      <trkpt lat="45.07912" lon="2.7205">
        <ele>1188.85</ele>
        <time>2022-07-12T13:13:14Z</time>
      </trkpt>
      <trkpt lat="45.0792" lon="2.72059">
        <ele>1188.85</ele>
        <time>2022-07-12T13:13:22Z</time>
      </trkpt>
      <trkpt lat="45.07926" lon="2.72067">
        <ele>1189.05</ele>
        <time>2022-07-12T13:13:27Z</time>
      </trkpt>
      <trkpt lat="45.0793" lon="2.7207">
        <ele>1189.08</ele>
        <time>2022-07-12T13:13:30Z</time>
      </trkpt>
      <trkpt lat="45.07945" lon="2.7208">
        <ele>1189.22</ele>
        <time>2022-07-12T13:13:39Z</time>
      </trkpt>
      <trkpt lat="45.07945" lon="2.72086">
        <ele>1189.41</ele>
        <time>2022-07-12T13:13:42Z</time>
      </trkpt>
      <trkpt lat="45.07946" lon="2.72096">
        <ele>1189.63</ele>
        <time>2022-07-12T13:13:48Z</time>
      </trkpt>
      <trkpt lat="45.07954" lon="2.72105">
        <ele>1190.33</ele>
        <time>2022-07-12T13:13:59Z</time>
      </trkpt>
      <trkpt lat="45.07955" lon="2.72106">
        <ele>1190.36</ele>
        <time>2022-07-12T13:14:01Z</time>
      </trkpt>
      <trkpt lat="45.0796" lon="2.72112">
        <ele>1190.34</ele>
        <time>2022-07-12T13:14:06Z</time>
      </trkpt>
      <trkpt lat="45.07965" lon="2.72114">
        <ele>1190.27</ele>
        <time>2022-07-12T13:14:10Z</time>
      </trkpt>
      <trkpt lat="45.0797" lon="2.7212">
        <ele>1189.9</ele>
        <time>2022-07-12T13:14:15Z</time>
      </trkpt>
      <trkpt lat="45.07977" lon="2.72129">
        <ele>1189.58</ele>
        <time>2022-07-12T13:14:21Z</time>
      </trkpt>
      <trkpt lat="45.07983" lon="2.72152">
        <ele>1189.3</ele>
        <time>2022-07-12T13:14:34Z</time>
      </trkpt>
      <trkpt lat="45.0799" lon="2.72178">
        <ele>1188.17</ele>
        <time>2022-07-12T13:14:54Z</time>
      </trkpt>
      <trkpt lat="45.07994" lon="2.72188">
        <ele>1186.93</ele>
        <time>2022-07-12T13:15:03Z</time>
      </trkpt>
      <trkpt lat="45.08021" lon="2.72202">
        <ele>1183.8</ele>
        <time>2022-07-12T13:15:31Z</time>
      </trkpt>
      <trkpt lat="45.0803" lon="2.7221">
        <ele>1182.53</ele>
        <time>2022-07-12T13:15:40Z</time>
      </trkpt>
      <trkpt lat="45.08052" lon="2.72221">
        <ele>1180.19</ele>
        <time>2022-07-12T13:15:55Z</time>
      </trkpt>
      <trkpt lat="45.08053" lon="2.7223">
        <ele>1179.05</ele>
        <time>2022-07-12T13:16:03Z</time>
      </trkpt>
      <trkpt lat="45.08059" lon="2.72244">
        <ele>1176.01</ele>
        <time>2022-07-12T13:16:18Z</time>
      </trkpt>
      <trkpt lat="45.08073" lon="2.72282">
        <ele>1173.39</ele>
        <time>2022-07-12T13:16:47Z</time>
      </trkpt>
      <trkpt lat="45.08073" lon="2.72288">
        <ele>1173.34</ele>
        <time>2022-07-12T13:16:55Z</time>
      </trkpt>
      <trkpt lat="45.08073" lon="2.72287">
        <ele>1173.07</ele>
        <time>2022-07-12T13:17:14Z</time>
      </trkpt>
      <trkpt lat="45.0807" lon="2.72283">
        <ele>1173.39</ele>
        <time>2022-07-12T13:17:55Z</time>
      </trkpt>
      <trkpt lat="45.08079" lon="2.72295">
        <ele>1173.08</ele>
        <time>2022-07-12T13:18:26Z</time>
      </trkpt>
      <trkpt lat="45.08091" lon="2.72304">
        <ele>1174.74</ele>
        <time>2022-07-12T13:18:45Z</time>
      </trkpt>
      <trkpt lat="45.08091" lon="2.72305">
        <ele>1174.79</ele>
        <time>2022-07-12T13:18:46Z</time>
      </trkpt>
      <trkpt lat="45.08099" lon="2.72319">
        <ele>1175.96</ele>
        <time>2022-07-12T13:19:04Z</time>
      </trkpt>
      <trkpt lat="45.08088" lon="2.72337">
        <ele>1176.71</ele>
        <time>2022-07-12T13:19:18Z</time>
      </trkpt>
      <trkpt lat="45.08088" lon="2.72358">
        <ele>1176.99</ele>
        <time>2022-07-12T13:19:31Z</time>
      </trkpt>
      <trkpt lat="45.08091" lon="2.72377">
        <ele>1177.93</ele>
        <time>2022-07-12T13:19:44Z</time>
      </trkpt>
      <trkpt lat="45.08092" lon="2.72382">
        <ele>1178.11</ele>
        <time>2022-07-12T13:19:49Z</time>
      </trkpt>
      <trkpt lat="45.08099" lon="2.72406">
        <ele>1179.45</ele>
        <time>2022-07-12T13:20:07Z</time>
      </trkpt>
      <trkpt lat="45.08122" lon="2.72428">
        <ele>1182.03</ele>
        <time>2022-07-12T13:20:32Z</time>
      </trkpt>
      <trkpt lat="45.08137" lon="2.72425">
        <ele>1183.28</ele>
        <time>2022-07-12T13:20:45Z</time>
      </trkpt>
      <trkpt lat="45.08143" lon="2.72422">
        <ele>1183.58</ele>
        <time>2022-07-12T13:20:52Z</time>
      </trkpt>
      <trkpt lat="45.08149" lon="2.72422">
        <ele>1184.03</ele>
        <time>2022-07-12T13:20:59Z</time>
      </trkpt>
      <trkpt lat="45.08161" lon="2.7242">
        <ele>1185.52</ele>
        <time>2022-07-12T13:21:13Z</time>
      </trkpt>
      <trkpt lat="45.08163" lon="2.72422">
        <ele>1185.7</ele>
        <time>2022-07-12T13:21:15Z</time>
      </trkpt>
      <trkpt lat="45.08169" lon="2.72439">
        <ele>1186.39</ele>
        <time>2022-07-12T13:21:24Z</time>
      </trkpt>
      <trkpt lat="45.08171" lon="2.72443">
        <ele>1186.55</ele>
        <time>2022-07-12T13:21:28Z</time>
      </trkpt>
      <trkpt lat="45.08166" lon="2.72463">
        <ele>1187.88</ele>
        <time>2022-07-12T13:21:43Z</time>
      </trkpt>
      <trkpt lat="45.08165" lon="2.72468">
        <ele>1187.94</ele>
        <time>2022-07-12T13:21:46Z</time>
      </trkpt>
      <trkpt lat="45.08165" lon="2.72473">
        <ele>1188.02</ele>
        <time>2022-07-12T13:21:49Z</time>
      </trkpt>
      <trkpt lat="45.08163" lon="2.72489">
        <ele>1188.74</ele>
        <time>2022-07-12T13:22:00Z</time>
      </trkpt>
      <trkpt lat="45.08164" lon="2.72493">
        <ele>1188.99</ele>
        <time>2022-07-12T13:22:03Z</time>
      </trkpt>
      <trkpt lat="45.08181" lon="2.72526">
        <ele>1191.22</ele>
        <time>2022-07-12T13:22:28Z</time>
      </trkpt>
      <trkpt lat="45.08184" lon="2.72536">
        <ele>1191.94</ele>
        <time>2022-07-12T13:22:38Z</time>
      </trkpt>
      <trkpt lat="45.08184" lon="2.72554">
        <ele>1192.67</ele>
        <time>2022-07-12T13:22:53Z</time>
      </trkpt>
      <trkpt lat="45.08189" lon="2.72586">
        <ele>1194.48</ele>
        <time>2022-07-12T13:23:15Z</time>
      </trkpt>
      <trkpt lat="45.08211" lon="2.72609">
        <ele>1196.5</ele>
        <time>2022-07-12T13:23:37Z</time>
      </trkpt>
      <trkpt lat="45.08224" lon="2.72623">
        <ele>1197.63</ele>
        <time>2022-07-12T13:23:51Z</time>
      </trkpt>
      <trkpt lat="45.08232" lon="2.72633">
        <ele>1198.3</ele>
        <time>2022-07-12T13:23:59Z</time>
      </trkpt>
      <trkpt lat="45.08235" lon="2.72636">
        <ele>1198.49</ele>
        <time>2022-07-12T13:24:02Z</time>
      </trkpt>
      <trkpt lat="45.08244" lon="2.72641">
        <ele>1199.38</ele>
        <time>2022-07-12T13:24:10Z</time>
      </trkpt>
      <trkpt lat="45.08247" lon="2.72642">
        <ele>1199.65</ele>
        <time>2022-07-12T13:24:13Z</time>
      </trkpt>
      <trkpt lat="45.08254" lon="2.72652">
        <ele>1200.85</ele>
        <time>2022-07-12T13:24:23Z</time>
      </trkpt>
      <trkpt lat="45.08257" lon="2.72657">
        <ele>1201.11</ele>
        <time>2022-07-12T13:24:26Z</time>
      </trkpt>
      <trkpt lat="45.08259" lon="2.72661">
        <ele>1201.32</ele>
        <time>2022-07-12T13:24:29Z</time>
      </trkpt>
      <trkpt lat="45.08268" lon="2.72669">
        <ele>1201.88</ele>
        <time>2022-07-12T13:24:36Z</time>
      </trkpt>
      <trkpt lat="45.08274" lon="2.72674">
        <ele>1202.25</ele>
        <time>2022-07-12T13:24:41Z</time>
      </trkpt>
      <trkpt lat="45.08279" lon="2.72687">
        <ele>1203.12</ele>
        <time>2022-07-12T13:24:50Z</time>
      </trkpt>
      <trkpt lat="45.08294" lon="2.72683">
        <ele>1203.53</ele>
        <time>2022-07-12T13:25:00Z</time>
      </trkpt>
      <trkpt lat="45.08313" lon="2.72677">
        <ele>1204.68</ele>
        <time>2022-07-12T13:25:12Z</time>
      </trkpt>
      <trkpt lat="45.08315" lon="2.72678">
        <ele>1204.79</ele>
        <time>2022-07-12T13:25:15Z</time>
      </trkpt>
      <trkpt lat="45.08315" lon="2.72679">
        <ele>1204.81</ele>
        <time>2022-07-12T13:25:16Z</time>
      </trkpt>
      <trkpt lat="45.08315" lon="2.7268">
        <ele>1204.84</ele>
        <time>2022-07-12T13:25:17Z</time>
      </trkpt>
      <trkpt lat="45.0832" lon="2.72696">
        <ele>1205.15</ele>
        <time>2022-07-12T13:25:33Z</time>
      </trkpt>
      <trkpt lat="45.08328" lon="2.72708">
        <ele>1206.01</ele>
        <time>2022-07-12T13:25:43Z</time>
      </trkpt>
      <trkpt lat="45.08335" lon="2.72713">
        <ele>1206.54</ele>
        <time>2022-07-12T13:25:49Z</time>
      </trkpt>
      <trkpt lat="45.08346" lon="2.72728">
        <ele>1208.18</ele>
        <time>2022-07-12T13:26:04Z</time>
      </trkpt>
      <trkpt lat="45.08348" lon="2.7273">
        <ele>1208.36</ele>
        <time>2022-07-12T13:26:06Z</time>
      </trkpt>
      <trkpt lat="45.08352" lon="2.72734">
        <ele>1208.72</ele>
        <time>2022-07-12T13:26:09Z</time>
      </trkpt>
      <trkpt lat="45.08358" lon="2.72739">
        <ele>1209.29</ele>
        <time>2022-07-12T13:26:13Z</time>
      </trkpt>
      <trkpt lat="45.08362" lon="2.72744">
        <ele>1209.55</ele>
        <time>2022-07-12T13:26:17Z</time>
      </trkpt>
      <trkpt lat="45.08363" lon="2.72745">
        <ele>1209.77</ele>
        <time>2022-07-12T13:26:18Z</time>
      </trkpt>
      <trkpt lat="45.08364" lon="2.72747">
        <ele>1209.92</ele>
        <time>2022-07-12T13:26:19Z</time>
      </trkpt>
      <trkpt lat="45.0837" lon="2.72754">
        <ele>1210.77</ele>
        <time>2022-07-12T13:26:26Z</time>
      </trkpt>
      <trkpt lat="45.08371" lon="2.72755">
        <ele>1210.89</ele>
        <time>2022-07-12T13:26:27Z</time>
      </trkpt>
      <trkpt lat="45.08385" lon="2.72769">
        <ele>1212.01</ele>
        <time>2022-07-12T13:26:40Z</time>
      </trkpt>
      <trkpt lat="45.08394" lon="2.72785">
        <ele>1213.12</ele>
        <time>2022-07-12T13:26:51Z</time>
      </trkpt>
      <trkpt lat="45.08394" lon="2.72787">
        <ele>1213.16</ele>
        <time>2022-07-12T13:26:52Z</time>
      </trkpt>
      <trkpt lat="45.08395" lon="2.72789">
        <ele>1213.21</ele>
        <time>2022-07-12T13:26:53Z</time>
      </trkpt>
      <trkpt lat="45.08395" lon="2.72791">
        <ele>1213.25</ele>
        <time>2022-07-12T13:26:54Z</time>
      </trkpt>
      <trkpt lat="45.08395" lon="2.72793">
        <ele>1213.26</ele>
        <time>2022-07-12T13:26:55Z</time>
      </trkpt>
      <trkpt lat="45.08396" lon="2.72795">
        <ele>1213.29</ele>
        <time>2022-07-12T13:26:56Z</time>
      </trkpt>
      <trkpt lat="45.08396" lon="2.72797">
        <ele>1213.36</ele>
        <time>2022-07-12T13:26:57Z</time>
      </trkpt>
      <trkpt lat="45.08402" lon="2.72815">
        <ele>1214.18</ele>
        <time>2022-07-12T13:27:07Z</time>
      </trkpt>
      <trkpt lat="45.08403" lon="2.7282">
        <ele>1214.51</ele>
        <time>2022-07-12T13:27:10Z</time>
      </trkpt>
      <trkpt lat="45.08405" lon="2.72824">
        <ele>1214.84</ele>
        <time>2022-07-12T13:27:12Z</time>
      </trkpt>
      <trkpt lat="45.08406" lon="2.72825">
        <ele>1214.93</ele>
        <time>2022-07-12T13:27:13Z</time>
      </trkpt>
      <trkpt lat="45.08407" lon="2.72829">
        <ele>1215.16</ele>
        <time>2022-07-12T13:27:15Z</time>
      </trkpt>
      <trkpt lat="45.08406" lon="2.72831">
        <ele>1215.38</ele>
        <time>2022-07-12T13:27:16Z</time>
      </trkpt>
      <trkpt lat="45.08405" lon="2.72832">
        <ele>1215.54</ele>
        <time>2022-07-12T13:27:17Z</time>
      </trkpt>
      <trkpt lat="45.084" lon="2.72823">
        <ele>1216.57</ele>
        <time>2022-07-12T13:27:28Z</time>
      </trkpt>
      <trkpt lat="45.08403" lon="2.72835">
        <ele>1216.11</ele>
        <time>2022-07-12T13:27:43Z</time>
      </trkpt>
      <trkpt lat="45.08406" lon="2.72838">
        <ele>1216.11</ele>
        <time>2022-07-12T13:27:46Z</time>
      </trkpt>
      <trkpt lat="45.08407" lon="2.72838">
        <ele>1216.11</ele>
        <time>2022-07-12T13:27:47Z</time>
      </trkpt>
      <trkpt lat="45.08408" lon="2.72839">
        <ele>1216.11</ele>
        <time>2022-07-12T13:27:48Z</time>
      </trkpt>
      <trkpt lat="45.08416" lon="2.72857">
        <ele>1217.71</ele>
        <time>2022-07-12T13:28:04Z</time>
      </trkpt>
      <trkpt lat="45.08418" lon="2.72859">
        <ele>1217.84</ele>
        <time>2022-07-12T13:28:07Z</time>
      </trkpt>
      <trkpt lat="45.0842" lon="2.72862">
        <ele>1217.94</ele>
        <time>2022-07-12T13:28:09Z</time>
      </trkpt>
      <trkpt lat="45.08421" lon="2.72862">
        <ele>1217.99</ele>
        <time>2022-07-12T13:28:10Z</time>
      </trkpt>
      <trkpt lat="45.08422" lon="2.72864">
        <ele>1218.08</ele>
        <time>2022-07-12T13:28:11Z</time>
      </trkpt>
      <trkpt lat="45.08424" lon="2.72866">
        <ele>1218.24</ele>
        <time>2022-07-12T13:28:12Z</time>
      </trkpt>
      <trkpt lat="45.08424" lon="2.72868">
        <ele>1218.37</ele>
        <time>2022-07-12T13:28:13Z</time>
      </trkpt>
      <trkpt lat="45.08431" lon="2.72878">
        <ele>1219.61</ele>
        <time>2022-07-12T13:28:27Z</time>
      </trkpt>
      <trkpt lat="45.08432" lon="2.72878">
        <ele>1219.71</ele>
        <time>2022-07-12T13:28:28Z</time>
      </trkpt>
      <trkpt lat="45.08437" lon="2.72887">
        <ele>1220.2</ele>
        <time>2022-07-12T13:28:35Z</time>
      </trkpt>
      <trkpt lat="45.08439" lon="2.72888">
        <ele>1220.28</ele>
        <time>2022-07-12T13:28:36Z</time>
      </trkpt>
      <trkpt lat="45.0844" lon="2.72888">
        <ele>1220.35</ele>
        <time>2022-07-12T13:28:37Z</time>
      </trkpt>
      <trkpt lat="45.08451" lon="2.729">
        <ele>1221.22</ele>
        <time>2022-07-12T13:28:47Z</time>
      </trkpt>
      <trkpt lat="45.08454" lon="2.72904">
        <ele>1221.51</ele>
        <time>2022-07-12T13:28:50Z</time>
      </trkpt>
      <trkpt lat="45.08455" lon="2.72905">
        <ele>1221.6</ele>
        <time>2022-07-12T13:28:51Z</time>
      </trkpt>
      <trkpt lat="45.08457" lon="2.72906">
        <ele>1221.65</ele>
        <time>2022-07-12T13:28:52Z</time>
      </trkpt>
      <trkpt lat="45.08458" lon="2.72907">
        <ele>1221.72</ele>
        <time>2022-07-12T13:28:53Z</time>
      </trkpt>
      <trkpt lat="45.08459" lon="2.72908">
        <ele>1221.77</ele>
        <time>2022-07-12T13:28:54Z</time>
      </trkpt>
      <trkpt lat="45.08466" lon="2.72929">
        <ele>1222.97</ele>
        <time>2022-07-12T13:29:09Z</time>
      </trkpt>
      <trkpt lat="45.08485" lon="2.72947">
        <ele>1224.71</ele>
        <time>2022-07-12T13:29:28Z</time>
      </trkpt>
      <trkpt lat="45.08494" lon="2.72959">
        <ele>1225.51</ele>
        <time>2022-07-12T13:29:41Z</time>
      </trkpt>
      <trkpt lat="45.08495" lon="2.7296">
        <ele>1225.59</ele>
        <time>2022-07-12T13:29:42Z</time>
      </trkpt>
      <trkpt lat="45.08496" lon="2.72962">
        <ele>1225.67</ele>
        <time>2022-07-12T13:29:43Z</time>
      </trkpt>
      <trkpt lat="45.08497" lon="2.72963">
        <ele>1225.8</ele>
        <time>2022-07-12T13:29:44Z</time>
      </trkpt>
      <trkpt lat="45.08497" lon="2.72965">
        <ele>1225.9</ele>
        <time>2022-07-12T13:29:45Z</time>
      </trkpt>
      <trkpt lat="45.08497" lon="2.72966">
        <ele>1226</ele>
        <time>2022-07-12T13:29:46Z</time>
      </trkpt>
      <trkpt lat="45.08497" lon="2.72968">
        <ele>1226.1</ele>
        <time>2022-07-12T13:29:47Z</time>
      </trkpt>
      <trkpt lat="45.08498" lon="2.72971">
        <ele>1226.23</ele>
        <time>2022-07-12T13:29:48Z</time>
      </trkpt>
      <trkpt lat="45.08499" lon="2.72972">
        <ele>1226.3</ele>
        <time>2022-07-12T13:29:49Z</time>
      </trkpt>
      <trkpt lat="45.08501" lon="2.72972">
        <ele>1226.35</ele>
        <time>2022-07-12T13:29:50Z</time>
      </trkpt>
      <trkpt lat="45.08502" lon="2.72973">
        <ele>1226.37</ele>
        <time>2022-07-12T13:29:51Z</time>
      </trkpt>
      <trkpt lat="45.08504" lon="2.72976">
        <ele>1226.6</ele>
        <time>2022-07-12T13:29:53Z</time>
      </trkpt>
      <trkpt lat="45.08504" lon="2.72977">
        <ele>1226.66</ele>
        <time>2022-07-12T13:29:54Z</time>
      </trkpt>
      <trkpt lat="45.08506" lon="2.72978">
        <ele>1226.7</ele>
        <time>2022-07-12T13:29:55Z</time>
      </trkpt>
      <trkpt lat="45.08507" lon="2.72979">
        <ele>1226.75</ele>
        <time>2022-07-12T13:29:56Z</time>
      </trkpt>
      <trkpt lat="45.08508" lon="2.72981">
        <ele>1226.78</ele>
        <time>2022-07-12T13:29:57Z</time>
      </trkpt>
      <trkpt lat="45.08508" lon="2.72983">
        <ele>1226.82</ele>
        <time>2022-07-12T13:29:58Z</time>
      </trkpt>
      <trkpt lat="45.0851" lon="2.72984">
        <ele>1226.85</ele>
        <time>2022-07-12T13:29:59Z</time>
      </trkpt>
      <trkpt lat="45.08511" lon="2.72985">
        <ele>1227.07</ele>
        <time>2022-07-12T13:30:01Z</time>
      </trkpt>
      <trkpt lat="45.08513" lon="2.72986">
        <ele>1227.12</ele>
        <time>2022-07-12T13:30:02Z</time>
      </trkpt>
      <trkpt lat="45.08521" lon="2.73007">
        <ele>1228.31</ele>
        <time>2022-07-12T13:30:16Z</time>
      </trkpt>
      <trkpt lat="45.08522" lon="2.73008">
        <ele>1228.34</ele>
        <time>2022-07-12T13:30:17Z</time>
      </trkpt>
      <trkpt lat="45.08523" lon="2.73009">
        <ele>1228.4</ele>
        <time>2022-07-12T13:30:18Z</time>
      </trkpt>
      <trkpt lat="45.0854" lon="2.7303">
        <ele>1229.91</ele>
        <time>2022-07-12T13:30:35Z</time>
      </trkpt>
      <trkpt lat="45.08547" lon="2.7305">
        <ele>1231.12</ele>
        <time>2022-07-12T13:30:51Z</time>
      </trkpt>
      <trkpt lat="45.08547" lon="2.73054">
        <ele>1231.47</ele>
        <time>2022-07-12T13:30:56Z</time>
      </trkpt>
      <trkpt lat="45.08542" lon="2.73065">
        <ele>1232.39</ele>
        <time>2022-07-12T13:31:04Z</time>
      </trkpt>
      <trkpt lat="45.08549" lon="2.73067">
        <ele>1232.47</ele>
        <time>2022-07-12T13:31:07Z</time>
      </trkpt>
      <trkpt lat="45.08545" lon="2.73098">
        <ele>1233.48</ele>
        <time>2022-07-12T13:31:25Z</time>
      </trkpt>
      <trkpt lat="45.0854" lon="2.73123">
        <ele>1234.63</ele>
        <time>2022-07-12T13:31:40Z</time>
      </trkpt>
      <trkpt lat="45.08538" lon="2.7315">
        <ele>1236.68</ele>
        <time>2022-07-12T13:31:55Z</time>
      </trkpt>
      <trkpt lat="45.08537" lon="2.73156">
        <ele>1236.82</ele>
        <time>2022-07-12T13:31:58Z</time>
      </trkpt>
      <trkpt lat="45.08537" lon="2.7316">
        <ele>1236.99</ele>
        <time>2022-07-12T13:32:00Z</time>
      </trkpt>
      <trkpt lat="45.08537" lon="2.73164">
        <ele>1237.15</ele>
        <time>2022-07-12T13:32:03Z</time>
      </trkpt>
      <trkpt lat="45.08537" lon="2.73177">
        <ele>1237.66</ele>
        <time>2022-07-12T13:32:10Z</time>
      </trkpt>
      <trkpt lat="45.08539" lon="2.73191">
        <ele>1238.61</ele>
        <time>2022-07-12T13:32:18Z</time>
      </trkpt>
      <trkpt lat="45.08538" lon="2.73198">
        <ele>1238.73</ele>
        <time>2022-07-12T13:32:22Z</time>
      </trkpt>
      <trkpt lat="45.08536" lon="2.73208">
        <ele>1239.52</ele>
        <time>2022-07-12T13:32:27Z</time>
      </trkpt>
      <trkpt lat="45.08536" lon="2.73214">
        <ele>1239.77</ele>
        <time>2022-07-12T13:32:30Z</time>
      </trkpt>
      <trkpt lat="45.08532" lon="2.73243">
        <ele>1240.87</ele>
        <time>2022-07-12T13:32:46Z</time>
      </trkpt>
      <trkpt lat="45.08526" lon="2.73266">
        <ele>1242.6</ele>
        <time>2022-07-12T13:33:04Z</time>
      </trkpt>
      <trkpt lat="45.08531" lon="2.73273">
        <ele>1243.84</ele>
        <time>2022-07-12T13:33:16Z</time>
      </trkpt>
      <trkpt lat="45.08531" lon="2.73268">
        <ele>1245.03</ele>
        <time>2022-07-12T13:33:33Z</time>
      </trkpt>
      <trkpt lat="45.08521" lon="2.73322">
        <ele>1245.69</ele>
        <time>2022-07-12T13:34:34Z</time>
      </trkpt>
      <trkpt lat="45.08521" lon="2.73326">
        <ele>1245.75</ele>
        <time>2022-07-12T13:34:37Z</time>
      </trkpt>
      <trkpt lat="45.08524" lon="2.73359">
        <ele>1246.16</ele>
        <time>2022-07-12T13:34:59Z</time>
      </trkpt>
      <trkpt lat="45.08534" lon="2.7338">
        <ele>1246.29</ele>
        <time>2022-07-12T13:35:16Z</time>
      </trkpt>
      <trkpt lat="45.08541" lon="2.73396">
        <ele>1246.23</ele>
        <time>2022-07-12T13:35:29Z</time>
      </trkpt>
      <trkpt lat="45.08543" lon="2.73413">
        <ele>1245.89</ele>
        <time>2022-07-12T13:35:44Z</time>
      </trkpt>
      <trkpt lat="45.08553" lon="2.73441">
        <ele>1244.76</ele>
        <time>2022-07-12T13:36:05Z</time>
      </trkpt>
      <trkpt lat="45.08549" lon="2.73449">
        <ele>1243.32</ele>
        <time>2022-07-12T13:36:20Z</time>
      </trkpt>
      <trkpt lat="45.08548" lon="2.73449">
        <ele>1243.23</ele>
        <time>2022-07-12T13:36:22Z</time>
      </trkpt>
      <trkpt lat="45.08541" lon="2.73482">
        <ele>1242.11</ele>
        <time>2022-07-12T13:37:02Z</time>
      </trkpt>
      <trkpt lat="45.08541" lon="2.73487">
        <ele>1241.86</ele>
        <time>2022-07-12T13:37:06Z</time>
      </trkpt>
      <trkpt lat="45.08534" lon="2.73512">
        <ele>1240.45</ele>
        <time>2022-07-12T13:37:20Z</time>
      </trkpt>
      <trkpt lat="45.08536" lon="2.73519">
        <ele>1240.2</ele>
        <time>2022-07-12T13:37:27Z</time>
      </trkpt>
      <trkpt lat="45.0853" lon="2.73515">
        <ele>1240.05</ele>
        <time>2022-07-12T13:37:43Z</time>
      </trkpt>
      <trkpt lat="45.08526" lon="2.7352">
        <ele>1240.04</ele>
        <time>2022-07-12T13:37:55Z</time>
        <extensions>
          <visugpx:TrkExtension xmlns:visugpx="https://www.visugpx.com/editgpx/">
            <visugpx:node>9</visugpx:node>
            </visugpx:TrkExtension>
        </extensions>
      </trkpt>
      <trkpt lat="45.08531" lon="2.73529">
        <ele>1284.3</ele>
      </trkpt>
      <trkpt lat="45.08528" lon="2.7354">
        <ele>1283.6</ele>
      </trkpt>
      <trkpt lat="45.08525" lon="2.73551">
        <ele>1283.1</ele>
      </trkpt>
      <trkpt lat="45.0852" lon="2.73564">
        <ele>1282.7</ele>
      </trkpt>
      <trkpt lat="45.08516" lon="2.73576">
        <ele>1282</ele>
      </trkpt>
      <trkpt lat="45.08513" lon="2.73583">
        <ele>1281.7</ele>
      </trkpt>
      <trkpt lat="45.08511" lon="2.73591">
        <ele>1281.2</ele>
      </trkpt>
      <trkpt lat="45.0851" lon="2.73599">
        <ele>1280.7</ele>
      </trkpt>
      <trkpt lat="45.0851" lon="2.73611">
        <ele>1279.5</ele>
      </trkpt>
      <trkpt lat="45.08511" lon="2.73619">
        <ele>1279.5</ele>
      </trkpt>
      <trkpt lat="45.08513" lon="2.73626">
        <ele>1279.2</ele>
      </trkpt>
      <trkpt lat="45.08517" lon="2.73635">
        <ele>1278.8</ele>
      </trkpt>
      <trkpt lat="45.08524" lon="2.73648">
        <ele>1277.8</ele>
      </trkpt>
      <trkpt lat="45.0853" lon="2.73662">
        <ele>1276.5</ele>
      </trkpt>
      <trkpt lat="45.08532" lon="2.73667">
        <ele>1275.9</ele>
      </trkpt>
      <trkpt lat="45.08529" lon="2.73676">
        <ele>1276.4</ele>
        <extensions>
          <visugpx:TrkExtension xmlns:visugpx="https://www.visugpx.com/editgpx/">
            <visugpx:node>10</visugpx:node>
            </visugpx:TrkExtension>
        </extensions>
      </trkpt>
      <trkpt lat="45.08526" lon="2.73686">
        <ele>1276.8</ele>
      </trkpt>
      <trkpt lat="45.08522" lon="2.73705">
        <ele>1278</ele>
      </trkpt>
      <trkpt lat="45.08518" lon="2.73723">
        <ele>1279.5</ele>
      </trkpt>
      <trkpt lat="45.08512" lon="2.73741">
        <ele>1281.4</ele>
      </trkpt>
      <trkpt lat="45.08504" lon="2.7376">
        <ele>1284.4</ele>
      </trkpt>
      <trkpt lat="45.08499" lon="2.73771">
        <ele>1286.3</ele>
      </trkpt>
      <trkpt lat="45.08494" lon="2.73777">
        <ele>1288</ele>
      </trkpt>
      <trkpt lat="45.08483" lon="2.73785">
        <ele>1290.5</ele>
      </trkpt>
      <trkpt lat="45.08471" lon="2.73797">
        <ele>1292.7</ele>
      </trkpt>
      <trkpt lat="45.08466" lon="2.73804">
        <ele>1293.7</ele>
      </trkpt>
      <trkpt lat="45.08465" lon="2.73813">
        <ele>1294.1</ele>
      </trkpt>
      <trkpt lat="45.08465" lon="2.73824">
        <ele>1294.4</ele>
      </trkpt>
      <trkpt lat="45.08467" lon="2.73839">
        <ele>1294.3</ele>
      </trkpt>
      <trkpt lat="45.08469" lon="2.73856">
        <ele>1294.8</ele>
      </trkpt>
      <trkpt lat="45.08469" lon="2.73871">
        <ele>1296.9</ele>
      </trkpt>
      <trkpt lat="45.08469" lon="2.73885">
        <ele>1299.3</ele>
      </trkpt>
      <trkpt lat="45.08467" lon="2.73901">
        <ele>1300.6</ele>
      </trkpt>
      <trkpt lat="45.08465" lon="2.73918">
        <ele>1301.4</ele>
      </trkpt>
      <trkpt lat="45.0846" lon="2.73934">
        <ele>1303.2</ele>
      </trkpt>
      <trkpt lat="45.08455" lon="2.73945">
        <ele>1305.2</ele>
      </trkpt>
      <trkpt lat="45.08447" lon="2.73959">
        <ele>1308.5</ele>
      </trkpt>
      <trkpt lat="45.08446" lon="2.7397">
        <ele>1309.3</ele>
      </trkpt>
      <trkpt lat="45.08443" lon="2.73989">
        <ele>1310.7</ele>
      </trkpt>
      <trkpt lat="45.08435" lon="2.7402">
        <ele>1310.3</ele>
      </trkpt>
      <trkpt lat="45.08433" lon="2.74026">
        <ele>1310.1</ele>
      </trkpt>
      <trkpt lat="45.08432" lon="2.7403">
        <ele>1310.5</ele>
      </trkpt>
      <trkpt lat="45.08431" lon="2.74038">
        <ele>1311.7</ele>
      </trkpt>
      <trkpt lat="45.08434" lon="2.74046">
        <ele>1311.1</ele>
      </trkpt>
      <trkpt lat="45.08446" lon="2.74066">
        <ele>1309.2</ele>
      </trkpt>
      <trkpt lat="45.08461" lon="2.74092">
        <ele>1307.2</ele>
      </trkpt>
      <trkpt lat="45.08464" lon="2.74104">
        <ele>1307.7</ele>
      </trkpt>
      <trkpt lat="45.08466" lon="2.74118">
        <ele>1307.9</ele>
      </trkpt>
      <trkpt lat="45.08465" lon="2.74134">
        <ele>1308.4</ele>
      </trkpt>
      <trkpt lat="45.08462" lon="2.74154">
        <ele>1309.4</ele>
      </trkpt>
      <trkpt lat="45.0846" lon="2.74164">
        <ele>1310.1</ele>
        <extensions>
          <visugpx:TrkExtension xmlns:visugpx="https://www.visugpx.com/editgpx/">
            <visugpx:node>11</visugpx:node>
            </visugpx:TrkExtension>
        </extensions>
      </trkpt>
      <trkpt lat="45.08456" lon="2.74184">
        <ele>1310.6</ele>
      </trkpt>
      <trkpt lat="45.08453" lon="2.74202">
        <ele>1310.9</ele>
      </trkpt>
      <trkpt lat="45.08451" lon="2.74212">
        <ele>1311.5</ele>
      </trkpt>
      <trkpt lat="45.08441" lon="2.74249">
        <ele>1311.4</ele>
      </trkpt>
      <trkpt lat="45.08437" lon="2.7427">
        <ele>1312.7</ele>
      </trkpt>
      <trkpt lat="45.08435" lon="2.74296">
        <ele>1311.7</ele>
      </trkpt>
      <trkpt lat="45.08434" lon="2.74309">
        <ele>1311</ele>
      </trkpt>
      <trkpt lat="45.08431" lon="2.74323">
        <ele>1311</ele>
      </trkpt>
      <trkpt lat="45.08425" lon="2.74336">
        <ele>1312.8</ele>
      </trkpt>
      <trkpt lat="45.08418" lon="2.74352">
        <ele>1314.5</ele>
      </trkpt>
      <trkpt lat="45.08409" lon="2.74386">
        <ele>1317.1</ele>
      </trkpt>
      <trkpt lat="45.08402" lon="2.74414">
        <ele>1316.2</ele>
      </trkpt>
      <trkpt lat="45.08405" lon="2.74419">
        <ele>1314.5</ele>
      </trkpt>
      <trkpt lat="45.08408" lon="2.74439">
        <ele>1311.1</ele>
      </trkpt>
      <trkpt lat="45.0841" lon="2.7447">
        <ele>1307.8</ele>
      </trkpt>
      <trkpt lat="45.08412" lon="2.74492">
        <ele>1304.9</ele>
      </trkpt>
      <trkpt lat="45.08415" lon="2.74505">
        <ele>1302.4</ele>
      </trkpt>
      <trkpt lat="45.08422" lon="2.74522">
        <ele>1297.1</ele>
      </trkpt>
      <trkpt lat="45.0843" lon="2.74535">
        <ele>1292.7</ele>
      </trkpt>
      <trkpt lat="45.08436" lon="2.74548">
        <ele>1289.9</ele>
      </trkpt>
      <trkpt lat="45.08439" lon="2.74559">
        <ele>1288.1</ele>
      </trkpt>
      <trkpt lat="45.0844" lon="2.7457">
        <ele>1286.1</ele>
      </trkpt>
      <trkpt lat="45.08439" lon="2.74576">
        <ele>1285</ele>
      </trkpt>
      <trkpt lat="45.08438" lon="2.7458">
        <ele>1284.2</ele>
      </trkpt>
      <trkpt lat="45.08438" lon="2.74581">
        <ele>1284</ele>
        <extensions>
          <visugpx:TrkExtension xmlns:visugpx="https://www.visugpx.com/editgpx/">
            <visugpx:node>12</visugpx:node>
            </visugpx:TrkExtension>
        </extensions>
      </trkpt>
      <trkpt lat="45.08434" lon="2.74589">
        <ele>1282</ele>
      </trkpt>
      <trkpt lat="45.08425" lon="2.74595">
        <ele>1280.1</ele>
      </trkpt>
      <trkpt lat="45.0841" lon="2.746">
        <ele>1277.3</ele>
      </trkpt>
      <trkpt lat="45.0839" lon="2.74606">
        <ele>1272.5</ele>
      </trkpt>
      <trkpt lat="45.08377" lon="2.74614">
        <ele>1269.9</ele>
      </trkpt>
      <trkpt lat="45.08373" lon="2.74617">
        <ele>1269.1</ele>
        <extensions>
          <visugpx:TrkExtension xmlns:visugpx="https://www.visugpx.com/editgpx/">
            <visugpx:node>13</visugpx:node>
            </visugpx:TrkExtension>
        </extensions>
      </trkpt>
      <trkpt lat="45.08372" lon="2.74611">
        <ele>1226.22</ele>
        <time>2022-07-12T14:01:53Z</time>
        <extensions>
          <visugpx:TrkExtension xmlns:visugpx="https://www.visugpx.com/editgpx/">
            <visugpx:node>9</visugpx:node>
            </visugpx:TrkExtension>
        </extensions>
      </trkpt>
      <trkpt lat="45.08352" lon="2.74623">
        <ele>1223.07</ele>
        <time>2022-07-12T14:02:14Z</time>
      </trkpt>
      <trkpt lat="45.08332" lon="2.74641">
        <ele>1220.03</ele>
        <time>2022-07-12T14:02:32Z</time>
      </trkpt>
      <trkpt lat="45.08315" lon="2.74651">
        <ele>1218.09</ele>
        <time>2022-07-12T14:02:47Z</time>
      </trkpt>
      <trkpt lat="45.0831" lon="2.74651">
        <ele>1217.7</ele>
        <time>2022-07-12T14:02:51Z</time>
      </trkpt>
      <trkpt lat="45.08299" lon="2.74652">
        <ele>1217.07</ele>
        <time>2022-07-12T14:03:01Z</time>
      </trkpt>
      <trkpt lat="45.08294" lon="2.74654">
        <ele>1216.86</ele>
        <time>2022-07-12T14:03:05Z</time>
      </trkpt>
      <trkpt lat="45.08277" lon="2.74663">
        <ele>1215.67</ele>
        <time>2022-07-12T14:03:22Z</time>
      </trkpt>
      <trkpt lat="45.08262" lon="2.7467">
        <ele>1215.46</ele>
        <time>2022-07-12T14:03:35Z</time>
      </trkpt>
      <trkpt lat="45.0825" lon="2.74668">
        <ele>1214.16</ele>
        <time>2022-07-12T14:03:50Z</time>
      </trkpt>
      <trkpt lat="45.08247" lon="2.74676">
        <ele>1213.49</ele>
        <time>2022-07-12T14:04:03Z</time>
      </trkpt>
      <trkpt lat="45.08241" lon="2.74684">
        <ele>1213.12</ele>
        <time>2022-07-12T14:04:16Z</time>
      </trkpt>
      <trkpt lat="45.08232" lon="2.74697">
        <ele>1209.85</ele>
        <time>2022-07-12T14:04:34Z</time>
      </trkpt>
      <trkpt lat="45.08232" lon="2.74695">
        <ele>1209.69</ele>
        <time>2022-07-12T14:04:35Z</time>
      </trkpt>
      <trkpt lat="45.08232" lon="2.74692">
        <ele>1209.24</ele>
        <time>2022-07-12T14:04:36Z</time>
      </trkpt>
      <trkpt lat="45.0823" lon="2.74699">
        <ele>1209</ele>
        <time>2022-07-12T14:04:37Z</time>
      </trkpt>
      <trkpt lat="45.08229" lon="2.747">
        <ele>1208.64</ele>
        <time>2022-07-12T14:04:39Z</time>
      </trkpt>
      <trkpt lat="45.0823" lon="2.74699">
        <ele>1208.06</ele>
        <time>2022-07-12T14:04:43Z</time>
      </trkpt>
      <trkpt lat="45.0823" lon="2.74696">
        <ele>1207.94</ele>
        <time>2022-07-12T14:04:46Z</time>
      </trkpt>
      <trkpt lat="45.0823" lon="2.74694">
        <ele>1207.93</ele>
        <time>2022-07-12T14:04:47Z</time>
      </trkpt>
      <trkpt lat="45.08229" lon="2.74692">
        <ele>1207.93</ele>
        <time>2022-07-12T14:04:48Z</time>
      </trkpt>
      <trkpt lat="45.0822" lon="2.74696">
        <ele>1207.83</ele>
        <time>2022-07-12T14:04:55Z</time>
      </trkpt>
      <trkpt lat="45.08218" lon="2.747">
        <ele>1207.83</ele>
        <time>2022-07-12T14:04:56Z</time>
      </trkpt>
      <trkpt lat="45.08218" lon="2.74701">
        <ele>1207.83</ele>
        <time>2022-07-12T14:04:58Z</time>
      </trkpt>
      <trkpt lat="45.08211" lon="2.74693">
        <ele>1207.07</ele>
        <time>2022-07-12T14:05:11Z</time>
      </trkpt>
      <trkpt lat="45.08215" lon="2.74697">
        <ele>1206.85</ele>
        <time>2022-07-12T14:05:17Z</time>
      </trkpt>
      <trkpt lat="45.08203" lon="2.74853">
        <ele>1194.99</ele>
        <time>2022-07-12T14:07:23Z</time>
      </trkpt>
      <trkpt lat="45.08206" lon="2.7486">
        <ele>1195.15</ele>
        <time>2022-07-12T14:07:28Z</time>
      </trkpt>
      <trkpt lat="45.08207" lon="2.74869">
        <ele>1195.22</ele>
        <time>2022-07-12T14:07:33Z</time>
      </trkpt>
      <trkpt lat="45.08207" lon="2.74896">
        <ele>1195.57</ele>
        <time>2022-07-12T14:07:50Z</time>
      </trkpt>
      <trkpt lat="45.08212" lon="2.74915">
        <ele>1195.84</ele>
        <time>2022-07-12T14:08:03Z</time>
      </trkpt>
      <trkpt lat="45.08214" lon="2.74939">
        <ele>1195.9</ele>
        <time>2022-07-12T14:08:16Z</time>
      </trkpt>
      <trkpt lat="45.08213" lon="2.74946">
        <ele>1196.03</ele>
        <time>2022-07-12T14:08:20Z</time>
      </trkpt>
      <trkpt lat="45.08228" lon="2.74952">
        <ele>1196.89</ele>
        <time>2022-07-12T14:08:35Z</time>
      </trkpt>
      <trkpt lat="45.08248" lon="2.74951">
        <ele>1196.1</ele>
        <time>2022-07-12T14:08:55Z</time>
      </trkpt>
      <trkpt lat="45.08256" lon="2.74951">
        <ele>1195.91</ele>
        <time>2022-07-12T14:09:02Z</time>
      </trkpt>
      <trkpt lat="45.08265" lon="2.74954">
        <ele>1195.82</ele>
        <time>2022-07-12T14:09:11Z</time>
      </trkpt>
      <trkpt lat="45.0827" lon="2.74969">
        <ele>1195.81</ele>
        <time>2022-07-12T14:09:20Z</time>
      </trkpt>
      <trkpt lat="45.08283" lon="2.74975">
        <ele>1195.78</ele>
        <time>2022-07-12T14:09:34Z</time>
      </trkpt>
      <trkpt lat="45.08301" lon="2.74975">
        <ele>1194.15</ele>
        <time>2022-07-12T14:09:52Z</time>
      </trkpt>
      <trkpt lat="45.08306" lon="2.74974">
        <ele>1193.91</ele>
        <time>2022-07-12T14:09:56Z</time>
      </trkpt>
      <trkpt lat="45.08308" lon="2.74973">
        <ele>1193.25</ele>
        <time>2022-07-12T14:10:01Z</time>
      </trkpt>
      <trkpt lat="45.08334" lon="2.7497">
        <ele>1190.1</ele>
        <time>2022-07-12T14:13:05Z</time>
      </trkpt>
      <trkpt lat="45.08332" lon="2.74971">
        <ele>1190.24</ele>
        <time>2022-07-12T14:13:08Z</time>
      </trkpt>
      <trkpt lat="45.08317" lon="2.75003">
        <ele>1192.77</ele>
        <time>2022-07-12T14:13:57Z</time>
      </trkpt>
      <trkpt lat="45.08319" lon="2.75017">
        <ele>1193.25</ele>
        <time>2022-07-12T14:14:10Z</time>
      </trkpt>
      <trkpt lat="45.08328" lon="2.75027">
        <ele>1194.18</ele>
        <time>2022-07-12T14:14:21Z</time>
      </trkpt>
      <trkpt lat="45.08341" lon="2.75039">
        <ele>1195.37</ele>
        <time>2022-07-12T14:14:37Z</time>
      </trkpt>
      <trkpt lat="45.08341" lon="2.75038">
        <ele>1196.29</ele>
        <time>2022-07-12T14:14:42Z</time>
      </trkpt>
      <trkpt lat="45.08347" lon="2.75058">
        <ele>1195.51</ele>
        <time>2022-07-12T14:16:26Z</time>
      </trkpt>
      <trkpt lat="45.08353" lon="2.75055">
        <ele>1195.45</ele>
        <time>2022-07-12T14:16:30Z</time>
      </trkpt>
      <trkpt lat="45.08355" lon="2.75052">
        <ele>1195.41</ele>
        <time>2022-07-12T14:16:33Z</time>
      </trkpt>
      <trkpt lat="45.08364" lon="2.75039">
        <ele>1194.76</ele>
        <time>2022-07-12T14:16:45Z</time>
      </trkpt>
      <trkpt lat="45.08378" lon="2.75022">
        <ele>1193.73</ele>
        <time>2022-07-12T14:17:01Z</time>
      </trkpt>
      <trkpt lat="45.08386" lon="2.75015">
        <ele>1193.11</ele>
        <time>2022-07-12T14:17:09Z</time>
      </trkpt>
      <trkpt lat="45.08393" lon="2.75006">
        <ele>1191.97</ele>
        <time>2022-07-12T14:17:20Z</time>
      </trkpt>
      <trkpt lat="45.08396" lon="2.7501">
        <ele>1191.33</ele>
        <time>2022-07-12T14:17:27Z</time>
      </trkpt>
      <trkpt lat="45.08406" lon="2.75012">
        <ele>1190.69</ele>
        <time>2022-07-12T14:17:38Z</time>
      </trkpt>
      <trkpt lat="45.08424" lon="2.75015">
        <ele>1187.62</ele>
        <time>2022-07-12T14:17:53Z</time>
      </trkpt>
      <trkpt lat="45.08438" lon="2.75009">
        <ele>1186.31</ele>
        <time>2022-07-12T14:18:04Z</time>
      </trkpt>
      <trkpt lat="45.08459" lon="2.74999">
        <ele>1184.84</ele>
        <time>2022-07-12T14:18:22Z</time>
      </trkpt>
      <trkpt lat="45.0848" lon="2.74991">
        <ele>1183.99</ele>
        <time>2022-07-12T14:18:37Z</time>
      </trkpt>
      <trkpt lat="45.08486" lon="2.74992">
        <ele>1183.62</ele>
        <time>2022-07-12T14:18:42Z</time>
      </trkpt>
      <trkpt lat="45.08507" lon="2.75">
        <ele>1181.48</ele>
        <time>2022-07-12T14:18:57Z</time>
      </trkpt>
      <trkpt lat="45.08527" lon="2.75007">
        <ele>1179.78</ele>
        <time>2022-07-12T14:19:14Z</time>
      </trkpt>
      <trkpt lat="45.08545" lon="2.75008">
        <ele>1177.37</ele>
        <time>2022-07-12T14:19:34Z</time>
      </trkpt>
      <trkpt lat="45.08574" lon="2.75012">
        <ele>1174.43</ele>
        <time>2022-07-12T14:19:58Z</time>
      </trkpt>
      <trkpt lat="45.08603" lon="2.75015">
        <ele>1172.61</ele>
        <time>2022-07-12T14:20:23Z</time>
      </trkpt>
      <trkpt lat="45.08617" lon="2.7502">
        <ele>1171.37</ele>
        <time>2022-07-12T14:20:34Z</time>
      </trkpt>
      <trkpt lat="45.0863" lon="2.75029">
        <ele>1169.8</ele>
        <time>2022-07-12T14:20:48Z</time>
      </trkpt>
      <trkpt lat="45.08638" lon="2.75031">
        <ele>1169.2</ele>
        <time>2022-07-12T14:20:54Z</time>
      </trkpt>
      <trkpt lat="45.08656" lon="2.75029">
        <ele>1167.4</ele>
        <time>2022-07-12T14:21:09Z</time>
      </trkpt>
      <trkpt lat="45.0866" lon="2.75029">
        <ele>1167.09</ele>
        <time>2022-07-12T14:21:12Z</time>
      </trkpt>
      <trkpt lat="45.08665" lon="2.75035">
        <ele>1166.7</ele>
        <time>2022-07-12T14:21:16Z</time>
      </trkpt>
      <trkpt lat="45.08667" lon="2.75035">
        <ele>1166.51</ele>
        <time>2022-07-12T14:21:18Z</time>
      </trkpt>
      <trkpt lat="45.08684" lon="2.75042">
        <ele>1165.35</ele>
        <time>2022-07-12T14:21:33Z</time>
      </trkpt>
      <trkpt lat="45.08695" lon="2.75047">
        <ele>1164.22</ele>
        <time>2022-07-12T14:21:44Z</time>
      </trkpt>
      <trkpt lat="45.08699" lon="2.75049">
        <ele>1164.02</ele>
        <time>2022-07-12T14:21:47Z</time>
      </trkpt>
      <trkpt lat="45.08702" lon="2.7505">
        <ele>1163.88</ele>
        <time>2022-07-12T14:21:49Z</time>
      </trkpt>
      <trkpt lat="45.08733" lon="2.75065">
        <ele>1160.86</ele>
        <time>2022-07-12T14:22:12Z</time>
      </trkpt>
      <trkpt lat="45.08737" lon="2.75071">
        <ele>1160.49</ele>
        <time>2022-07-12T14:22:16Z</time>
      </trkpt>
      <trkpt lat="45.08742" lon="2.75074">
        <ele>1160.27</ele>
        <time>2022-07-12T14:22:21Z</time>
      </trkpt>
      <trkpt lat="45.0876" lon="2.75092">
        <ele>1158.76</ele>
        <time>2022-07-12T14:22:37Z</time>
      </trkpt>
      <trkpt lat="45.08767" lon="2.751">
        <ele>1157.99</ele>
        <time>2022-07-12T14:22:45Z</time>
      </trkpt>
      <trkpt lat="45.08775" lon="2.75109">
        <ele>1157.13</ele>
        <time>2022-07-12T14:22:53Z</time>
      </trkpt>
      <trkpt lat="45.08778" lon="2.75111">
        <ele>1156.82</ele>
        <time>2022-07-12T14:22:56Z</time>
      </trkpt>
      <trkpt lat="45.08788" lon="2.75121">
        <ele>1155.53</ele>
        <time>2022-07-12T14:23:06Z</time>
      </trkpt>
      <trkpt lat="45.08791" lon="2.75124">
        <ele>1154.93</ele>
        <time>2022-07-12T14:23:10Z</time>
      </trkpt>
      <trkpt lat="45.08803" lon="2.75138">
        <ele>1154.06</ele>
        <time>2022-07-12T14:23:27Z</time>
      </trkpt>
      <trkpt lat="45.08805" lon="2.75142">
        <ele>1153.82</ele>
        <time>2022-07-12T14:23:30Z</time>
      </trkpt>
      <trkpt lat="45.08822" lon="2.7516">
        <ele>1152.14</ele>
        <time>2022-07-12T14:23:49Z</time>
      </trkpt>
      <trkpt lat="45.08832" lon="2.75167">
        <ele>1151.01</ele>
        <time>2022-07-12T14:23:58Z</time>
      </trkpt>
      <trkpt lat="45.08839" lon="2.75171">
        <ele>1149.61</ele>
        <time>2022-07-12T14:24:07Z</time>
      </trkpt>
      <trkpt lat="45.08843" lon="2.75173">
        <ele>1149.26</ele>
        <time>2022-07-12T14:24:10Z</time>
      </trkpt>
      <trkpt lat="45.08847" lon="2.75177">
        <ele>1149.02</ele>
        <time>2022-07-12T14:24:14Z</time>
      </trkpt>
      <trkpt lat="45.08854" lon="2.75181">
        <ele>1148.5</ele>
        <time>2022-07-12T14:24:20Z</time>
      </trkpt>
      <trkpt lat="45.08863" lon="2.75188">
        <ele>1147.28</ele>
        <time>2022-07-12T14:24:31Z</time>
      </trkpt>
      <trkpt lat="45.08868" lon="2.75196">
        <ele>1145.82</ele>
        <time>2022-07-12T14:24:39Z</time>
      </trkpt>
      <trkpt lat="45.0887" lon="2.75199">
        <ele>1145.26</ele>
        <time>2022-07-12T14:24:42Z</time>
      </trkpt>
      <trkpt lat="45.08896" lon="2.7522">
        <ele>1142.22</ele>
        <time>2022-07-12T14:25:03Z</time>
      </trkpt>
      <trkpt lat="45.08918" lon="2.75229">
        <ele>1139.04</ele>
        <time>2022-07-12T14:25:19Z</time>
      </trkpt>
      <trkpt lat="45.08937" lon="2.75235">
        <ele>1136.6</ele>
        <time>2022-07-12T14:25:33Z</time>
      </trkpt>
      <trkpt lat="45.08955" lon="2.75242">
        <ele>1133.58</ele>
        <time>2022-07-12T14:25:47Z</time>
      </trkpt>
      <trkpt lat="45.08969" lon="2.75249">
        <ele>1131.15</ele>
        <time>2022-07-12T14:26:02Z</time>
      </trkpt>
      <trkpt lat="45.08988" lon="2.75262">
        <ele>1129.34</ele>
        <time>2022-07-12T14:26:17Z</time>
      </trkpt>
      <trkpt lat="45.09007" lon="2.75275">
        <ele>1127.62</ele>
        <time>2022-07-12T14:26:34Z</time>
      </trkpt>
      <trkpt lat="45.09024" lon="2.75288">
        <ele>1124.58</ele>
        <time>2022-07-12T14:26:51Z</time>
      </trkpt>
      <trkpt lat="45.0903" lon="2.75296">
        <ele>1123.44</ele>
        <time>2022-07-12T14:26:58Z</time>
      </trkpt>
      <trkpt lat="45.09032" lon="2.753">
        <ele>1122.33</ele>
        <time>2022-07-12T14:27:06Z</time>
      </trkpt>
      <trkpt lat="45.08952" lon="2.7524">
        <ele>1130.49</ele>
        <time>2022-07-12T14:31:02Z</time>
      </trkpt>
      <trkpt lat="45.08952" lon="2.75246">
        <ele>1130.5</ele>
        <time>2022-07-12T14:31:05Z</time>
      </trkpt>
      <trkpt lat="45.08954" lon="2.75262">
        <ele>1130.88</ele>
        <time>2022-07-12T14:31:16Z</time>
      </trkpt>
      <trkpt lat="45.08961" lon="2.75264">
        <ele>1130.56</ele>
        <time>2022-07-12T14:31:29Z</time>
      </trkpt>
      <trkpt lat="45.08958" lon="2.75259">
        <ele>1130.5</ele>
        <time>2022-07-12T14:31:39Z</time>
      </trkpt>
      <trkpt lat="45.08956" lon="2.75252">
        <ele>1130.53</ele>
        <time>2022-07-12T14:31:43Z</time>
      </trkpt>
      <trkpt lat="45.0895" lon="2.75237">
        <ele>1130.82</ele>
        <time>2022-07-12T14:31:53Z</time>
      </trkpt>
      <trkpt lat="45.08954" lon="2.75231">
        <ele>1130.88</ele>
        <time>2022-07-12T14:31:59Z</time>
      </trkpt>
      <trkpt lat="45.08957" lon="2.75224">
        <ele>1130.96</ele>
        <time>2022-07-12T14:32:02Z</time>
      </trkpt>
      <trkpt lat="45.0896" lon="2.75218">
        <ele>1130.92</ele>
        <time>2022-07-12T14:32:05Z</time>
      </trkpt>
      <trkpt lat="45.08963" lon="2.7521">
        <ele>1130.83</ele>
        <time>2022-07-12T14:32:09Z</time>
      </trkpt>
      <trkpt lat="45.08964" lon="2.75205">
        <ele>1130.73</ele>
        <time>2022-07-12T14:32:11Z</time>
      </trkpt>
      <trkpt lat="45.08969" lon="2.75199">
        <ele>1130.58</ele>
        <time>2022-07-12T14:32:14Z</time>
      </trkpt>
      <trkpt lat="45.08966" lon="2.75187">
        <ele>1130.03</ele>
        <time>2022-07-12T14:32:19Z</time>
      </trkpt>
      <trkpt lat="45.0898" lon="2.75164">
        <ele>1128.55</ele>
        <time>2022-07-12T14:32:35Z</time>
      </trkpt>
      <trkpt lat="45.08988" lon="2.75168">
        <ele>1128.26</ele>
        <time>2022-07-12T14:32:39Z</time>
      </trkpt>
      <trkpt lat="45.0899" lon="2.75165">
        <ele>1127.5</ele>
        <time>2022-07-12T14:32:45Z</time>
      </trkpt>
      <trkpt lat="45.08978" lon="2.75155">
        <ele>1127.09</ele>
        <time>2022-07-12T14:32:49Z</time>
      </trkpt>
      <trkpt lat="45.08978" lon="2.75138">
        <ele>1126.31</ele>
        <time>2022-07-12T14:32:58Z</time>
      </trkpt>
      <trkpt lat="45.08986" lon="2.75123">
        <ele>1124.12</ele>
        <time>2022-07-12T14:33:12Z</time>
      </trkpt>
      <trkpt lat="45.0899" lon="2.75115">
        <ele>1122.53</ele>
        <time>2022-07-12T14:33:28Z</time>
      </trkpt>
      <trkpt lat="45.08992" lon="2.75101">
        <ele>1122.56</ele>
        <time>2022-07-12T14:33:38Z</time>
      </trkpt>
      <trkpt lat="45.0897" lon="2.75074">
        <ele>1124.9</ele>
        <time>2022-07-12T14:35:54Z</time>
      </trkpt>
      <trkpt lat="45.08969" lon="2.75067">
        <ele>1126.26</ele>
        <time>2022-07-12T14:36:02Z</time>
      </trkpt>
      <trkpt lat="45.08967" lon="2.75054">
        <ele>1126.39</ele>
        <time>2022-07-12T14:36:11Z</time>
      </trkpt>
      <trkpt lat="45.08958" lon="2.75034">
        <ele>1126.33</ele>
        <time>2022-07-12T14:36:23Z</time>
      </trkpt>
      <trkpt lat="45.08946" lon="2.75013">
        <ele>1126.11</ele>
        <time>2022-07-12T14:36:39Z</time>
      </trkpt>
      <trkpt lat="45.08934" lon="2.74998">
        <ele>1125.88</ele>
        <time>2022-07-12T14:36:51Z</time>
      </trkpt>
      <trkpt lat="45.08919" lon="2.74983">
        <ele>1126.41</ele>
        <time>2022-07-12T14:37:05Z</time>
      </trkpt>
      <trkpt lat="45.08899" lon="2.74974">
        <ele>1128.59</ele>
        <time>2022-07-12T14:37:20Z</time>
      </trkpt>
      <trkpt lat="45.0888" lon="2.74973">
        <ele>1131.29</ele>
        <time>2022-07-12T14:37:36Z</time>
      </trkpt>
      <trkpt lat="45.08861" lon="2.74976">
        <ele>1133.54</ele>
        <time>2022-07-12T14:37:52Z</time>
      </trkpt>
      <trkpt lat="45.0886" lon="2.7498">
        <ele>1134.14</ele>
        <time>2022-07-12T14:37:56Z</time>
      </trkpt>
      <trkpt lat="45.08856" lon="2.74993">
        <ele>1135.09</ele>
        <time>2022-07-12T14:38:07Z</time>
      </trkpt>
      <trkpt lat="45.08855" lon="2.74996">
        <ele>1135.1</ele>
        <time>2022-07-12T14:38:13Z</time>
      </trkpt>
      <trkpt lat="45.08846" lon="2.74999">
        <ele>1134.8</ele>
        <time>2022-07-12T14:38:31Z</time>
      </trkpt>
      <trkpt lat="45.08837" lon="2.75">
        <ele>1134.95</ele>
        <time>2022-07-12T14:38:43Z</time>
      </trkpt>
      <trkpt lat="45.08836" lon="2.74999">
        <ele>1134.98</ele>
        <time>2022-07-12T14:38:44Z</time>
      </trkpt>
      <trkpt lat="45.08828" lon="2.74992">
        <ele>1137.01</ele>
        <time>2022-07-12T14:38:52Z</time>
      </trkpt>
      <trkpt lat="45.08827" lon="2.74992">
        <ele>1137.16</ele>
        <time>2022-07-12T14:38:53Z</time>
      </trkpt>
      <trkpt lat="45.08811" lon="2.74993">
        <ele>1140.03</ele>
        <time>2022-07-12T14:39:09Z</time>
      </trkpt>
      <trkpt lat="45.08796" lon="2.74995">
        <ele>1142.52</ele>
        <time>2022-07-12T14:39:23Z</time>
      </trkpt>
      <trkpt lat="45.08788" lon="2.75005">
        <ele>1144.03</ele>
        <time>2022-07-12T14:39:42Z</time>
      </trkpt>
      <trkpt lat="45.08784" lon="2.75029">
        <ele>1145.92</ele>
        <time>2022-07-12T14:39:55Z</time>
      </trkpt>
      <trkpt lat="45.08767" lon="2.75046">
        <ele>1148</ele>
        <time>2022-07-12T14:40:11Z</time>
      </trkpt>
      <trkpt lat="45.08766" lon="2.75046">
        <ele>1148.39</ele>
        <time>2022-07-12T14:40:13Z</time>
      </trkpt>
      <trkpt lat="45.08752" lon="2.75046">
        <ele>1151.36</ele>
        <time>2022-07-12T14:40:29Z</time>
      </trkpt>
      <trkpt lat="45.08746" lon="2.75044">
        <ele>1151.88</ele>
        <time>2022-07-12T14:40:35Z</time>
      </trkpt>
      <trkpt lat="45.0874" lon="2.75043">
        <ele>1153.57</ele>
        <time>2022-07-12T14:40:46Z</time>
      </trkpt>
      <trkpt lat="45.08708" lon="2.75029">
        <ele>1154.97</ele>
        <time>2022-07-12T14:41:25Z</time>
      </trkpt>
      <trkpt lat="45.08691" lon="2.75011">
        <ele>1155.21</ele>
        <time>2022-07-12T14:41:38Z</time>
      </trkpt>
      <trkpt lat="45.0868" lon="2.7498">
        <ele>1155.18</ele>
        <time>2022-07-12T14:41:54Z</time>
      </trkpt>
      <trkpt lat="45.08695" lon="2.74954">
        <ele>1155.61</ele>
        <time>2022-07-12T14:42:09Z</time>
      </trkpt>
      <trkpt lat="45.08707" lon="2.74955">
        <ele>1155.93</ele>
        <time>2022-07-12T14:42:19Z</time>
      </trkpt>
      <trkpt lat="45.08728" lon="2.74957">
        <ele>1155.83</ele>
        <time>2022-07-12T14:42:35Z</time>
      </trkpt>
      <trkpt lat="45.0875" lon="2.74946">
        <ele>1154.71</ele>
        <time>2022-07-12T14:42:57Z</time>
      </trkpt>
      <trkpt lat="45.08756" lon="2.74939">
        <ele>1154.01</ele>
        <time>2022-07-12T14:43:03Z</time>
      </trkpt>
      <trkpt lat="45.0876" lon="2.74931">
        <ele>1153.38</ele>
        <time>2022-07-12T14:43:08Z</time>
      </trkpt>
      <trkpt lat="45.08773" lon="2.74902">
        <ele>1151.42</ele>
        <time>2022-07-12T14:43:26Z</time>
      </trkpt>
      <trkpt lat="45.08776" lon="2.74898">
        <ele>1151.37</ele>
        <time>2022-07-12T14:43:30Z</time>
      </trkpt>
      <trkpt lat="45.08779" lon="2.74894">
        <ele>1151.36</ele>
        <time>2022-07-12T14:43:33Z</time>
      </trkpt>
      <trkpt lat="45.08783" lon="2.74885">
        <ele>1151.09</ele>
        <time>2022-07-12T14:43:39Z</time>
      </trkpt>
      <trkpt lat="45.08783" lon="2.7488">
        <ele>1150.67</ele>
        <time>2022-07-12T14:43:43Z</time>
      </trkpt>
      <trkpt lat="45.08787" lon="2.74874">
        <ele>1150.33</ele>
        <time>2022-07-12T14:43:47Z</time>
      </trkpt>
      <trkpt lat="45.08788" lon="2.74867">
        <ele>1150.02</ele>
        <time>2022-07-12T14:43:51Z</time>
      </trkpt>
      <trkpt lat="45.08787" lon="2.7486">
        <ele>1149.57</ele>
        <time>2022-07-12T14:43:59Z</time>
      </trkpt>
      <trkpt lat="45.08787" lon="2.7485">
        <ele>1149.14</ele>
        <time>2022-07-12T14:44:25Z</time>
      </trkpt>
      <trkpt lat="45.08784" lon="2.74838">
        <ele>1148.98</ele>
        <time>2022-07-12T14:44:36Z</time>
      </trkpt>
      <trkpt lat="45.08781" lon="2.7483">
        <ele>1148.58</ele>
        <time>2022-07-12T14:44:49Z</time>
      </trkpt>
      <trkpt lat="45.0878" lon="2.74828">
        <ele>1148.54</ele>
        <time>2022-07-12T14:44:51Z</time>
      </trkpt>
      <trkpt lat="45.08772" lon="2.74809">
        <ele>1148.35</ele>
        <time>2022-07-12T14:45:03Z</time>
      </trkpt>
      <trkpt lat="45.08768" lon="2.748">
        <ele>1148.23</ele>
        <time>2022-07-12T14:45:09Z</time>
      </trkpt>
      <trkpt lat="45.08766" lon="2.74795">
        <ele>1148.23</ele>
        <time>2022-07-12T14:45:12Z</time>
      </trkpt>
      <trkpt lat="45.08761" lon="2.74784">
        <ele>1148.22</ele>
        <time>2022-07-12T14:45:20Z</time>
      </trkpt>
      <trkpt lat="45.0875" lon="2.7476">
        <ele>1148.74</ele>
        <time>2022-07-12T14:45:33Z</time>
      </trkpt>
      <trkpt lat="45.08748" lon="2.74758">
        <ele>1148.81</ele>
        <time>2022-07-12T14:45:34Z</time>
      </trkpt>
      <trkpt lat="45.08746" lon="2.74745">
        <ele>1149.04</ele>
        <time>2022-07-12T14:45:41Z</time>
      </trkpt>
      <trkpt lat="45.08733" lon="2.7471">
        <ele>1150.67</ele>
        <time>2022-07-12T14:46:04Z</time>
      </trkpt>
      <trkpt lat="45.08727" lon="2.7469">
        <ele>1151.88</ele>
        <time>2022-07-12T14:46:20Z</time>
      </trkpt>
      <trkpt lat="45.08708" lon="2.74659">
        <ele>1154.3</ele>
        <time>2022-07-12T14:46:44Z</time>
      </trkpt>
      <trkpt lat="45.08693" lon="2.7464">
        <ele>1156.88</ele>
        <time>2022-07-12T14:47:01Z</time>
      </trkpt>
      <trkpt lat="45.08677" lon="2.74621">
        <ele>1159.06</ele>
        <time>2022-07-12T14:47:17Z</time>
      </trkpt>
      <trkpt lat="45.08675" lon="2.74617">
        <ele>1159.14</ele>
        <time>2022-07-12T14:47:19Z</time>
      </trkpt>
      <trkpt lat="45.08673" lon="2.7461">
        <ele>1159.55</ele>
        <time>2022-07-12T14:47:23Z</time>
      </trkpt>
      <trkpt lat="45.08668" lon="2.746">
        <ele>1160.17</ele>
        <time>2022-07-12T14:47:31Z</time>
      </trkpt>
      <trkpt lat="45.08667" lon="2.74586">
        <ele>1161.08</ele>
        <time>2022-07-12T14:47:46Z</time>
      </trkpt>
      <trkpt lat="45.08667" lon="2.74584">
        <ele>1161.14</ele>
        <time>2022-07-12T14:47:49Z</time>
      </trkpt>
      <trkpt lat="45.08658" lon="2.74553">
        <ele>1161.56</ele>
        <time>2022-07-12T14:48:08Z</time>
      </trkpt>
      <trkpt lat="45.08657" lon="2.74535">
        <ele>1161.51</ele>
        <time>2022-07-12T14:48:17Z</time>
      </trkpt>
      <trkpt lat="45.08656" lon="2.74522">
        <ele>1161.27</ele>
        <time>2022-07-12T14:48:22Z</time>
      </trkpt>
      <trkpt lat="45.08657" lon="2.74515">
        <ele>1161.06</ele>
        <time>2022-07-12T14:48:26Z</time>
      </trkpt>
      <trkpt lat="45.08655" lon="2.74481">
        <ele>1159.55</ele>
        <time>2022-07-12T14:48:42Z</time>
      </trkpt>
      <trkpt lat="45.08651" lon="2.74456">
        <ele>1158.56</ele>
        <time>2022-07-12T14:48:54Z</time>
      </trkpt>
      <trkpt lat="45.08651" lon="2.74447">
        <ele>1158.31</ele>
        <time>2022-07-12T14:48:59Z</time>
      </trkpt>
      <trkpt lat="45.08653" lon="2.74444">
        <ele>1158.17</ele>
        <time>2022-07-12T14:49:01Z</time>
      </trkpt>
      <trkpt lat="45.08662" lon="2.74419">
        <ele>1157.32</ele>
        <time>2022-07-12T14:49:17Z</time>
      </trkpt>
      <trkpt lat="45.08667" lon="2.74407">
        <ele>1157.02</ele>
        <time>2022-07-12T14:49:25Z</time>
      </trkpt>
      <trkpt lat="45.08684" lon="2.7439">
        <ele>1156.7</ele>
        <time>2022-07-12T14:49:41Z</time>
      </trkpt>
      <trkpt lat="45.08707" lon="2.74382">
        <ele>1156.2</ele>
        <time>2022-07-12T14:50:00Z</time>
      </trkpt>
      <trkpt lat="45.08738" lon="2.74397">
        <ele>1155.7</ele>
        <time>2022-07-12T14:50:24Z</time>
      </trkpt>
      <trkpt lat="45.08754" lon="2.74423">
        <ele>1155.49</ele>
        <time>2022-07-12T14:50:41Z</time>
      </trkpt>
      <trkpt lat="45.08759" lon="2.74451">
        <ele>1155.35</ele>
        <time>2022-07-12T14:50:57Z</time>
      </trkpt>
      <trkpt lat="45.08773" lon="2.7448">
        <ele>1154.71</ele>
        <time>2022-07-12T14:51:16Z</time>
      </trkpt>
      <trkpt lat="45.08787" lon="2.74509">
        <ele>1153.88</ele>
        <time>2022-07-12T14:51:33Z</time>
      </trkpt>
      <trkpt lat="45.08803" lon="2.74543">
        <ele>1151.83</ele>
        <time>2022-07-12T14:51:52Z</time>
      </trkpt>
      <trkpt lat="45.08809" lon="2.74568">
        <ele>1151.39</ele>
        <time>2022-07-12T14:52:09Z</time>
      </trkpt>
      <trkpt lat="45.08823" lon="2.74599">
        <ele>1149.57</ele>
        <time>2022-07-12T14:52:29Z</time>
      </trkpt>
      <trkpt lat="45.08834" lon="2.74618">
        <ele>1148.48</ele>
        <time>2022-07-12T14:52:41Z</time>
      </trkpt>
      <trkpt lat="45.08845" lon="2.74642">
        <ele>1147.05</ele>
        <time>2022-07-12T14:52:57Z</time>
      </trkpt>
      <trkpt lat="45.08848" lon="2.74652">
        <ele>1146.58</ele>
        <time>2022-07-12T14:53:03Z</time>
      </trkpt>
      <trkpt lat="45.08849" lon="2.74654">
        <ele>1146.55</ele>
        <time>2022-07-12T14:53:04Z</time>
      </trkpt>
      <trkpt lat="45.0885" lon="2.74656">
        <ele>1146.53</ele>
        <time>2022-07-12T14:53:05Z</time>
      </trkpt>
      <trkpt lat="45.0885" lon="2.74658">
        <ele>1146.5</ele>
        <time>2022-07-12T14:53:06Z</time>
      </trkpt>
      <trkpt lat="45.0885" lon="2.74659">
        <ele>1146.49</ele>
        <time>2022-07-12T14:53:07Z</time>
      </trkpt>
      <trkpt lat="45.0885" lon="2.74661">
        <ele>1146.47</ele>
        <time>2022-07-12T14:53:08Z</time>
      </trkpt>
      <trkpt lat="45.08851" lon="2.74663">
        <ele>1146.45</ele>
        <time>2022-07-12T14:53:09Z</time>
      </trkpt>
      <trkpt lat="45.08867" lon="2.74691">
        <ele>1144.94</ele>
        <time>2022-07-12T14:53:25Z</time>
      </trkpt>
      <trkpt lat="45.0887" lon="2.74712">
        <ele>1144.18</ele>
        <time>2022-07-12T14:53:39Z</time>
      </trkpt>
      <trkpt lat="45.08881" lon="2.74741">
        <ele>1141.78</ele>
        <time>2022-07-12T14:54:00Z</time>
      </trkpt>
      <trkpt lat="45.08881" lon="2.74742">
        <ele>1141.72</ele>
        <time>2022-07-12T14:54:01Z</time>
      </trkpt>
      <trkpt lat="45.08882" lon="2.74743">
        <ele>1141.67</ele>
        <time>2022-07-12T14:54:02Z</time>
      </trkpt>
      <trkpt lat="45.08883" lon="2.74745">
        <ele>1141.62</ele>
        <time>2022-07-12T14:54:03Z</time>
      </trkpt>
      <trkpt lat="45.08883" lon="2.74747">
        <ele>1141.53</ele>
        <time>2022-07-12T14:54:04Z</time>
      </trkpt>
      <trkpt lat="45.08884" lon="2.74748">
        <ele>1141.47</ele>
        <time>2022-07-12T14:54:05Z</time>
      </trkpt>
      <trkpt lat="45.08899" lon="2.74772">
        <ele>1140.99</ele>
        <time>2022-07-12T14:54:20Z</time>
      </trkpt>
      <trkpt lat="45.089" lon="2.74773">
        <ele>1140.9</ele>
        <time>2022-07-12T14:54:21Z</time>
      </trkpt>
      <trkpt lat="45.08901" lon="2.74775">
        <ele>1140.85</ele>
        <time>2022-07-12T14:54:22Z</time>
      </trkpt>
      <trkpt lat="45.08909" lon="2.74792">
        <ele>1138.7</ele>
        <time>2022-07-12T14:54:33Z</time>
      </trkpt>
      <trkpt lat="45.08909" lon="2.74796">
        <ele>1138.48</ele>
        <time>2022-07-12T14:54:35Z</time>
      </trkpt>
      <trkpt lat="45.0891" lon="2.74797">
        <ele>1138.43</ele>
        <time>2022-07-12T14:54:36Z</time>
      </trkpt>
      <trkpt lat="45.08912" lon="2.74798">
        <ele>1138.4</ele>
        <time>2022-07-12T14:54:37Z</time>
      </trkpt>
      <trkpt lat="45.08927" lon="2.74822">
        <ele>1137.36</ele>
        <time>2022-07-12T14:54:52Z</time>
      </trkpt>
      <trkpt lat="45.08938" lon="2.74839">
        <ele>1135.98</ele>
        <time>2022-07-12T14:55:06Z</time>
      </trkpt>
      <trkpt lat="45.08956" lon="2.74855">
        <ele>1134.72</ele>
        <time>2022-07-12T14:55:21Z</time>
      </trkpt>
      <trkpt lat="45.08955" lon="2.74866">
        <ele>1133.57</ele>
        <time>2022-07-12T14:55:31Z</time>
      </trkpt>
      <trkpt lat="45.08957" lon="2.74866">
        <ele>1133.37</ele>
        <time>2022-07-12T14:55:34Z</time>
      </trkpt>
      <trkpt lat="45.0896" lon="2.74869">
        <ele>1133.24</ele>
        <time>2022-07-12T14:55:37Z</time>
      </trkpt>
      <trkpt lat="45.08979" lon="2.74898">
        <ele>1131.99</ele>
        <time>2022-07-12T14:55:57Z</time>
      </trkpt>
      <trkpt lat="45.08975" lon="2.74936">
        <ele>1129.88</ele>
        <time>2022-07-12T14:56:15Z</time>
      </trkpt>
      <trkpt lat="45.08975" lon="2.74937">
        <ele>1129.76</ele>
        <time>2022-07-12T14:56:16Z</time>
      </trkpt>
      <trkpt lat="45.08976" lon="2.74939">
        <ele>1129.7</ele>
        <time>2022-07-12T14:56:17Z</time>
      </trkpt>
      <trkpt lat="45.08977" lon="2.74941">
        <ele>1129.64</ele>
        <time>2022-07-12T14:56:18Z</time>
      </trkpt>
      <trkpt lat="45.08978" lon="2.74942">
        <ele>1129.6</ele>
        <time>2022-07-12T14:56:19Z</time>
      </trkpt>
      <trkpt lat="45.08979" lon="2.74943">
        <ele>1129.57</ele>
        <time>2022-07-12T14:56:20Z</time>
      </trkpt>
      <trkpt lat="45.08997" lon="2.74966">
        <ele>1128.34</ele>
        <time>2022-07-12T14:56:38Z</time>
      </trkpt>
      <trkpt lat="45.09012" lon="2.74996">
        <ele>1127.43</ele>
        <time>2022-07-12T14:56:57Z</time>
      </trkpt>
      <trkpt lat="45.09016" lon="2.75005">
        <ele>1127.16</ele>
        <time>2022-07-12T14:57:05Z</time>
      </trkpt>
      <trkpt lat="45.09018" lon="2.75008">
        <ele>1126.84</ele>
        <time>2022-07-12T14:57:15Z</time>
      </trkpt>
      <trkpt lat="45.09019" lon="2.7501">
        <ele>1126.75</ele>
        <time>2022-07-12T14:57:17Z</time>
      </trkpt>
      <trkpt lat="45.0902" lon="2.75012">
        <ele>1126.67</ele>
        <time>2022-07-12T14:57:18Z</time>
      </trkpt>
      <trkpt lat="45.09021" lon="2.75013">
        <ele>1126.63</ele>
        <time>2022-07-12T14:57:19Z</time>
      </trkpt>
      <trkpt lat="45.09022" lon="2.75014">
        <ele>1126.58</ele>
        <time>2022-07-12T14:57:20Z</time>
      </trkpt>
      <trkpt lat="45.09023" lon="2.75015">
        <ele>1126.55</ele>
        <time>2022-07-12T14:57:21Z</time>
      </trkpt>
      <trkpt lat="45.09023" lon="2.75017">
        <ele>1126.55</ele>
        <time>2022-07-12T14:57:22Z</time>
      </trkpt>
      <trkpt lat="45.09024" lon="2.75018">
        <ele>1126.48</ele>
        <time>2022-07-12T14:57:23Z</time>
      </trkpt>
      <trkpt lat="45.09034" lon="2.75042">
        <ele>1125.72</ele>
        <time>2022-07-12T14:57:40Z</time>
      </trkpt>
      <trkpt lat="45.09047" lon="2.75058">
        <ele>1125.2</ele>
        <time>2022-07-12T14:57:55Z</time>
        <extensions>
          <visugpx:TrkExtension xmlns:visugpx="https://www.visugpx.com/editgpx/">
            <visugpx:node>1</visugpx:node>
            </visugpx:TrkExtension>
        </extensions>
      </trkpt>
      <trkpt lat="45.09089" lon="2.7517">
        <ele>1120.24</ele>
        <time>2022-07-12T07:44:17Z</time>
      </trkpt>
      <trkpt lat="45.09095" lon="2.75181">
        <ele>1120.25</ele>
        <time>2022-07-12T07:44:18Z</time>
      </trkpt>
      <trkpt lat="45.09096" lon="2.75186">
        <ele>1120.14</ele>
        <time>2022-07-12T07:44:41Z</time>
      </trkpt>
    </trkseg>
  </trk>
</gpx>